Darstellungsparameter: Aktuell verwendete Einstellungen:
Skalierung der Graphiken ... ?
xyx+y,   Skalierungsfaktor:      Skalierung: Modus: x, Faktor: 1
Darstellungszeitraum ... ?
Vom - - bis: - -   Zeitraum: 06.12.2019 - 05.06.2020
Min/Max/Avg-Anzeige ... ?
Zeige MMA aktuell
Zeige MMA Monat
Zeige MMA alles
Zeige --A aktuell
Zeige --A Monat
Zeige --A alles
Keine MMA-Anzeige
MMA:
Keine MMA-Graphiken
MMA-Basis: 06.12.2019 - 05.06.2020
Quicknavigation für Darstellung... ?
Tage:      1T, 2T, 3T, 5T -1T -2T -3T -5T +1T +2T +3T +5T
Wochen: 1W, 2W, 3W -1W -2W -3W +1W +2W +3W
Monate: 1M, 3M, 6M -1M -3M -6M +1M +3M +6M
Jahre:    1J, 3J, 5J, 10J -1J -3J -5J -10J +1J +3J +5J +10J
Nutze für die Darstellung ... ?
Originaldaten oder Mittelwerte auf ...
Stundenbasis Tagesbasis Wochenbasis
Monatsbasis Jahresbasis      Datenbasis: Original-Daten
Darstellen als:
Statistik (Auto) Statistik J:M      Darstellung:
Zur Graphik,    zurück zur Übersicht aller Sensoren.
 
Tabellarische Datenbersicht: ?
 
Sensor: Nr:Datum:Temp:Feuchte:Taupunkt:
Aussen-T/F 1 06-12-2019 00:00:00 -2.2 C 97 % -2.61 C
2 06-12-2019 00:05:00 -2.1 C 97 % -2.51 C
3 06-12-2019 00:10:00 -2.2 C 97 % -2.61 C
4 06-12-2019 00:15:00 -2.2 C 97 % -2.61 C
5 06-12-2019 00:20:00 -2.3 C 97 % -2.71 C
6 06-12-2019 00:25:00 -2.3 C 97 % -2.71 C
7 06-12-2019 00:30:00 -2.4 C 97 % -2.81 C
8 06-12-2019 00:35:00 -2.4 C 97 % -2.81 C
9 06-12-2019 00:40:00 -2.4 C 97 % -2.81 C
10 06-12-2019 00:45:00 -2.4 C 97 % -2.81 C
11 06-12-2019 00:50:00 -2.3 C 97 % -2.71 C
12 06-12-2019 00:55:00 -2.2 C 97 % -2.61 C
13 06-12-2019 01:00:00 -2 C 97 % -2.41 C
14 06-12-2019 01:05:00 -1.8 C 97 % -2.21 C
15 06-12-2019 01:10:00 -1.6 C 97 % -2.01 C
16 06-12-2019 01:15:00 -1.3 C 97 % -1.71 C
17 06-12-2019 01:20:00 -1 C 97 % -1.41 C
18 06-12-2019 01:25:00 -0.9 C 98 % -1.18 C
19 06-12-2019 01:30:00 -0.9 C 98 % -1.18 C
20 06-12-2019 01:35:00 -0.9 C 98 % -1.18 C
21 06-12-2019 01:40:00 -0.9 C 97 % -1.32 C
22 06-12-2019 01:45:00 -0.8 C 97 % -1.22 C
23 06-12-2019 01:50:00 -0.7 C 97 % -1.12 C
24 06-12-2019 01:55:00 -0.7 C 97 % -1.12 C
25 06-12-2019 02:00:00 -0.6 C 97 % -1.02 C
Sensor: Nr:Datum:Temp:Feuchte:Taupunkt:
Aussen-T/F 26 06-12-2019 02:05:00 -0.6 C 97 % -1.02 C
27 06-12-2019 02:10:00 -0.6 C 97 % -1.02 C
28 06-12-2019 02:15:00 -0.5 C 97 % -0.92 C
29 06-12-2019 02:20:00 -0.6 C 97 % -1.02 C
30 06-12-2019 02:25:00 -0.6 C 97 % -1.02 C
31 06-12-2019 02:30:00 -0.6 C 97 % -1.02 C
32 06-12-2019 02:35:00 -0.6 C 97 % -1.02 C
33 06-12-2019 02:40:00 -0.6 C 97 % -1.02 C
34 06-12-2019 02:45:00 -0.6 C 97 % -1.02 C
35 06-12-2019 02:50:00 -0.5 C 97 % -0.92 C
36 06-12-2019 02:55:00 -0.5 C 97 % -0.92 C
37 06-12-2019 03:00:00 -0.4 C 97 % -0.82 C
38 06-12-2019 03:05:00 -0.4 C 97 % -0.82 C
39 06-12-2019 03:10:00 -0.4 C 97 % -0.82 C
40 06-12-2019 03:15:00 -0.3 C 97 % -0.72 C
41 06-12-2019 03:20:00 -0.3 C 97 % -0.72 C
42 06-12-2019 03:25:00 -0.2 C 97 % -0.62 C
43 06-12-2019 03:30:00 -0.2 C 96 % -0.76 C
44 06-12-2019 03:35:00 -0.1 C 96 % -0.66 C
45 06-12-2019 03:40:00 -0.1 C 96 % -0.66 C
46 06-12-2019 03:45:00 -0.1 C 96 % -0.66 C
47 06-12-2019 03:50:00 -0.1 C 96 % -0.66 C
48 06-12-2019 03:55:00 -0.1 C 96 % -0.66 C
49 06-12-2019 04:00:00 -0.1 C 96 % -0.66 C
50 06-12-2019 04:05:00 -0.1 C 96 % -0.66 C
Sensor: Nr:Datum:Temp:Feuchte:Taupunkt:
Aussen-T/F 51 06-12-2019 04:10:00 -0.1 C 96 % -0.66 C
52 06-12-2019 04:15:00 -0.2 C 96 % -0.76 C
53 06-12-2019 04:20:00 -0.2 C 95 % -0.9 C
54 06-12-2019 04:25:00 -0.2 C 95 % -0.9 C
55 06-12-2019 04:30:00 -0.1 C 95 % -0.8 C
56 06-12-2019 04:35:00 -0.1 C 95 % -0.8 C
57 06-12-2019 04:40:00 -0.1 C 96 % -0.66 C
58 06-12-2019 04:45:00 -0.1 C 96 % -0.66 C
59 06-12-2019 04:50:00 0 C 96 % -0.56 C
60 06-12-2019 04:55:00 0 C 95 % -0.7 C
61 06-12-2019 05:00:00 0 C 95 % -0.7 C
62 06-12-2019 05:05:00 0.1 C 95 % -0.6 C
63 06-12-2019 05:10:00 0.2 C 95 % -0.5 C
64 06-12-2019 05:15:00 0.2 C 95 % -0.5 C
65 06-12-2019 05:20:00 0.2 C 95 % -0.5 C
66 06-12-2019 05:25:00 0.2 C 95 % -0.5 C
67 06-12-2019 05:30:00 0.1 C 95 % -0.6 C
68 06-12-2019 05:35:00 0.1 C 95 % -0.6 C
69 06-12-2019 05:40:00 0.1 C 95 % -0.6 C
70 06-12-2019 05:45:00 0.1 C 95 % -0.6 C
71 06-12-2019 05:50:00 0.1 C 95 % -0.6 C
72 06-12-2019 05:55:00 0.2 C 95 % -0.5 C
73 06-12-2019 06:00:00 0.2 C 95 % -0.5 C
74 06-12-2019 06:05:00 0.3 C 95 % -0.4 C
75 06-12-2019 06:10:00 0.3 C 95 % -0.4 C
Sensor: Nr:Datum:Temp:Feuchte:Taupunkt:
Aussen-T/F 76 06-12-2019 06:15:00 0.3 C 95 % -0.4 C
77 06-12-2019 06:20:00 0.3 C 95 % -0.4 C
78 06-12-2019 06:25:00 0.4 C 95 % -0.31 C
79 06-12-2019 06:30:00 0.4 C 94 % -0.45 C
80 06-12-2019 06:35:00 0.4 C 94 % -0.45 C
81 06-12-2019 06:40:00 0.4 C 94 % -0.45 C
82 06-12-2019 06:45:00 0.4 C 94 % -0.45 C
83 06-12-2019 06:50:00 0.5 C 94 % -0.35 C
84 06-12-2019 06:55:00 0.5 C 94 % -0.35 C
85 06-12-2019 07:00:00 0.5 C 94 % -0.35 C
86 06-12-2019 07:05:00 0.5 C 95 % -0.21 C
87 06-12-2019 07:10:00 0.5 C 94 % -0.35 C
88 06-12-2019 07:15:00 0.6 C 94 % -0.25 C
89 06-12-2019 07:20:00 0.6 C 95 % -0.11 C
90 06-12-2019 07:25:00 0.7 C 94 % -0.15 C
91 06-12-2019 07:30:00 0.7 C 94 % -0.15 C
92 06-12-2019 07:35:00 0.8 C 94 % -0.05 C
93 06-12-2019 07:40:00 0.8 C 94 % -0.05 C
94 06-12-2019 07:45:00 0.9 C 94 % 0.05 C
95 06-12-2019 07:50:00 1 C 93 % 0 C
96 06-12-2019 07:55:00 1.1 C 93 % 0.1 C
97 06-12-2019 08:00:00 1.2 C 93 % 0.2 C
98 06-12-2019 08:05:00 1.2 C 93 % 0.2 C
99 06-12-2019 08:10:00 1.2 C 92 % 0.05 C
100 06-12-2019 08:15:00 1.3 C 92 % 0.15 C
Sensor: Nr:Datum:Temp:Feuchte:Taupunkt:
Aussen-T/F 101 06-12-2019 08:20:00 1.3 C 92 % 0.15 C
102 06-12-2019 08:25:00 1.3 C 93 % 0.3 C
103 06-12-2019 08:30:00 1.3 C 92 % 0.15 C
104 06-12-2019 08:35:00 1.4 C 92 % 0.25 C
105 06-12-2019 08:40:00 1.4 C 92 % 0.25 C
106 06-12-2019 08:45:00 1.4 C 92 % 0.25 C
107 06-12-2019 08:50:00 1.4 C 92 % 0.25 C
108 06-12-2019 08:55:00 1.4 C 92 % 0.25 C
109 06-12-2019 09:00:00 1.4 C 92 % 0.25 C
110 06-12-2019 09:05:00 1.5 C 92 % 0.35 C
111 06-12-2019 09:10:00 1.6 C 92 % 0.44 C
112 06-12-2019 09:15:00 1.7 C 93 % 0.69 C
113 06-12-2019 09:20:00 1.8 C 93 % 0.79 C
114 06-12-2019 09:25:00 1.9 C 92 % 0.74 C
115 06-12-2019 09:30:00 1.9 C 93 % 0.89 C
116 06-12-2019 09:35:00 2.1 C 93 % 1.09 C
117 06-12-2019 09:40:00 2.1 C 93 % 1.09 C
118 06-12-2019 09:45:00 2.2 C 93 % 1.19 C
119 06-12-2019 09:50:00 2.2 C 93 % 1.19 C
120 06-12-2019 09:55:00 2.3 C 93 % 1.29 C
121 06-12-2019 10:00:00 2.3 C 93 % 1.29 C
122 06-12-2019 10:05:00 2.4 C 93 % 1.39 C
123 06-12-2019 10:10:00 2.4 C 93 % 1.39 C
124 06-12-2019 10:15:00 2.5 C 93 % 1.49 C
125 06-12-2019 10:20:00 2.6 C 93 % 1.59 C
Sensor: Nr:Datum:Temp:Feuchte:Taupunkt:
Aussen-T/F 126 06-12-2019 10:25:00 2.6 C 94 % 1.73 C
127 06-12-2019 10:30:00 2.6 C 94 % 1.73 C
128 06-12-2019 10:35:00 2.7 C 94 % 1.83 C
129 06-12-2019 10:40:00 2.7 C 94 % 1.83 C
130 06-12-2019 10:45:00 2.9 C 94 % 2.03 C
131 06-12-2019 10:50:00 3 C 94 % 2.13 C
132 06-12-2019 10:55:00 3.1 C 94 % 2.23 C
133 06-12-2019 11:00:00 3.2 C 94 % 2.33 C
134 06-12-2019 11:05:00 3.3 C 94 % 2.43 C
135 06-12-2019 11:10:00 3.5 C 95 % 2.78 C
136 06-12-2019 11:15:00 3.6 C 94 % 2.73 C
137 06-12-2019 11:20:00 3.7 C 94 % 2.83 C
138 06-12-2019 11:25:00 3.8 C 94 % 2.93 C
139 06-12-2019 11:30:00 4 C 94 % 3.12 C
140 06-12-2019 11:35:00 4.1 C 94 % 3.22 C
141 06-12-2019 11:40:00 4.2 C 94 % 3.32 C
142 06-12-2019 11:45:00 4.3 C 94 % 3.42 C
143 06-12-2019 11:50:00 4.3 C 94 % 3.42 C
144 06-12-2019 11:55:00 4.4 C 93 % 3.37 C
145 06-12-2019 12:00:00 4.5 C 93 % 3.47 C
146 06-12-2019 12:05:00 4.6 C 93 % 3.57 C
147 06-12-2019 12:10:00 4.7 C 93 % 3.67 C
148 06-12-2019 12:15:00 4.7 C 93 % 3.67 C
149 06-12-2019 12:20:00 4.7 C 93 % 3.67 C
150 06-12-2019 12:25:00 4.7 C 94 % 3.82 C
Sensor: Nr:Datum:Temp:Feuchte:Taupunkt:
Aussen-T/F 151 06-12-2019 12:30:00 4.7 C 94 % 3.82 C
152 06-12-2019 12:35:00 4.7 C 94 % 3.82 C
153 06-12-2019 12:40:00 4.7 C 94 % 3.82 C
154 06-12-2019 12:45:00 4.8 C 94 % 3.92 C
155 06-12-2019 12:50:00 4.8 C 94 % 3.92 C
156 06-12-2019 12:55:00 4.8 C 94 % 3.92 C
157 06-12-2019 13:00:00 4.8 C 95 % 4.07 C
158 06-12-2019 13:05:00 4.8 C 95 % 4.07 C
159 06-12-2019 13:10:00 4.8 C 95 % 4.07 C
160 06-12-2019 13:15:00 4.9 C 95 % 4.17 C
161 06-12-2019 13:20:00 4.9 C 95 % 4.17 C
162 06-12-2019 13:25:00 4.9 C 95 % 4.17 C
163 06-12-2019 13:30:00 4.9 C 95 % 4.17 C
164 06-12-2019 13:35:00 5 C 95 % 4.27 C
165 06-12-2019 13:40:00 5.1 C 95 % 4.37 C
166 06-12-2019 13:45:00 5.1 C 95 % 4.37 C
167 06-12-2019 13:50:00 5.1 C 95 % 4.37 C
168 06-12-2019 13:55:00 5.2 C 95 % 4.47 C
169 06-12-2019 14:00:00 5.2 C 95 % 4.47 C
170 06-12-2019 14:05:00 5.2 C 95 % 4.47 C
171 06-12-2019 14:10:00 5.2 C 95 % 4.47 C
172 06-12-2019 14:15:00 5.2 C 95 % 4.47 C
173 06-12-2019 14:20:00 5.2 C 95 % 4.47 C
174 06-12-2019 14:25:00 5.3 C 95 % 4.57 C
175 06-12-2019 14:30:00 5.3 C 95 % 4.57 C
Sensor: Nr:Datum:Temp:Feuchte:Taupunkt:
Aussen-T/F 176 06-12-2019 14:35:00 5.3 C 95 % 4.57 C
177 06-12-2019 14:40:00 5.3 C 95 % 4.57 C
178 06-12-2019 14:45:00 5.3 C 95 % 4.57 C
179 06-12-2019 14:50:00 5.3 C 95 % 4.57 C
180 06-12-2019 14:55:00 5.3 C 95 % 4.57 C
181 06-12-2019 15:00:00 5.3 C 95 % 4.57 C
182 06-12-2019 15:05:00 5.3 C 95 % 4.57 C
183 06-12-2019 15:10:00 5.3 C 95 % 4.57 C
184 06-12-2019 15:15:00 5.3 C 95 % 4.57 C
185 06-12-2019 15:20:00 5.4 C 95 % 4.66 C
186 06-12-2019 15:25:00 5.5 C 95 % 4.76 C
187 06-12-2019 15:30:00 5.4 C 95 % 4.66 C
188 06-12-2019 15:35:00 5.5 C 95 % 4.76 C
189 06-12-2019 15:40:00 5.5 C 95 % 4.76 C
190 06-12-2019 15:45:00 5.6 C 95 % 4.86 C
191 06-12-2019 15:50:00 5.6 C 95 % 4.86 C
192 06-12-2019 15:55:00 5.6 C 95 % 4.86 C
193 06-12-2019 16:00:00 5.6 C 95 % 4.86 C
194 06-12-2019 16:05:00 5.7 C 95 % 4.96 C
195 06-12-2019 16:10:00 5.7 C 95 % 4.96 C
196 06-12-2019 16:15:00 5.8 C 95 % 5.06 C
197 06-12-2019 16:20:00 5.9 C 94 % 5.01 C
198 06-12-2019 16:25:00 6.1 C 93 % 5.06 C
199 06-12-2019 16:30:00 6.1 C 93 % 5.06 C
200 06-12-2019 16:35:00 6.1 C 93 % 5.06 C
Sensor: Nr:Datum:Temp:Feuchte:Taupunkt:
Aussen-T/F 201 06-12-2019 16:40:00 6.1 C 93 % 5.06 C
202 06-12-2019 16:45:00 6.1 C 93 % 5.06 C
203 06-12-2019 16:50:00 6.1 C 92 % 4.9 C
204 06-12-2019 16:55:00 6.2 C 92 % 5 C
205 06-12-2019 17:00:00 6.2 C 92 % 5 C
206 06-12-2019 17:05:00 6.2 C 91 % 4.84 C
207 06-12-2019 17:10:00 6.2 C 91 % 4.84 C
208 06-12-2019 17:15:00 6.2 C 91 % 4.84 C
209 06-12-2019 17:20:00 6.2 C 91 % 4.84 C
210 06-12-2019 17:25:00 6.2 C 91 % 4.84 C
211 06-12-2019 17:30:00 6.2 C 91 % 4.84 C
212 06-12-2019 17:35:00 6.2 C 91 % 4.84 C
213 06-12-2019 17:40:00 6.2 C 91 % 4.84 C
214 06-12-2019 17:45:00 6.3 C 90 % 4.78 C
215 06-12-2019 17:50:00 6.3 C 90 % 4.78 C
216 06-12-2019 17:55:00 6.3 C 91 % 4.94 C
217 06-12-2019 18:00:00 6.4 C 90 % 4.88 C
218 06-12-2019 18:05:00 6.4 C 90 % 4.88 C
219 06-12-2019 18:10:00 6.5 C 90 % 4.98 C
220 06-12-2019 18:15:00 6.6 C 90 % 5.08 C
221 06-12-2019 18:20:00 6.6 C 90 % 5.08 C
222 06-12-2019 18:25:00 6.7 C 90 % 5.18 C
223 06-12-2019 18:30:00 6.7 C 90 % 5.18 C
224 06-12-2019 18:35:00 6.7 C 90 % 5.18 C
225 06-12-2019 18:40:00 6.8 C 90 % 5.28 C
Sensor: Nr:Datum:Temp:Feuchte:Taupunkt:
Aussen-T/F 226 06-12-2019 18:45:00 6.8 C 90 % 5.28 C
227 06-12-2019 18:50:00 6.8 C 90 % 5.28 C
228 06-12-2019 18:55:00 6.8 C 90 % 5.28 C
229 06-12-2019 19:00:00 6.8 C 90 % 5.28 C
230 06-12-2019 19:05:00 6.8 C 91 % 5.44 C
231 06-12-2019 19:10:00 6.7 C 91 % 5.34 C
232 06-12-2019 19:15:00 6.8 C 91 % 5.44 C
233 06-12-2019 19:20:00 6.8 C 91 % 5.44 C
234 06-12-2019 19:25:00 6.8 C 91 % 5.44 C
235 06-12-2019 19:30:00 6.9 C 90 % 5.38 C
236 06-12-2019 19:35:00 6.9 C 90 % 5.38 C
237 06-12-2019 19:40:00 7.1 C 89 % 5.41 C
238 06-12-2019 19:45:00 7.1 C 90 % 5.57 C
239 06-12-2019 19:50:00 7.1 C 89 % 5.41 C
240 06-12-2019 19:55:00 7.2 C 89 % 5.51 C
241 06-12-2019 20:00:00 7.2 C 89 % 5.51 C
242 06-12-2019 20:05:00 7.2 C 89 % 5.51 C
243 06-12-2019 20:10:00 7.3 C 89 % 5.61 C
244 06-12-2019 20:15:00 7.3 C 89 % 5.61 C
245 06-12-2019 20:20:00 7.3 C 89 % 5.61 C
246 06-12-2019 20:25:00 7.3 C 89 % 5.61 C
247 06-12-2019 20:30:00 7.3 C 89 % 5.61 C
248 06-12-2019 20:35:00 7.3 C 89 % 5.61 C
249 06-12-2019 20:40:00 7.3 C 89 % 5.61 C
250 06-12-2019 20:45:00 7.3 C 89 % 5.61 C
Sensor: Nr:Datum:Temp:Feuchte:Taupunkt:
Aussen-T/F 251 06-12-2019 20:50:00 7.3 C 89 % 5.61 C
252 06-12-2019 20:55:00 7.3 C 89 % 5.61 C
253 06-12-2019 21:00:00 7.3 C 89 % 5.61 C
254 06-12-2019 21:05:00 7.3 C 89 % 5.61 C
255 06-12-2019 21:10:00 7.3 C 89 % 5.61 C
256 06-12-2019 21:15:00 7.2 C 89 % 5.51 C
257 06-12-2019 21:20:00 7.2 C 89 % 5.51 C
258 06-12-2019 21:25:00 7.2 C 89 % 5.51 C
259 06-12-2019 21:30:00 7.2 C 89 % 5.51 C
260 06-12-2019 21:35:00 7.2 C 90 % 5.67 C
261 06-12-2019 21:40:00 7.1 C 90 % 5.57 C
262 06-12-2019 21:45:00 7.1 C 90 % 5.57 C
263 06-12-2019 21:50:00 7.1 C 90 % 5.57 C
264 06-12-2019 21:55:00 7.1 C 90 % 5.57 C
265 06-12-2019 22:00:00 7.1 C 90 % 5.57 C
266 06-12-2019 22:05:00 7.1 C 90 % 5.57 C
267 06-12-2019 22:10:00 7.2 C 90 % 5.67 C
268 06-12-2019 22:15:00 7.2 C 90 % 5.67 C
269 06-12-2019 22:20:00 7.2 C 89 % 5.51 C
270 06-12-2019 22:25:00 7.2 C 89 % 5.51 C
271 06-12-2019 22:30:00 7.3 C 89 % 5.61 C
272 06-12-2019 22:35:00 7.3 C 89 % 5.61 C
273 06-12-2019 22:40:00 7.3 C 89 % 5.61 C
274 06-12-2019 22:45:00 7.3 C 89 % 5.61 C
275 06-12-2019 22:50:00 7.4 C 89 % 5.71 C
Sensor: Nr:Datum:Temp:Feuchte:Taupunkt:
Aussen-T/F 276 06-12-2019 22:55:00 7.4 C 88 % 5.55 C
277 06-12-2019 23:00:00 7.5 C 88 % 5.64 C
278 06-12-2019 23:05:00 7.5 C 88 % 5.64 C
279 06-12-2019 23:10:00 7.5 C 89 % 5.81 C
280 06-12-2019 23:15:00 7.5 C 89 % 5.81 C
281 06-12-2019 23:20:00 7.5 C 89 % 5.81 C
282 06-12-2019 23:25:00 7.4 C 89 % 5.71 C
283 06-12-2019 23:30:00 7.4 C 90 % 5.87 C
284 06-12-2019 23:35:00 7.4 C 90 % 5.87 C
285 06-12-2019 23:40:00 7.4 C 90 % 5.87 C
286 06-12-2019 23:45:00 7.4 C 90 % 5.87 C
287 06-12-2019 23:50:00 7.4 C 90 % 5.87 C
288 06-12-2019 23:55:00 7.4 C 90 % 5.87 C
289 07-12-2019 00:00:00 7.4 C 90 % 5.87 C
290 07-12-2019 00:05:00 7.4 C 90 % 5.87 C
291 07-12-2019 00:10:00 7.5 C 90 % 5.97 C
292 07-12-2019 00:15:00 7.6 C 90 % 6.07 C
293 07-12-2019 00:20:00 7.7 C 90 % 6.17 C
294 07-12-2019 00:25:00 7.7 C 90 % 6.17 C
295 07-12-2019 00:30:00 7.7 C 90 % 6.17 C
296 07-12-2019 00:35:00 7.7 C 90 % 6.17 C
297 07-12-2019 00:40:00 7.7 C 90 % 6.17 C
298 07-12-2019 00:45:00 7.8 C 90 % 6.27 C
299 07-12-2019 00:50:00 7.8 C 90 % 6.27 C
300 07-12-2019 00:55:00 7.8 C 90 % 6.27 C
Sensor: Nr:Datum:Temp:Feuchte:Taupunkt:
Aussen-T/F 301 07-12-2019 01:00:00 7.9 C 90 % 6.36 C
302 07-12-2019 01:05:00 7.9 C 90 % 6.36 C
303 07-12-2019 01:10:00 8 C 90 % 6.46 C
304 07-12-2019 01:15:00 8 C 90 % 6.46 C
305 07-12-2019 01:20:00 8 C 90 % 6.46 C
306 07-12-2019 01:25:00 8.1 C 90 % 6.56 C
307 07-12-2019 01:30:00 8.2 C 90 % 6.66 C
308 07-12-2019 01:35:00 8.2 C 90 % 6.66 C
309 07-12-2019 01:40:00 8.2 C 90 % 6.66 C
310 07-12-2019 01:45:00 8.2 C 90 % 6.66 C
311 07-12-2019 01:50:00 8.2 C 90 % 6.66 C
312 07-12-2019 01:55:00 8.2 C 91 % 6.82 C
313 07-12-2019 02:00:00 8.2 C 91 % 6.82 C
314 07-12-2019 02:05:00 8.2 C 91 % 6.82 C
315 07-12-2019 02:10:00 8.1 C 91 % 6.72 C
316 07-12-2019 02:15:00 8.1 C 91 % 6.72 C
317 07-12-2019 02:20:00 8.2 C 92 % 6.98 C
318 07-12-2019 02:25:00 8.2 C 92 % 6.98 C
319 07-12-2019 02:30:00 8.2 C 92 % 6.98 C
320 07-12-2019 02:35:00 8.1 C 93 % 7.04 C
321 07-12-2019 02:40:00 8.1 C 93 % 7.04 C
322 07-12-2019 02:45:00 8.1 C 93 % 7.04 C
323 07-12-2019 02:50:00 8.1 C 94 % 7.19 C
324 07-12-2019 02:55:00 8.1 C 94 % 7.19 C
325 07-12-2019 03:00:00 8.2 C 93 % 7.14 C
Sensor: Nr:Datum:Temp:Feuchte:Taupunkt:
Aussen-T/F 326 07-12-2019 03:05:00 8.2 C 93 % 7.14 C
327 07-12-2019 03:10:00 8.3 C 93 % 7.24 C
328 07-12-2019 03:15:00 8.3 C 93 % 7.24 C
329 07-12-2019 03:20:00 8.4 C 93 % 7.34 C
330 07-12-2019 03:25:00 8.6 C 93 % 7.53 C
331 07-12-2019 03:30:00 8.7 C 92 % 7.47 C
332 07-12-2019 03:35:00 8.8 C 91 % 7.41 C
333 07-12-2019 03:40:00 9 C 90 % 7.45 C
334 07-12-2019 03:45:00 9.2 C 89 % 7.48 C
335 07-12-2019 03:50:00 9.2 C 89 % 7.48 C
336 07-12-2019 03:55:00 9.3 C 88 % 7.42 C
337 07-12-2019 04:00:00 9.3 C 88 % 7.42 C
338 07-12-2019 04:05:00 9.2 C 89 % 7.48 C
339 07-12-2019 04:10:00 9.1 C 89 % 7.39 C
340 07-12-2019 04:15:00 9.1 C 89 % 7.39 C
341 07-12-2019 04:20:00 9 C 89 % 7.29 C
342 07-12-2019 04:25:00 8.9 C 89 % 7.19 C
343 07-12-2019 04:30:00 8.7 C 89 % 6.99 C
344 07-12-2019 04:35:00 8.7 C 90 % 7.15 C
345 07-12-2019 04:40:00 8.6 C 90 % 7.06 C
346 07-12-2019 04:45:00 8.6 C 90 % 7.06 C
347 07-12-2019 04:50:00 8.6 C 90 % 7.06 C
348 07-12-2019 04:55:00 8.5 C 90 % 6.96 C
349 07-12-2019 05:00:00 8.4 C 91 % 7.02 C
350 07-12-2019 05:05:00 8.4 C 91 % 7.02 C
Sensor: Nr:Datum:Temp:Feuchte:Taupunkt:
Aussen-T/F 351 07-12-2019 05:10:00 8.4 C 91 % 7.02 C
352 07-12-2019 05:15:00 8.4 C 91 % 7.02 C
353 07-12-2019 05:20:00 8.5 C 92 % 7.28 C
354 07-12-2019 05:25:00 8.6 C 91 % 7.22 C
355 07-12-2019 05:30:00 8.5 C 91 % 7.12 C
356 07-12-2019 05:35:00 8.4 C 91 % 7.02 C
357 07-12-2019 05:40:00 8.4 C 92 % 7.18 C
358 07-12-2019 05:45:00 8.4 C 91 % 7.02 C
359 07-12-2019 05:50:00 8.3 C 91 % 6.92 C
360 07-12-2019 05:55:00 8.2 C 91 % 6.82 C
361 07-12-2019 06:00:00 8.1 C 91 % 6.72 C
362 07-12-2019 06:05:00 8.2 C 91 % 6.82 C
363 07-12-2019 06:10:00 8.2 C 90 % 6.66 C
364 07-12-2019 06:15:00 8.4 C 89 % 6.7 C
365 07-12-2019 06:20:00 8.6 C 88 % 6.73 C
366 07-12-2019 06:25:00 8.8 C 87 % 6.76 C
367 07-12-2019 06:30:00 8.8 C 87 % 6.76 C
368 07-12-2019 06:35:00 8.7 C 86 % 6.49 C
369 07-12-2019 06:40:00 8.6 C 87 % 6.56 C
370 07-12-2019 06:45:00 8.5 C 87 % 6.46 C
371 07-12-2019 06:50:00 8.4 C 87 % 6.37 C
372 07-12-2019 06:55:00 8.3 C 88 % 6.43 C
373 07-12-2019 07:00:00 8.2 C 88 % 6.33 C
374 07-12-2019 07:05:00 7.9 C 88 % 6.04 C
375 07-12-2019 07:10:00 7.8 C 89 % 6.1 C
Sensor: Nr:Datum:Temp:Feuchte:Taupunkt:
Aussen-T/F 376 07-12-2019 07:15:00 7.7 C 89 % 6 C
377 07-12-2019 07:20:00 7.6 C 89 % 5.91 C
378 07-12-2019 07:25:00 7.6 C 90 % 6.07 C
379 07-12-2019 07:30:00 7.6 C 90 % 6.07 C
380 07-12-2019 07:35:00 7.5 C 90 % 5.97 C
381 07-12-2019 07:40:00 7.3 C 90 % 5.77 C
382 07-12-2019 07:45:00 7.4 C 91 % 6.03 C
383 07-12-2019 07:50:00 7.7 C 91 % 6.33 C
384 07-12-2019 07:55:00 7.8 C 91 % 6.43 C
385 07-12-2019 08:00:00 7.9 C 90 % 6.36 C
386 07-12-2019 08:05:00 8.1 C 90 % 6.56 C
387 07-12-2019 08:10:00 8.2 C 90 % 6.66 C
388 07-12-2019 08:15:00 8.3 C 90 % 6.76 C
389 07-12-2019 08:20:00 8.2 C 90 % 6.66 C
390 07-12-2019 08:25:00 8.3 C 90 % 6.76 C
391 07-12-2019 08:30:00 8.4 C 90 % 6.86 C
392 07-12-2019 08:35:00 8.4 C 90 % 6.86 C
393 07-12-2019 08:40:00 8.6 C 90 % 7.06 C
394 07-12-2019 08:45:00 8.6 C 90 % 7.06 C
395 07-12-2019 08:50:00 8.6 C 89 % 6.89 C
396 07-12-2019 08:55:00 8.6 C 89 % 6.89 C
397 07-12-2019 09:00:00 8.7 C 89 % 6.99 C
398 07-12-2019 09:05:00 8.7 C 89 % 6.99 C
399 07-12-2019 09:10:00 8.7 C 90 % 7.15 C
400 07-12-2019 09:15:00 8.7 C 90 % 7.15 C
Sensor: Nr:Datum:Temp:Feuchte:Taupunkt:
Aussen-T/F 401 07-12-2019 09:20:00 8.7 C 90 % 7.15 C
402 07-12-2019 09:25:00 8.7 C 90 % 7.15 C
403 07-12-2019 09:30:00 8.7 C 90 % 7.15 C
404 07-12-2019 09:35:00 8.7 C 90 % 7.15 C
405 07-12-2019 09:40:00 8.7 C 90 % 7.15 C
406 07-12-2019 09:45:00 8.7 C 90 % 7.15 C
407 07-12-2019 09:50:00 8.7 C 90 % 7.15 C
408 07-12-2019 09:55:00 8.8 C 90 % 7.25 C
409 07-12-2019 10:00:00 8.8 C 89 % 7.09 C
410 07-12-2019 10:05:00 8.8 C 90 % 7.25 C
411 07-12-2019 10:10:00 8.9 C 89 % 7.19 C
412 07-12-2019 10:15:00 9 C 89 % 7.29 C
413 07-12-2019 10:20:00 9.1 C 89 % 7.39 C
414 07-12-2019 10:25:00 9.2 C 88 % 7.32 C
415 07-12-2019 10:30:00 9.3 C 87 % 7.25 C
416 07-12-2019 10:35:00 9.4 C 87 % 7.35 C
417 07-12-2019 10:40:00 9.4 C 87 % 7.35 C
418 07-12-2019 10:45:00 9.4 C 87 % 7.35 C
419 07-12-2019 10:50:00 9.5 C 87 % 7.45 C
420 07-12-2019 10:55:00 9.5 C 87 % 7.45 C
421 07-12-2019 11:00:00 9.6 C 88 % 7.71 C
422 07-12-2019 11:05:00 9.6 C 88 % 7.71 C
423 07-12-2019 11:10:00 9.5 C 89 % 7.78 C
424 07-12-2019 11:15:00 9.4 C 89 % 7.68 C
425 07-12-2019 11:20:00 9.4 C 90 % 7.85 C
Sensor: Nr:Datum:Temp:Feuchte:Taupunkt:
Aussen-T/F 426 07-12-2019 11:25:00 9.3 C 90 % 7.75 C
427 07-12-2019 11:30:00 9.3 C 91 % 7.91 C
428 07-12-2019 11:35:00 9.3 C 91 % 7.91 C
429 07-12-2019 11:40:00 9.3 C 91 % 7.91 C
430 07-12-2019 11:45:00 9.3 C 91 % 7.91 C
431 07-12-2019 11:50:00 9.3 C 90 % 7.75 C
432 07-12-2019 11:55:00 9.3 C 90 % 7.75 C
433 07-12-2019 12:00:00 9.3 C 89 % 7.58 C
434 07-12-2019 12:05:00 9.3 C 89 % 7.58 C
435 07-12-2019 12:10:00 9.3 C 88 % 7.42 C
436 07-12-2019 12:15:00 9.3 C 88 % 7.42 C
437 07-12-2019 12:20:00 9.4 C 87 % 7.35 C
438 07-12-2019 12:25:00 9.4 C 86 % 7.18 C
439 07-12-2019 12:30:00 9.6 C 86 % 7.38 C
440 07-12-2019 12:35:00 9.6 C 86 % 7.38 C
441 07-12-2019 12:40:00 9.7 C 86 % 7.47 C
442 07-12-2019 12:45:00 9.7 C 85 % 7.3 C
443 07-12-2019 12:50:00 9.7 C 84 % 7.13 C
444 07-12-2019 12:55:00 9.7 C 84 % 7.13 C
445 07-12-2019 13:00:00 9.8 C 84 % 7.23 C
446 07-12-2019 13:05:00 9.8 C 85 % 7.4 C
447 07-12-2019 13:10:00 9.9 C 84 % 7.33 C
448 07-12-2019 13:15:00 10 C 83 % 7.25 C
449 07-12-2019 13:20:00 10.1 C 82 % 7.17 C
450 07-12-2019 13:25:00 10.1 C 82 % 7.17 C
Sensor: Nr:Datum:Temp:Feuchte:Taupunkt:
Aussen-T/F 451 07-12-2019 13:30:00 10.1 C 82 % 7.17 C
452 07-12-2019 13:35:00 10.1 C 82 % 7.17 C
453 07-12-2019 13:40:00 10.1 C 82 % 7.17 C
454 07-12-2019 13:45:00 10.1 C 81 % 6.99 C
455 07-12-2019 13:50:00 10.1 C 81 % 6.99 C
456 07-12-2019 13:55:00 10.1 C 81 % 6.99 C
457 07-12-2019 14:00:00 10.1 C 81 % 6.99 C
458 07-12-2019 14:05:00 10.1 C 82 % 7.17 C
459 07-12-2019 14:10:00 10.1 C 82 % 7.17 C
460 07-12-2019 14:15:00 10.1 C 81 % 6.99 C
461 07-12-2019 14:20:00 10.1 C 82 % 7.17 C
462 07-12-2019 14:25:00 10.1 C 82 % 7.17 C
463 07-12-2019 14:30:00 10.2 C 82 % 7.27 C
464 07-12-2019 14:35:00 10.2 C 82 % 7.27 C
465 07-12-2019 14:40:00 10.2 C 83 % 7.45 C
466 07-12-2019 14:45:00 10.2 C 83 % 7.45 C
467 07-12-2019 14:50:00 10.2 C 83 % 7.45 C
468 07-12-2019 14:55:00 10.2 C 83 % 7.45 C
469 07-12-2019 15:00:00 10.2 C 83 % 7.45 C
470 07-12-2019 15:05:00 10.2 C 83 % 7.45 C
471 07-12-2019 15:10:00 10.2 C 83 % 7.45 C
472 07-12-2019 15:15:00 10.1 C 83 % 7.35 C
473 07-12-2019 15:20:00 10.1 C 83 % 7.35 C
474 07-12-2019 15:25:00 10.1 C 83 % 7.35 C
475 07-12-2019 15:30:00 10.1 C 83 % 7.35 C
Sensor: Nr:Datum:Temp:Feuchte:Taupunkt:
Aussen-T/F 476 07-12-2019 15:35:00 10 C 83 % 7.25 C
477 07-12-2019 15:40:00 10 C 82 % 7.07 C
478 07-12-2019 15:45:00 10 C 83 % 7.25 C
479 07-12-2019 15:50:00 9.9 C 83 % 7.15 C
480 07-12-2019 15:55:00 9.9 C 84 % 7.33 C
481 07-12-2019 16:00:00 9.8 C 84 % 7.23 C
482 07-12-2019 16:05:00 9.7 C 85 % 7.3 C
483 07-12-2019 16:10:00 9.7 C 85 % 7.3 C
484 07-12-2019 16:15:00 9.5 C 85 % 7.11 C
485 07-12-2019 16:20:00 9.4 C 85 % 7.01 C
486 07-12-2019 16:25:00 9.4 C 85 % 7.01 C
487 07-12-2019 16:30:00 9.3 C 86 % 7.08 C
488 07-12-2019 16:35:00 9.3 C 86 % 7.08 C
489 07-12-2019 16:40:00 9.2 C 86 % 6.98 C
490 07-12-2019 16:45:00 9.2 C 86 % 6.98 C
491 07-12-2019 16:50:00 9.1 C 87 % 7.05 C
492 07-12-2019 16:55:00 9.1 C 87 % 7.05 C
493 07-12-2019 17:00:00 9 C 87 % 6.96 C
494 07-12-2019 17:05:00 8.9 C 88 % 7.02 C
495 07-12-2019 17:10:00 8.8 C 88 % 6.93 C
496 07-12-2019 17:15:00 8.8 C 88 % 6.93 C
497 07-12-2019 17:20:00 8.8 C 89 % 7.09 C
498 07-12-2019 17:25:00 8.8 C 89 % 7.09 C
499 07-12-2019 17:30:00 8.7 C 89 % 6.99 C
500 07-12-2019 17:35:00 8.7 C 89 % 6.99 C
Sensor: Nr:Datum:Temp:Feuchte:Taupunkt:
Aussen-T/F 501 07-12-2019 17:40:00 8.6 C 89 % 6.89 C
502 07-12-2019 17:45:00 8.6 C 89 % 6.89 C
503 07-12-2019 17:50:00 8.6 C 89 % 6.89 C
504 07-12-2019 17:55:00 8.6 C 89 % 6.89 C
505 07-12-2019 18:00:00 8.6 C 89 % 6.89 C
506 07-12-2019 18:05:00 8.5 C 89 % 6.79 C
507 07-12-2019 18:10:00 8.5 C 89 % 6.79 C
508 07-12-2019 18:15:00 8.5 C 89 % 6.79 C
509 07-12-2019 18:20:00 8.5 C 89 % 6.79 C
510 07-12-2019 18:25:00 8.4 C 89 % 6.7 C
511 07-12-2019 18:30:00 8.4 C 89 % 6.7 C
512 07-12-2019 18:35:00 8.3 C 89 % 6.6 C
513 07-12-2019 18:40:00 8.3 C 90 % 6.76 C
514 07-12-2019 18:45:00 8.3 C 90 % 6.76 C
515 07-12-2019 18:50:00 8.3 C 90 % 6.76 C
516 07-12-2019 18:55:00 8.3 C 90 % 6.76 C
517 07-12-2019 19:00:00 8.3 C 91 % 6.92 C
518 07-12-2019 19:05:00 8.3 C 91 % 6.92 C
519 07-12-2019 19:10:00 8.3 C 91 % 6.92 C
520 07-12-2019 19:15:00 8.3 C 91 % 6.92 C
521 07-12-2019 19:20:00 8.3 C 91 % 6.92 C
522 07-12-2019 19:25:00 8.3 C 91 % 6.92 C
523 07-12-2019 19:30:00 8.2 C 91 % 6.82 C
524 07-12-2019 19:35:00 8.2 C 91 % 6.82 C
525 07-12-2019 19:40:00 8.2 C 91 % 6.82 C
Sensor: Nr:Datum:Temp:Feuchte:Taupunkt:
Aussen-T/F 526 07-12-2019 19:45:00 8.2 C 91 % 6.82 C
527 07-12-2019 19:50:00 8.2 C 91 % 6.82 C
528 07-12-2019 19:55:00 8.2 C 91 % 6.82 C
529 07-12-2019 20:00:00 8.1 C 91 % 6.72 C
530 07-12-2019 20:05:00 8.1 C 91 % 6.72 C
531 07-12-2019 20:10:00 8.1 C 91 % 6.72 C
532 07-12-2019 20:15:00 8.1 C 91 % 6.72 C
533 07-12-2019 20:20:00 8 C 91 % 6.62 C
534 07-12-2019 20:25:00 8 C 91 % 6.62 C
535 07-12-2019 20:30:00 8 C 91 % 6.62 C
536 07-12-2019 20:35:00 7.9 C 91 % 6.52 C
537 07-12-2019 20:40:00 7.9 C 91 % 6.52 C
538 07-12-2019 20:45:00 7.9 C 91 % 6.52 C
539 07-12-2019 20:50:00 8 C 91 % 6.62 C
540 07-12-2019 20:55:00 8.1 C 91 % 6.72 C
541 07-12-2019 21:00:00 8.1 C 91 % 6.72 C
542 07-12-2019 21:05:00 8.1 C 91 % 6.72 C
543 07-12-2019 21:10:00 8.1 C 91 % 6.72 C
544 07-12-2019 21:15:00 8.2 C 91 % 6.82 C
545 07-12-2019 21:20:00 8.2 C 91 % 6.82 C
546 07-12-2019 21:25:00 8.3 C 90 % 6.76 C
547 07-12-2019 21:30:00 8.3 C 90 % 6.76 C
548 07-12-2019 21:35:00 8.3 C 90 % 6.76 C
549 07-12-2019 21:40:00 8.4 C 90 % 6.86 C
550 07-12-2019 21:45:00 8.4 C 90 % 6.86 C
Sensor: Nr:Datum:Temp:Feuchte:Taupunkt:
Aussen-T/F 551 07-12-2019 21:50:00 8.4 C 90 % 6.86 C
552 07-12-2019 21:55:00 8.4 C 90 % 6.86 C
553 07-12-2019 22:00:00 8.4 C 90 % 6.86 C
554 07-12-2019 22:05:00 8.4 C 90 % 6.86 C
555 07-12-2019 22:10:00 8.5 C 90 % 6.96 C
556 07-12-2019 22:15:00 8.5 C 90 % 6.96 C
557 07-12-2019 22:20:00 8.5 C 90 % 6.96 C
558 07-12-2019 22:25:00 8.4 C 90 % 6.86 C
559 07-12-2019 22:30:00 8.4 C 90 % 6.86 C
560 07-12-2019 22:35:00 8.4 C 90 % 6.86 C
561 07-12-2019 22:40:00 8.3 C 90 % 6.76 C
562 07-12-2019 22:45:00 8.3 C 90 % 6.76 C
563 07-12-2019 22:50:00 8.3 C 90 % 6.76 C
564 07-12-2019 22:55:00 8.3 C 90 % 6.76 C
565 07-12-2019 23:00:00 8.2 C 91 % 6.82 C
566 07-12-2019 23:05:00 8.2 C 91 % 6.82 C
567 07-12-2019 23:10:00 8.2 C 91 % 6.82 C
568 07-12-2019 23:15:00 8.2 C 91 % 6.82 C
569 07-12-2019 23:20:00 8.2 C 91 % 6.82 C
570 07-12-2019 23:25:00 8.2 C 92 % 6.98 C
571 07-12-2019 23:30:00 8.2 C 91 % 6.82 C
572 07-12-2019 23:35:00 8.2 C 91 % 6.82 C
573 07-12-2019 23:40:00 8.2 C 92 % 6.98 C
574 07-12-2019 23:45:00 8.2 C 92 % 6.98 C
575 07-12-2019 23:50:00 8.2 C 92 % 6.98 C
Sensor: Nr:Datum:Temp:Feuchte:Taupunkt:
Aussen-T/F 576 07-12-2019 23:55:00 8.2 C 91 % 6.82 C
577 08-12-2019 00:00:00 8.3 C 90 % 6.76 C
578 08-12-2019 00:05:00 8.3 C 90 % 6.76 C
579 08-12-2019 00:10:00 8.4 C 88 % 6.53 C
580 08-12-2019 00:15:00 8.7 C 86 % 6.49 C
581 08-12-2019 00:20:00 8.9 C 85 % 6.52 C
582 08-12-2019 00:25:00 9.1 C 85 % 6.72 C
583 08-12-2019 00:30:00 9.2 C 84 % 6.64 C
584 08-12-2019 00:35:00 9.2 C 84 % 6.64 C
585 08-12-2019 00:40:00 9.2 C 84 % 6.64 C
586 08-12-2019 00:45:00 9.2 C 84 % 6.64 C
587 08-12-2019 00:50:00 9.2 C 84 % 6.64 C
588 08-12-2019 00:55:00 9.1 C 85 % 6.72 C
589 08-12-2019 01:00:00 9.1 C 85 % 6.72 C
590 08-12-2019 01:05:00 9.1 C 85 % 6.72 C
591 08-12-2019 01:10:00 9 C 86 % 6.79 C
592 08-12-2019 01:15:00 9 C 86 % 6.79 C
593 08-12-2019 01:20:00 8.9 C 86 % 6.69 C
594 08-12-2019 01:25:00 9 C 86 % 6.79 C
595 08-12-2019 01:30:00 9.2 C 85 % 6.81 C
596 08-12-2019 01:35:00 9.2 C 85 % 6.81 C
597 08-12-2019 01:40:00 9.3 C 84 % 6.74 C
598 08-12-2019 01:45:00 9.3 C 84 % 6.74 C
599 08-12-2019 01:50:00 9.4 C 83 % 6.66 C
600 08-12-2019 01:55:00 9.4 C 82 % 6.49 C
Sensor: Nr:Datum:Temp:Feuchte:Taupunkt:
Aussen-T/F 601 08-12-2019 02:00:00 9.5 C 82 % 6.59 C
602 08-12-2019 02:05:00 9.5 C 81 % 6.41 C
603 08-12-2019 02:10:00 9.6 C 81 % 6.5 C
604 08-12-2019 02:15:00 9.5 C 81 % 6.41 C
605 08-12-2019 02:20:00 9.4 C 81 % 6.31 C
606 08-12-2019 02:25:00 9.4 C 81 % 6.31 C
607 08-12-2019 02:30:00 9.4 C 80 % 6.13 C
608 08-12-2019 02:35:00 9.4 C 80 % 6.13 C
609 08-12-2019 02:40:00 9.4 C 80 % 6.13 C
610 08-12-2019 02:45:00 9.4 C 80 % 6.13 C
611 08-12-2019 02:50:00 9.4 C 80 % 6.13 C
612 08-12-2019 02:55:00 9.4 C 80 % 6.13 C
613 08-12-2019 03:00:00 9.4 C 80 % 6.13 C
614 08-12-2019 03:05:00 9.4 C 80 % 6.13 C
615 08-12-2019 03:10:00 9.6 C 80 % 6.32 C
616 08-12-2019 03:15:00 9.6 C 80 % 6.32 C
617 08-12-2019 03:20:00 9.4 C 81 % 6.31 C
618 08-12-2019 03:25:00 9.4 C 81 % 6.31 C
619 08-12-2019 03:30:00 9.5 C 80 % 6.23 C
620 08-12-2019 03:35:00 9.6 C 81 % 6.5 C
621 08-12-2019 03:40:00 9.6 C 81 % 6.5 C
622 08-12-2019 03:45:00 9.6 C 81 % 6.5 C
623 08-12-2019 03:50:00 9.7 C 81 % 6.6 C
624 08-12-2019 03:55:00 9.8 C 81 % 6.7 C
625 08-12-2019 04:00:00 9.9 C 81 % 6.8 C
Sensor: Nr:Datum:Temp:Feuchte:Taupunkt:
Aussen-T/F 626 08-12-2019 04:05:00 9.9 C 81 % 6.8 C
627 08-12-2019 04:10:00 10 C 82 % 7.07 C
628 08-12-2019 04:15:00 10 C 82 % 7.07 C
629 08-12-2019 04:20:00 9.9 C 82 % 6.98 C
630 08-12-2019 04:25:00 9.9 C 83 % 7.15 C
631 08-12-2019 04:30:00 9.9 C 83 % 7.15 C
632 08-12-2019 04:35:00 9.9 C 83 % 7.15 C
633 08-12-2019 04:40:00 9.9 C 83 % 7.15 C
634 08-12-2019 04:45:00 9.9 C 83 % 7.15 C
635 08-12-2019 04:50:00 9.9 C 83 % 7.15 C
636 08-12-2019 04:55:00 9.9 C 83 % 7.15 C
637 08-12-2019 05:00:00 9.9 C 83 % 7.15 C
638 08-12-2019 05:05:00 9.9 C 84 % 7.33 C
639 08-12-2019 05:10:00 9.9 C 83 % 7.15 C
640 08-12-2019 05:15:00 9.9 C 84 % 7.33 C
641 08-12-2019 05:20:00 9.9 C 84 % 7.33 C
642 08-12-2019 05:25:00 9.9 C 85 % 7.5 C
643 08-12-2019 05:30:00 9.9 C 85 % 7.5 C
644 08-12-2019 05:35:00 9.9 C 85 % 7.5 C
645 08-12-2019 05:40:00 9.9 C 85 % 7.5 C
646 08-12-2019 05:45:00 9.9 C 85 % 7.5 C
647 08-12-2019 05:50:00 9.9 C 85 % 7.5 C
648 08-12-2019 05:55:00 9.8 C 85 % 7.4 C
649 08-12-2019 06:00:00 9.8 C 85 % 7.4 C
650 08-12-2019 06:05:00 9.8 C 85 % 7.4 C
Sensor: Nr:Datum:Temp:Feuchte:Taupunkt:
Aussen-T/F 651 08-12-2019 06:10:00 9.9 C 85 % 7.5 C
652 08-12-2019 06:15:00 9.9 C 85 % 7.5 C
653 08-12-2019 06:20:00 10.1 C 84 % 7.52 C
654 08-12-2019 06:25:00 10.2 C 84 % 7.62 C
655 08-12-2019 06:30:00 10.2 C 85 % 7.79 C
656 08-12-2019 06:35:00 10.2 C 85 % 7.79 C
657 08-12-2019 06:40:00 10.2 C 85 % 7.79 C
658 08-12-2019 06:45:00 10.2 C 85 % 7.79 C
659 08-12-2019 06:50:00 10.2 C 85 % 7.79 C
660 08-12-2019 06:55:00 10.3 C 84 % 7.72 C
661 08-12-2019 07:00:00 10.3 C 84 % 7.72 C
662 08-12-2019 07:05:00 10.3 C 84 % 7.72 C
663 08-12-2019 07:10:00 10.3 C 83 % 7.54 C
664 08-12-2019 07:15:00 10.4 C 83 % 7.64 C
665 08-12-2019 07:20:00 10.5 C 83 % 7.74 C
666 08-12-2019 07:25:00 10.5 C 84 % 7.91 C
667 08-12-2019 07:30:00 10.4 C 84 % 7.82 C
668 08-12-2019 07:35:00 10.4 C 84 % 7.82 C
669 08-12-2019 07:40:00 10.5 C 83 % 7.74 C
670 08-12-2019 07:45:00 10.5 C 83 % 7.74 C
671 08-12-2019 07:50:00 10.5 C 83 % 7.74 C
672 08-12-2019 07:55:00 10.5 C 83 % 7.74 C
673 08-12-2019 08:00:00 10.5 C 83 % 7.74 C
674 08-12-2019 08:05:00 10.4 C 83 % 7.64 C
675 08-12-2019 08:10:00 10.5 C 83 % 7.74 C
Sensor: Nr:Datum:Temp:Feuchte:Taupunkt:
Aussen-T/F 676 08-12-2019 08:15:00 10.6 C 83 % 7.84 C
677 08-12-2019 08:20:00 10.6 C 84 % 8.01 C
678 08-12-2019 08:25:00 10.6 C 84 % 8.01 C
679 08-12-2019 08:30:00 10.6 C 84 % 8.01 C
680 08-12-2019 08:35:00 10.6 C 84 % 8.01 C
681 08-12-2019 08:40:00 10.6 C 84 % 8.01 C
682 08-12-2019 08:45:00 10.6 C 84 % 8.01 C
683 08-12-2019 08:50:00 10.6 C 84 % 8.01 C
684 08-12-2019 08:55:00 10.6 C 84 % 8.01 C
685 08-12-2019 09:00:00 10.6 C 84 % 8.01 C
686 08-12-2019 09:05:00 10.6 C 84 % 8.01 C
687 08-12-2019 09:10:00 10.6 C 85 % 8.19 C
688 08-12-2019 09:15:00 10.6 C 85 % 8.19 C
689 08-12-2019 09:20:00 10.6 C 85 % 8.19 C
690 08-12-2019 09:25:00 10.6 C 85 % 8.19 C
691 08-12-2019 09:30:00 10.7 C 84 % 8.11 C
692 08-12-2019 09:35:00 10.7 C 84 % 8.11 C
693 08-12-2019 09:40:00 10.7 C 84 % 8.11 C
694 08-12-2019 09:45:00 10.7 C 84 % 8.11 C
695 08-12-2019 09:50:00 10.7 C 84 % 8.11 C
696 08-12-2019 09:55:00 10.7 C 85 % 8.28 C
697 08-12-2019 10:00:00 10.7 C 85 % 8.28 C
698 08-12-2019 10:05:00 10.8 C 85 % 8.38 C
699 08-12-2019 10:10:00 10.8 C 85 % 8.38 C
700 08-12-2019 10:15:00 10.8 C 85 % 8.38 C
Sensor: Nr:Datum:Temp:Feuchte:Taupunkt:
Aussen-T/F 701 08-12-2019 10:20:00 10.8 C 85 % 8.38 C
702 08-12-2019 10:25:00 10.8 C 85 % 8.38 C
703 08-12-2019 10:30:00 10.8 C 86 % 8.56 C
704 08-12-2019 10:35:00 10.8 C 86 % 8.56 C
705 08-12-2019 10:40:00 10.7 C 86 % 8.46 C
706 08-12-2019 10:45:00 10.7 C 86 % 8.46 C
707 08-12-2019 10:50:00 10.7 C 87 % 8.63 C
708 08-12-2019 10:55:00 10.7 C 87 % 8.63 C
709 08-12-2019 11:00:00 10.8 C 86 % 8.56 C
710 08-12-2019 11:05:00 10.8 C 86 % 8.56 C
711 08-12-2019 11:10:00 10.8 C 86 % 8.56 C
712 08-12-2019 11:15:00 10.9 C 86 % 8.65 C
713 08-12-2019 11:20:00 11 C 85 % 8.58 C
714 08-12-2019 11:25:00 11.1 C 85 % 8.68 C
715 08-12-2019 11:30:00 11.1 C 85 % 8.68 C
716 08-12-2019 11:35:00 11.1 C 85 % 8.68 C
717 08-12-2019 11:40:00 11.1 C 85 % 8.68 C
718 08-12-2019 11:45:00 11.1 C 85 % 8.68 C
719 08-12-2019 11:50:00 11.2 C 85 % 8.77 C
720 08-12-2019 11:55:00 11.2 C 85 % 8.77 C
721 08-12-2019 12:00:00 11.2 C 85 % 8.77 C
722 08-12-2019 12:05:00 11.3 C 85 % 8.87 C
723 08-12-2019 12:10:00 11.4 C 85 % 8.97 C
724 08-12-2019 12:15:00 11.5 C 85 % 9.07 C
725 08-12-2019 12:20:00 11.5 C 85 % 9.07 C
Sensor: Nr:Datum:Temp:Feuchte:Taupunkt:
Aussen-T/F 726 08-12-2019 12:25:00 11.6 C 84 % 8.99 C
727 08-12-2019 12:30:00 11.6 C 84 % 8.99 C
728 08-12-2019 12:35:00 11.6 C 85 % 9.17 C
729 08-12-2019 12:40:00 11.7 C 85 % 9.27 C
730 08-12-2019 12:45:00 11.7 C 85 % 9.27 C
731 08-12-2019 12:50:00 11.7 C 85 % 9.27 C
732 08-12-2019 12:55:00 11.7 C 86 % 9.44 C
733 08-12-2019 13:00:00 11.7 C 86 % 9.44 C
734 08-12-2019 13:05:00 11.7 C 86 % 9.44 C
735 08-12-2019 13:10:00 11.7 C 86 % 9.44 C
736 08-12-2019 13:15:00 11.7 C 86 % 9.44 C
737 08-12-2019 13:20:00 11.7 C 86 % 9.44 C
738 08-12-2019 13:25:00 11.7 C 86 % 9.44 C
739 08-12-2019 13:30:00 11.7 C 87 % 9.61 C
740 08-12-2019 13:35:00 11.7 C 87 % 9.61 C
741 08-12-2019 13:40:00 11.7 C 87 % 9.61 C
742 08-12-2019 13:45:00 11.7 C 87 % 9.61 C
743 08-12-2019 13:50:00 11.7 C 87 % 9.61 C
744 08-12-2019 13:55:00 11.8 C 87 % 9.71 C
745 08-12-2019 14:00:00 11.8 C 87 % 9.71 C
746 08-12-2019 14:05:00 11.8 C 87 % 9.71 C
747 08-12-2019 14:10:00 11.8 C 87 % 9.71 C
748 08-12-2019 14:15:00 11.8 C 87 % 9.71 C
749 08-12-2019 14:20:00 11.9 C 87 % 9.81 C
750 08-12-2019 14:25:00 11.9 C 87 % 9.81 C
Sensor: Nr:Datum:Temp:Feuchte:Taupunkt:
Aussen-T/F 751 08-12-2019 14:30:00 11.9 C 87 % 9.81 C
752 08-12-2019 14:35:00 11.9 C 87 % 9.81 C
753 08-12-2019 14:40:00 12 C 87 % 9.91 C
754 08-12-2019 14:45:00 12 C 87 % 9.91 C
755 08-12-2019 14:50:00 12 C 87 % 9.91 C
756 08-12-2019 14:55:00 12 C 87 % 9.91 C
757 08-12-2019 15:00:00 12 C 87 % 9.91 C
758 08-12-2019 15:05:00 12.1 C 87 % 10 C
759 08-12-2019 15:10:00 12.1 C 87 % 10 C
760 08-12-2019 15:15:00 12.1 C 87 % 10 C
761 08-12-2019 15:20:00 12.1 C 87 % 10 C
762 08-12-2019 15:25:00 12.1 C 87 % 10 C
763 08-12-2019 15:30:00 12.1 C 87 % 10 C
764 08-12-2019 15:35:00 12.1 C 87 % 10 C
765 08-12-2019 15:40:00 12.1 C 87 % 10 C
766 08-12-2019 15:45:00 12.1 C 87 % 10 C
767 08-12-2019 15:50:00 12.1 C 87 % 10 C
768 08-12-2019 15:55:00 12.1 C 87 % 10 C
769 08-12-2019 16:00:00 12.1 C 88 % 10.17 C
770 08-12-2019 16:05:00 12.1 C 88 % 10.17 C
771 08-12-2019 16:10:00 12.1 C 88 % 10.17 C
772 08-12-2019 16:15:00 12.1 C 88 % 10.17 C
773 08-12-2019 16:20:00 12.1 C 88 % 10.17 C
774 08-12-2019 16:25:00 12.1 C 88 % 10.17 C
775 08-12-2019 16:30:00 12.1 C 88 % 10.17 C
Sensor: Nr:Datum:Temp:Feuchte:Taupunkt:
Aussen-T/F 776 08-12-2019 16:35:00 12 C 88 % 10.08 C
777 08-12-2019 16:40:00 12 C 89 % 10.25 C
778 08-12-2019 16:45:00 11.6 C 87 % 9.51 C
779 08-12-2019 16:50:00 10.9 C 88 % 8.99 C
780 08-12-2019 16:55:00 10.3 C 89 % 8.57 C
781 08-12-2019 17:00:00 10 C 90 % 8.44 C
782 08-12-2019 17:05:00 9.8 C 91 % 8.4 C
783 08-12-2019 17:10:00 9.6 C 91 % 8.21 C
784 08-12-2019 17:15:00 9.5 C 92 % 8.27 C
785 08-12-2019 17:20:00 9.4 C 92 % 8.17 C
786 08-12-2019 17:25:00 9.3 C 92 % 8.07 C
787 08-12-2019 17:30:00 9.2 C 92 % 7.97 C
788 08-12-2019 17:35:00 9.2 C 92 % 7.97 C
789 08-12-2019 17:40:00 9.1 C 92 % 7.87 C
790 08-12-2019 17:45:00 9.1 C 92 % 7.87 C
791 08-12-2019 17:50:00 9 C 92 % 7.77 C
792 08-12-2019 17:55:00 9 C 93 % 7.93 C
793 08-12-2019 18:00:00 8.9 C 93 % 7.83 C
794 08-12-2019 18:05:00 8.9 C 93 % 7.83 C
795 08-12-2019 18:10:00 8.9 C 93 % 7.83 C
796 08-12-2019 18:15:00 8.9 C 93 % 7.83 C
797 08-12-2019 18:20:00 8.8 C 93 % 7.73 C
798 08-12-2019 18:25:00 8.8 C 93 % 7.73 C
799 08-12-2019 18:30:00 8.7 C 93 % 7.63 C
800 08-12-2019 18:35:00 8.7 C 93 % 7.63 C
Sensor: Nr:Datum:Temp:Feuchte:Taupunkt:
Aussen-T/F 801 08-12-2019 18:40:00 8.7 C 93 % 7.63 C
802 08-12-2019 18:45:00 8.6 C 92 % 7.38 C
803 08-12-2019 18:50:00 8.7 C 91 % 7.32 C
804 08-12-2019 18:55:00 8.7 C 92 % 7.47 C
805 08-12-2019 19:00:00 8.7 C 91 % 7.32 C
806 08-12-2019 19:05:00 8.7 C 91 % 7.32 C
807 08-12-2019 19:10:00 8.8 C 91 % 7.41 C
808 08-12-2019 19:15:00 8.8 C 91 % 7.41 C
809 08-12-2019 19:20:00 8.8 C 90 % 7.25 C
810 08-12-2019 19:25:00 8.8 C 90 % 7.25 C
811 08-12-2019 19:30:00 8.8 C 90 % 7.25 C
812 08-12-2019 19:35:00 8.8 C 90 % 7.25 C
813 08-12-2019 19:40:00 8.8 C 91 % 7.41 C
814 08-12-2019 19:45:00 8.7 C 91 % 7.32 C
815 08-12-2019 19:50:00 8.7 C 91 % 7.32 C
816 08-12-2019 19:55:00 8.6 C 92 % 7.38 C
817 08-12-2019 20:00:00 8.5 C 92 % 7.28 C
818 08-12-2019 20:05:00 8.4 C 92 % 7.18 C
819 08-12-2019 20:10:00 8.3 C 92 % 7.08 C
820 08-12-2019 20:15:00 8.4 C 93 % 7.34 C
821 08-12-2019 20:20:00 8.4 C 92 % 7.18 C
822 08-12-2019 20:25:00 8.4 C 92 % 7.18 C
823 08-12-2019 20:30:00 8.5 C 91 % 7.12 C
824 08-12-2019 20:35:00 8.5 C 91 % 7.12 C
825 08-12-2019 20:40:00 8.5 C 91 % 7.12 C
Sensor: Nr:Datum:Temp:Feuchte:Taupunkt:
Aussen-T/F 826 08-12-2019 20:45:00 8.6 C 90 % 7.06 C
827 08-12-2019 20:50:00 8.6 C 90 % 7.06 C
828 08-12-2019 20:55:00 8.7 C 89 % 6.99 C
829 08-12-2019 21:00:00 8.7 C 88 % 6.83 C
830 08-12-2019 21:05:00 8.8 C 88 % 6.93 C
831 08-12-2019 21:10:00 8.8 C 87 % 6.76 C
832 08-12-2019 21:15:00 8.8 C 87 % 6.76 C
833 08-12-2019 21:20:00 8.9 C 86 % 6.69 C
834 08-12-2019 21:25:00 8.9 C 87 % 6.86 C
835 08-12-2019 21:30:00 8.9 C 86 % 6.69 C
836 08-12-2019 21:35:00 8.9 C 87 % 6.86 C
837 08-12-2019 21:40:00 8.9 C 87 % 6.86 C
838 08-12-2019 21:45:00 8.8 C 87 % 6.76 C
839 08-12-2019 21:50:00 8.8 C 87 % 6.76 C
840 08-12-2019 21:55:00 8.8 C 87 % 6.76 C
841 08-12-2019 22:00:00 8.8 C 87 % 6.76 C
842 08-12-2019 22:05:00 8.7 C 87 % 6.66 C
843 08-12-2019 22:10:00 8.7 C 88 % 6.83 C
844 08-12-2019 22:15:00 8.6 C 88 % 6.73 C
845 08-12-2019 22:20:00 8.6 C 88 % 6.73 C
846 08-12-2019 22:25:00 8.6 C 88 % 6.73 C
847 08-12-2019 22:30:00 8.7 C 88 % 6.83 C
848 08-12-2019 22:35:00 8.8 C 87 % 6.76 C
849 08-12-2019 22:40:00 8.9 C 87 % 6.86 C
850 08-12-2019 22:45:00 9.1 C 86 % 6.89 C
Sensor: Nr:Datum:Temp:Feuchte:Taupunkt:
Aussen-T/F 851 08-12-2019 22:50:00 9.1 C 86 % 6.89 C
852 08-12-2019 22:55:00 9.1 C 86 % 6.89 C
853 08-12-2019 23:00:00 9.1 C 86 % 6.89 C
854 08-12-2019 23:05:00 9 C 86 % 6.79 C
855 08-12-2019 23:10:00 9 C 86 % 6.79 C
856 08-12-2019 23:15:00 9 C 86 % 6.79 C
857 08-12-2019 23:20:00 9.1 C 86 % 6.89 C
858 08-12-2019 23:25:00 9.1 C 85 % 6.72 C
859 08-12-2019 23:30:00 9.1 C 85 % 6.72 C
860 08-12-2019 23:35:00 9.1 C 85 % 6.72 C
861 08-12-2019 23:40:00 9 C 84 % 6.45 C
862 08-12-2019 23:45:00 9 C 83 % 6.27 C
863 08-12-2019 23:50:00 8.9 C 83 % 6.17 C
864 08-12-2019 23:55:00 8.9 C 82 % 6 C
865 09-12-2019 00:00:00 8.9 C 82 % 6 C
866 09-12-2019 00:05:00 8.8 C 82 % 5.9 C
867 09-12-2019 00:10:00 8.8 C 82 % 5.9 C
868 09-12-2019 00:15:00 8.7 C 83 % 5.98 C
869 09-12-2019 00:20:00 8.6 C 83 % 5.88 C
870 09-12-2019 00:25:00 8.7 C 84 % 6.15 C
871 09-12-2019 00:30:00 8.8 C 84 % 6.25 C
872 09-12-2019 00:35:00 8.8 C 83 % 6.08 C
873 09-12-2019 00:40:00 8.8 C 83 % 6.08 C
874 09-12-2019 00:45:00 8.7 C 82 % 5.8 C
875 09-12-2019 00:50:00 8.7 C 81 % 5.63 C
Sensor: Nr:Datum:Temp:Feuchte:Taupunkt:
Aussen-T/F 876 09-12-2019 00:55:00 8.8 C 81 % 5.72 C
877 09-12-2019 01:00:00 8.8 C 81 % 5.72 C
878 09-12-2019 01:05:00 8.7 C 81 % 5.63 C
879 09-12-2019 01:10:00 8.7 C 80 % 5.45 C
880 09-12-2019 01:15:00 8.7 C 80 % 5.45 C
881 09-12-2019 01:20:00 8.7 C 81 % 5.63 C
882 09-12-2019 01:25:00 8.6 C 81 % 5.53 C
883 09-12-2019 01:30:00 8.5 C 82 % 5.61 C
884 09-12-2019 01:35:00 8.4 C 82 % 5.51 C
885 09-12-2019 01:40:00 8.4 C 82 % 5.51 C
886 09-12-2019 01:45:00 8.5 C 82 % 5.61 C
887 09-12-2019 01:50:00 8.5 C 81 % 5.43 C
888 09-12-2019 01:55:00 8.4 C 80 % 5.16 C
889 09-12-2019 02:00:00 8.3 C 80 % 5.06 C
890 09-12-2019 02:05:00 8.2 C 81 % 5.14 C
891 09-12-2019 02:10:00 8.1 C 82 % 5.22 C
892 09-12-2019 02:15:00 8 C 83 % 5.29 C
893 09-12-2019 02:20:00 7.9 C 84 % 5.37 C
894 09-12-2019 02:25:00 7.9 C 84 % 5.37 C
895 09-12-2019 02:30:00 7.9 C 84 % 5.37 C
896 09-12-2019 02:35:00 7.9 C 84 % 5.37 C
897 09-12-2019 02:40:00 7.8 C 84 % 5.27 C
898 09-12-2019 02:45:00 7.8 C 84 % 5.27 C
899 09-12-2019 02:50:00 7.9 C 83 % 5.2 C
900 09-12-2019 02:55:00 8 C 82 % 5.12 C
Sensor: Nr:Datum:Temp:Feuchte:Taupunkt:
Aussen-T/F 901 09-12-2019 03:00:00 8.1 C 82 % 5.22 C
902 09-12-2019 03:05:00 8.1 C 82 % 5.22 C
903 09-12-2019 03:10:00 8 C 82 % 5.12 C
904 09-12-2019 03:15:00 8 C 82 % 5.12 C
905 09-12-2019 03:20:00 8.1 C 82 % 5.22 C
906 09-12-2019 03:25:00 8.1 C 82 % 5.22 C
907 09-12-2019 03:30:00 8 C 82 % 5.12 C
908 09-12-2019 03:35:00 7.9 C 82 % 5.02 C
909 09-12-2019 03:40:00 7.9 C 83 % 5.2 C
910 09-12-2019 03:45:00 7.8 C 83 % 5.1 C
911 09-12-2019 03:50:00 7.7 C 83 % 5 C
912 09-12-2019 03:55:00 7.8 C 84 % 5.27 C
913 09-12-2019 04:00:00 7.8 C 83 % 5.1 C
914 09-12-2019 04:05:00 7.9 C 83 % 5.2 C
915 09-12-2019 04:10:00 8.1 C 83 % 5.39 C
916 09-12-2019 04:15:00 8.2 C 82 % 5.32 C
917 09-12-2019 04:20:00 8.3 C 82 % 5.41 C
918 09-12-2019 04:25:00 8.4 C 82 % 5.51 C
919 09-12-2019 04:30:00 8.4 C 82 % 5.51 C
920 09-12-2019 04:35:00 8.3 C 82 % 5.41 C
921 09-12-2019 04:40:00 8.3 C 82 % 5.41 C
922 09-12-2019 04:45:00 8.2 C 84 % 5.66 C
923 09-12-2019 04:50:00 8 C 84 % 5.47 C
924 09-12-2019 04:55:00 7.9 C 85 % 5.54 C
925 09-12-2019 05:00:00 7.8 C 84 % 5.27 C
Sensor: Nr:Datum:Temp:Feuchte:Taupunkt:
Aussen-T/F 926 09-12-2019 05:05:00 7.7 C 83 % 5 C
927 09-12-2019 05:10:00 7.8 C 82 % 4.92 C
928 09-12-2019 05:15:00 7.9 C 81 % 4.85 C
929 09-12-2019 05:20:00 8 C 80 % 4.77 C
930 09-12-2019 05:25:00 7.9 C 79 % 4.49 C
931 09-12-2019 05:30:00 7.9 C 78 % 4.31 C
932 09-12-2019 05:35:00 7.9 C 78 % 4.31 C
933 09-12-2019 05:40:00 7.9 C 78 % 4.31 C
934 09-12-2019 05:45:00 7.8 C 78 % 4.21 C
935 09-12-2019 05:50:00 7.9 C 78 % 4.31 C
936 09-12-2019 05:55:00 7.8 C 79 % 4.39 C
937 09-12-2019 06:00:00 7.9 C 79 % 4.49 C
938 09-12-2019 06:05:00 7.9 C 80 % 4.67 C
939 09-12-2019 06:10:00 7.9 C 80 % 4.67 C
940 09-12-2019 06:15:00 7.9 C 80 % 4.67 C
941 09-12-2019 06:20:00 7.9 C 80 % 4.67 C
942 09-12-2019 06:25:00 7.9 C 80 % 4.67 C
943 09-12-2019 06:30:00 7.9 C 80 % 4.67 C
944 09-12-2019 06:35:00 8 C 80 % 4.77 C
945 09-12-2019 06:40:00 8.1 C 80 % 4.86 C
946 09-12-2019 06:45:00 8.1 C 80 % 4.86 C
947 09-12-2019 06:50:00 8.2 C 81 % 5.14 C
948 09-12-2019 06:55:00 8.2 C 81 % 5.14 C
949 09-12-2019 07:00:00 8.2 C 81 % 5.14 C
950 09-12-2019 07:05:00 8.1 C 82 % 5.22 C
Sensor: Nr:Datum:Temp:Feuchte:Taupunkt:
Aussen-T/F 951 09-12-2019 07:10:00 8.1 C 82 % 5.22 C
952 09-12-2019 07:15:00 8.1 C 82 % 5.22 C
953 09-12-2019 07:20:00 8.1 C 82 % 5.22 C
954 09-12-2019 07:25:00 8 C 83 % 5.29 C
955 09-12-2019 07:30:00 8 C 83 % 5.29 C
956 09-12-2019 07:35:00 7.9 C 83 % 5.2 C
957 09-12-2019 07:40:00 7.9 C 83 % 5.2 C
958 09-12-2019 07:45:00 8 C 83 % 5.29 C
959 09-12-2019 07:50:00 8 C 83 % 5.29 C
960 09-12-2019 07:55:00 8.1 C 82 % 5.22 C
961 09-12-2019 08:00:00 8.1 C 82 % 5.22 C
962 09-12-2019 08:05:00 8.2 C 82 % 5.32 C
963 09-12-2019 08:10:00 8.2 C 81 % 5.14 C
964 09-12-2019 08:15:00 8.3 C 81 % 5.24 C
965 09-12-2019 08:20:00 8.3 C 81 % 5.24 C
966 09-12-2019 08:25:00 8.3 C 81 % 5.24 C
967 09-12-2019 08:30:00 8.3 C 81 % 5.24 C
968 09-12-2019 08:35:00 8.3 C 81 % 5.24 C
969 09-12-2019 08:40:00 8.3 C 81 % 5.24 C
970 09-12-2019 08:45:00 8.3 C 81 % 5.24 C
971 09-12-2019 08:50:00 8.3 C 81 % 5.24 C
972 09-12-2019 08:55:00 8.3 C 81 % 5.24 C
973 09-12-2019 09:00:00 8.3 C 81 % 5.24 C
974 09-12-2019 09:05:00 8.3 C 82 % 5.41 C
975 09-12-2019 09:10:00 8.3 C 82 % 5.41 C
Sensor: Nr:Datum:Temp:Feuchte:Taupunkt:
Aussen-T/F 976 09-12-2019 09:15:00 8.3 C 82 % 5.41 C
977 09-12-2019 09:20:00 8.3 C 83 % 5.59 C
978 09-12-2019 09:25:00 8.2 C 84 % 5.66 C
979 09-12-2019 09:30:00 8.2 C 84 % 5.66 C
980 09-12-2019 09:35:00 8.1 C 85 % 5.73 C
981 09-12-2019 09:40:00 8.1 C 85 % 5.73 C
982 09-12-2019 09:45:00 8.1 C 85 % 5.73 C
983 09-12-2019 09:50:00 8.1 C 85 % 5.73 C
984 09-12-2019 09:55:00 8.2 C 85 % 5.83 C
985 09-12-2019 10:00:00 8.2 C 85 % 5.83 C
986 09-12-2019 10:05:00 8.3 C 84 % 5.76 C
987 09-12-2019 10:10:00 8.3 C 85 % 5.93 C
988 09-12-2019 10:15:00 8.3 C 84 % 5.76 C
989 09-12-2019 10:20:00 8.3 C 84 % 5.76 C
990 09-12-2019 10:25:00 8.3 C 84 % 5.76 C
991 09-12-2019 10:30:00 8.3 C 84 % 5.76 C
992 09-12-2019 10:35:00 8.3 C 84 % 5.76 C
993 09-12-2019 10:40:00 8.3 C 85 % 5.93 C
994 09-12-2019 10:45:00 8.3 C 84 % 5.76 C
995 09-12-2019 10:50:00 8.4 C 84 % 5.86 C
996 09-12-2019 10:55:00 8.4 C 84 % 5.86 C
997 09-12-2019 11:00:00 8.4 C 83 % 5.69 C
998 09-12-2019 11:05:00 8.4 C 84 % 5.86 C
999 09-12-2019 11:10:00 8.4 C 83 % 5.69 C
1000 09-12-2019 11:15:00 8.5 C 84 % 5.96 C
Sensor: Nr:Datum:Temp:Feuchte:Taupunkt:
Aussen-T/F 1001 09-12-2019 11:20:00 8.6 C 83 % 5.88 C
1002 09-12-2019 11:25:00 8.6 C 83 % 5.88 C
1003 09-12-2019 11:30:00 8.7 C 82 % 5.8 C
1004 09-12-2019 11:35:00 8.6 C 82 % 5.71 C
1005 09-12-2019 11:40:00 8.6 C 82 % 5.71 C
1006 09-12-2019 11:45:00 8.6 C 82 % 5.71 C
1007 09-12-2019 11:50:00 8.6 C 82 % 5.71 C
1008 09-12-2019 11:55:00 8.5 C 83 % 5.78 C
1009 09-12-2019 12:00:00 8.5 C 82 % 5.61 C
1010 09-12-2019 12:05:00 8.5 C 83 % 5.78 C
1011 09-12-2019 12:10:00 8.4 C 83 % 5.69 C
1012 09-12-2019 12:15:00 8.4 C 83 % 5.69 C
1013 09-12-2019 12:20:00 8.4 C 83 % 5.69 C
1014 09-12-2019 12:25:00 8.4 C 83 % 5.69 C
1015 09-12-2019 12:30:00 8.5 C 83 % 5.78 C
1016 09-12-2019 12:35:00 8.5 C 83 % 5.78 C
1017 09-12-2019 12:40:00 8.6 C 83 % 5.88 C
1018 09-12-2019 12:45:00 8.6 C 83 % 5.88 C
1019 09-12-2019 12:50:00 8.6 C 84 % 6.05 C
1020 09-12-2019 12:55:00 8.6 C 84 % 6.05 C
1021 09-12-2019 13:00:00 8.6 C 84 % 6.05 C
1022 09-12-2019 13:05:00 8.6 C 84 % 6.05 C
1023 09-12-2019 13:10:00 8.6 C 84 % 6.05 C
1024 09-12-2019 13:15:00 8.6 C 84 % 6.05 C
1025 09-12-2019 13:20:00 8.6 C 84 % 6.05 C
Sensor: Nr:Datum:Temp:Feuchte:Taupunkt:
Aussen-T/F 1026 09-12-2019 13:25:00 8.6 C 83 % 5.88 C
1027 09-12-2019 13:30:00 8.5 C 83 % 5.78 C
1028 09-12-2019 13:35:00 8.5 C 83 % 5.78 C
1029 09-12-2019 13:40:00 8.6 C 83 % 5.88 C
1030 09-12-2019 13:45:00 8.7 C 83 % 5.98 C
1031 09-12-2019 13:50:00 8.8 C 82 % 5.9 C
1032 09-12-2019 13:55:00 8.9 C 82 % 6 C
1033 09-12-2019 14:00:00 8.9 C 82 % 6 C
1034 09-12-2019 14:05:00 8.9 C 82 % 6 C
1035 09-12-2019 14:10:00 8.9 C 82 % 6 C
1036 09-12-2019 14:15:00 8.9 C 82 % 6 C
1037 09-12-2019 14:20:00 8.8 C 81 % 5.72 C
1038 09-12-2019 14:25:00 8.8 C 81 % 5.72 C
1039 09-12-2019 14:30:00 8.9 C 81 % 5.82 C
1040 09-12-2019 14:35:00 8.9 C 81 % 5.82 C
1041 09-12-2019 14:40:00 8.8 C 82 % 5.9 C
1042 09-12-2019 14:45:00 8.8 C 81 % 5.72 C
1043 09-12-2019 14:50:00 8.8 C 81 % 5.72 C
1044 09-12-2019 14:55:00 8.8 C 81 % 5.72 C
1045 09-12-2019 15:00:00 8.8 C 82 % 5.9 C
1046 09-12-2019 15:05:00 8.7 C 82 % 5.8 C
1047 09-12-2019 15:10:00 8.6 C 83 % 5.88 C
1048 09-12-2019 15:15:00 8.3 C 84 % 5.76 C
1049 09-12-2019 15:20:00 8.2 C 85 % 5.83 C
1050 09-12-2019 15:25:00 8.1 C 86 % 5.9 C
Sensor: Nr:Datum:Temp:Feuchte:Taupunkt:
Aussen-T/F 1051 09-12-2019 15:30:00 8 C 86 % 5.81 C
1052 09-12-2019 15:35:00 7.9 C 86 % 5.71 C
1053 09-12-2019 15:40:00 7.8 C 87 % 5.78 C
1054 09-12-2019 15:45:00 7.8 C 86 % 5.61 C
1055 09-12-2019 15:50:00 7.8 C 86 % 5.61 C
1056 09-12-2019 15:55:00 7.8 C 85 % 5.44 C
1057 09-12-2019 16:00:00 7.8 C 84 % 5.27 C
1058 09-12-2019 16:05:00 7.8 C 84 % 5.27 C
1059 09-12-2019 16:10:00 7.8 C 83 % 5.1 C
1060 09-12-2019 16:15:00 7.8 C 83 % 5.1 C
1061 09-12-2019 16:20:00 7.8 C 83 % 5.1 C
1062 09-12-2019 16:25:00 7.8 C 82 % 4.92 C
1063 09-12-2019 16:30:00 7.8 C 82 % 4.92 C
1064 09-12-2019 16:35:00 7.7 C 83 % 5 C
1065 09-12-2019 16:40:00 7.7 C 83 % 5 C
1066 09-12-2019 16:45:00 7.7 C 83 % 5 C
1067 09-12-2019 16:50:00 7.7 C 83 % 5 C
1068 09-12-2019 16:55:00 7.7 C 84 % 5.17 C
1069 09-12-2019 17:00:00 7.6 C 84 % 5.07 C
1070 09-12-2019 17:05:00 7.6 C 84 % 5.07 C
1071 09-12-2019 17:10:00 7.6 C 84 % 5.07 C
1072 09-12-2019 17:15:00 7.6 C 84 % 5.07 C
1073 09-12-2019 17:20:00 7.6 C 84 % 5.07 C
1074 09-12-2019 17:25:00 7.6 C 86 % 5.41 C
1075 09-12-2019 17:30:00 7.5 C 87 % 5.48 C
Sensor: Nr:Datum:Temp:Feuchte:Taupunkt:
Aussen-T/F 1076 09-12-2019 17:35:00 7.4 C 88 % 5.55 C
1077 09-12-2019 17:40:00 7.3 C 88 % 5.45 C
1078 09-12-2019 17:45:00 7.2 C 89 % 5.51 C
1079 09-12-2019 17:50:00 7.1 C 90 % 5.57 C
1080 09-12-2019 17:55:00 7 C 90 % 5.48 C
1081 09-12-2019 18:00:00 6.9 C 89 % 5.22 C
1082 09-12-2019 18:05:00 6.9 C 90 % 5.38 C
1083 09-12-2019 18:10:00 6.9 C 90 % 5.38 C
1084 09-12-2019 18:15:00 6.9 C 90 % 5.38 C
1085 09-12-2019 18:20:00 6.9 C 91 % 5.54 C
1086 09-12-2019 18:25:00 6.9 C 91 % 5.54 C
1087 09-12-2019 18:30:00 6.8 C 91 % 5.44 C
1088 09-12-2019 18:35:00 6.8 C 91 % 5.44 C
1089 09-12-2019 18:40:00 6.8 C 92 % 5.59 C
1090 09-12-2019 18:45:00 6.8 C 92 % 5.59 C
1091 09-12-2019 18:50:00 6.8 C 92 % 5.59 C
1092 09-12-2019 18:55:00 6.7 C 92 % 5.49 C
1093 09-12-2019 19:00:00 6.7 C 92 % 5.49 C
1094 09-12-2019 19:05:00 6.7 C 92 % 5.49 C
1095 09-12-2019 19:10:00 6.6 C 92 % 5.4 C
1096 09-12-2019 19:15:00 6.6 C 92 % 5.4 C
1097 09-12-2019 19:20:00 6.6 C 92 % 5.4 C
1098 09-12-2019 19:25:00 6.6 C 92 % 5.4 C
1099 09-12-2019 19:30:00 6.6 C 93 % 5.55 C
1100 09-12-2019 19:35:00 6.6 C 93 % 5.55 C
Sensor: Nr:Datum:Temp:Feuchte:Taupunkt:
Aussen-T/F 1101 09-12-2019 19:40:00 6.5 C 93 % 5.45 C
1102 09-12-2019 19:45:00 6.5 C 93 % 5.45 C
1103 09-12-2019 19:50:00 6.5 C 93 % 5.45 C
1104 09-12-2019 19:55:00 6.5 C 93 % 5.45 C
1105 09-12-2019 20:00:00 6.4 C 92 % 5.2 C
1106 09-12-2019 20:05:00 6.5 C 92 % 5.3 C
1107 09-12-2019 20:10:00 6.6 C 92 % 5.4 C
1108 09-12-2019 20:15:00 6.6 C 92 % 5.4 C
1109 09-12-2019 20:20:00 6.6 C 91 % 5.24 C
1110 09-12-2019 20:25:00 6.7 C 92 % 5.49 C
1111 09-12-2019 20:30:00 6.6 C 91 % 5.24 C
1112 09-12-2019 20:35:00 6.7 C 91 % 5.34 C
1113 09-12-2019 20:40:00 6.6 C 91 % 5.24 C
1114 09-12-2019 20:45:00 6.6 C 91 % 5.24 C
1115 09-12-2019 20:50:00 6.5 C 91 % 5.14 C
1116 09-12-2019 20:55:00 6.5 C 90 % 4.98 C
1117 09-12-2019 21:00:00 6.5 C 90 % 4.98 C
1118 09-12-2019 21:05:00 6.4 C 90 % 4.88 C
1119 09-12-2019 21:10:00 6.3 C 90 % 4.78 C
1120 09-12-2019 21:15:00 6.3 C 91 % 4.94 C
1121 09-12-2019 21:20:00 6.2 C 91 % 4.84 C
1122 09-12-2019 21:25:00 6.2 C 91 % 4.84 C
1123 09-12-2019 21:30:00 6.2 C 91 % 4.84 C
1124 09-12-2019 21:35:00 6.2 C 91 % 4.84 C
1125 09-12-2019 21:40:00 6.2 C 90 % 4.69 C
Sensor: Nr:Datum:Temp:Feuchte:Taupunkt:
Aussen-T/F 1126 09-12-2019 21:45:00 6.2 C 90 % 4.69 C
1127 09-12-2019 21:50:00 6.1 C 90 % 4.59 C
1128 09-12-2019 21:55:00 6.1 C 90 % 4.59 C
1129 09-12-2019 22:00:00 5.9 C 90 % 4.39 C
1130 09-12-2019 22:05:00 5.9 C 89 % 4.23 C
1131 09-12-2019 22:10:00 5.8 C 89 % 4.13 C
1132 09-12-2019 22:15:00 5.8 C 89 % 4.13 C
1133 09-12-2019 22:20:00 5.7 C 89 % 4.03 C
1134 09-12-2019 22:25:00 5.7 C 89 % 4.03 C
1135 09-12-2019 22:30:00 5.7 C 89 % 4.03 C
1136 09-12-2019 22:35:00 5.7 C 89 % 4.03 C
1137 09-12-2019 22:40:00 5.7 C 89 % 4.03 C
1138 09-12-2019 22:45:00 5.7 C 89 % 4.03 C
1139 09-12-2019 22:50:00 5.7 C 88 % 3.87 C
1140 09-12-2019 22:55:00 5.7 C 88 % 3.87 C
1141 09-12-2019 23:00:00 5.7 C 88 % 3.87 C
1142 09-12-2019 23:05:00 5.6 C 88 % 3.77 C
1143 09-12-2019 23:10:00 5.6 C 88 % 3.77 C
1144 09-12-2019 23:15:00 5.6 C 88 % 3.77 C
1145 09-12-2019 23:20:00 5.4 C 88 % 3.58 C
1146 09-12-2019 23:25:00 5.4 C 88 % 3.58 C
1147 09-12-2019 23:30:00 5.3 C 87 % 3.32 C
1148 09-12-2019 23:35:00 5.3 C 88 % 3.48 C
1149 09-12-2019 23:40:00 5.3 C 88 % 3.48 C
1150 09-12-2019 23:45:00 5.2 C 88 % 3.38 C
Sensor: Nr:Datum:Temp:Feuchte:Taupunkt:
Aussen-T/F 1151 09-12-2019 23:50:00 5.2 C 88 % 3.38 C
1152 09-12-2019 23:55:00 5.1 C 88 % 3.28 C
1153 10-12-2019 00:00:00 5 C 88 % 3.18 C
1154 10-12-2019 00:05:00 5 C 88 % 3.18 C
1155 10-12-2019 00:10:00 5 C 87 % 3.02 C
1156 10-12-2019 00:15:00 5 C 87 % 3.02 C
1157 10-12-2019 00:20:00 4.9 C 87 % 2.92 C
1158 10-12-2019 00:25:00 4.8 C 87 % 2.82 C
1159 10-12-2019 00:30:00 4.8 C 87 % 2.82 C
1160 10-12-2019 00:35:00 4.8 C 87 % 2.82 C
1161 10-12-2019 00:40:00 4.7 C 87 % 2.73 C
1162 10-12-2019 00:45:00 4.6 C 87 % 2.63 C
1163 10-12-2019 00:50:00 4.5 C 88 % 2.69 C
1164 10-12-2019 00:55:00 4.4 C 88 % 2.59 C
1165 10-12-2019 01:00:00 4.2 C 88 % 2.39 C
1166 10-12-2019 01:05:00 4 C 88 % 2.2 C
1167 10-12-2019 01:10:00 3.8 C 89 % 2.16 C
1168 10-12-2019 01:15:00 3.8 C 90 % 2.31 C
1169 10-12-2019 01:20:00 3.7 C 90 % 2.22 C
1170 10-12-2019 01:25:00 3.7 C 90 % 2.22 C
1171 10-12-2019 01:30:00 3.7 C 90 % 2.22 C
1172 10-12-2019 01:35:00 3.7 C 90 % 2.22 C
1173 10-12-2019 01:40:00 3.7 C 90 % 2.22 C
1174 10-12-2019 01:45:00 3.7 C 90 % 2.22 C
1175 10-12-2019 01:50:00 3.8 C 90 % 2.31 C
Sensor: Nr:Datum:Temp:Feuchte:Taupunkt:
Aussen-T/F 1176 10-12-2019 01:55:00 3.8 C 89 % 2.16 C
1177 10-12-2019 02:00:00 3.8 C 90 % 2.31 C
1178 10-12-2019 02:05:00 3.8 C 90 % 2.31 C
1179 10-12-2019 02:10:00 3.8 C 89 % 2.16 C
1180 10-12-2019 02:15:00 3.7 C 89 % 2.06 C
1181 10-12-2019 02:20:00 3.6 C 89 % 1.96 C
1182 10-12-2019 02:25:00 3.5 C 89 % 1.86 C
1183 10-12-2019 02:30:00 3.3 C 90 % 1.82 C
1184 10-12-2019 02:35:00 3.3 C 90 % 1.82 C
1185 10-12-2019 02:40:00 3.1 C 90 % 1.62 C
1186 10-12-2019 02:45:00 3 C 91 % 1.68 C
1187 10-12-2019 02:50:00 2.9 C 91 % 1.58 C
1188 10-12-2019 02:55:00 2.8 C 91 % 1.48 C
1189 10-12-2019 03:00:00 2.8 C 92 % 1.63 C
1190 10-12-2019 03:05:00 2.8 C 92 % 1.63 C
1191 10-12-2019 03:10:00 2.7 C 92 % 1.53 C
1192 10-12-2019 03:15:00 2.6 C 92 % 1.43 C
1193 10-12-2019 03:20:00 2.6 C 92 % 1.43 C
1194 10-12-2019 03:25:00 2.6 C 93 % 1.59 C
1195 10-12-2019 03:30:00 2.7 C 93 % 1.68 C
1196 10-12-2019 03:35:00 2.7 C 93 % 1.68 C
1197 10-12-2019 03:40:00 2.7 C 93 % 1.68 C
1198 10-12-2019 03:45:00 2.6 C 93 % 1.59 C
1199 10-12-2019 03:50:00 2.5 C 93 % 1.49 C
1200 10-12-2019 03:55:00 2.4 C 93 % 1.39 C
Sensor: Nr:Datum:Temp:Feuchte:Taupunkt:
Aussen-T/F 1201 10-12-2019 04:00:00 2.3 C 93 % 1.29 C
1202 10-12-2019 04:05:00 2.3 C 93 % 1.29 C
1203 10-12-2019 04:10:00 2.2 C 93 % 1.19 C
1204 10-12-2019 04:15:00 2.2 C 93 % 1.19 C
1205 10-12-2019 04:20:00 2.1 C 93 % 1.09 C
1206 10-12-2019 04:25:00 2 C 93 % 0.99 C
1207 10-12-2019 04:30:00 1.9 C 94 % 1.04 C
1208 10-12-2019 04:35:00 1.8 C 94 % 0.94 C
1209 10-12-2019 04:40:00 1.8 C 94 % 0.94 C
1210 10-12-2019 04:45:00 1.8 C 94 % 0.94 C
1211 10-12-2019 04:50:00 1.9 C 94 % 1.04 C
1212 10-12-2019 04:55:00 2 C 95 % 1.29 C
1213 10-12-2019 05:00:00 2 C 94 % 1.14 C
1214 10-12-2019 05:05:00 2 C 94 % 1.14 C
1215 10-12-2019 05:10:00 2.1 C 95 % 1.38 C
1216 10-12-2019 05:15:00 2.2 C 95 % 1.48 C
1217 10-12-2019 05:20:00 2.3 C 95 % 1.58 C
1218 10-12-2019 05:25:00 2.3 C 95 % 1.58 C
1219 10-12-2019 05:30:00 2.4 C 95 % 1.68 C
1220 10-12-2019 05:35:00 2.4 C 95 % 1.68 C
1221 10-12-2019 05:40:00 2.4 C 94 % 1.54 C
1222 10-12-2019 05:45:00 2.4 C 94 % 1.54 C
1223 10-12-2019 05:50:00 2.4 C 94 % 1.54 C
1224 10-12-2019 05:55:00 2.4 C 94 % 1.54 C
1225 10-12-2019 06:00:00 2.3 C 94 % 1.44 C
Sensor: Nr:Datum:Temp:Feuchte:Taupunkt:
Aussen-T/F 1226 10-12-2019 06:05:00 2.3 C 94 % 1.44 C
1227 10-12-2019 06:10:00 2.2 C 94 % 1.34 C
1228 10-12-2019 06:15:00 2.2 C 94 % 1.34 C
1229 10-12-2019 06:20:00 2.2 C 94 % 1.34 C
1230 10-12-2019 06:25:00 2.1 C 94 % 1.24 C
1231 10-12-2019 06:30:00 2 C 94 % 1.14 C
1232 10-12-2019 06:35:00 1.9 C 94 % 1.04 C
1233 10-12-2019 06:40:00 1.9 C 94 % 1.04 C
1234 10-12-2019 06:45:00 1.8 C 94 % 0.94 C
1235 10-12-2019 06:50:00 1.9 C 94 % 1.04 C
1236 10-12-2019 06:55:00 1.9 C 94 % 1.04 C
1237 10-12-2019 07:00:00 2 C 94 % 1.14 C
1238 10-12-2019 07:05:00 2.1 C 95 % 1.38 C
1239 10-12-2019 07:10:00 2.1 C 95 % 1.38 C
1240 10-12-2019 07:15:00 2.2 C 95 % 1.48 C
1241 10-12-2019 07:20:00 2.3 C 95 % 1.58 C
1242 10-12-2019 07:25:00 2.3 C 95 % 1.58 C
1243 10-12-2019 07:30:00 2.2 C 95 % 1.48 C
1244 10-12-2019 07:35:00 2.2 C 94 % 1.34 C
1245 10-12-2019 07:40:00 2 C 94 % 1.14 C
1246 10-12-2019 07:45:00 1.9 C 94 % 1.04 C
1247 10-12-2019 07:50:00 1.8 C 94 % 0.94 C
1248 10-12-2019 07:55:00 1.8 C 94 % 0.94 C
1249 10-12-2019 08:00:00 1.7 C 94 % 0.84 C
1250 10-12-2019 08:05:00 1.7 C 94 % 0.84 C
Sensor: Nr:Datum:Temp:Feuchte:Taupunkt:
Aussen-T/F 1251 10-12-2019 08:10:00 1.6 C 94 % 0.74 C
1252 10-12-2019 08:15:00 1.6 C 94 % 0.74 C
1253 10-12-2019 08:20:00 1.6 C 95 % 0.89 C
1254 10-12-2019 08:25:00 1.6 C 95 % 0.89 C
1255 10-12-2019 08:30:00 1.5 C 94 % 0.64 C
1256 10-12-2019 08:35:00 1.5 C 94 % 0.64 C
1257 10-12-2019 08:40:00 1.5 C 95 % 0.79 C
1258 10-12-2019 08:45:00 1.5 C 95 % 0.79 C
1259 10-12-2019 08:50:00 1.5 C 95 % 0.79 C
1260 10-12-2019 08:55:00 1.5 C 95 % 0.79 C
1261 10-12-2019 09:00:00 1.4 C 95 % 0.69 C
1262 10-12-2019 09:05:00 1.5 C 95 % 0.79 C
1263 10-12-2019 09:10:00 1.5 C 95 % 0.79 C
1264 10-12-2019 09:15:00 1.6 C 95 % 0.89 C
1265 10-12-2019 09:20:00 1.7 C 95 % 0.99 C
1266 10-12-2019 09:25:00 1.8 C 95 % 1.09 C
1267 10-12-2019 09:30:00 2 C 95 % 1.29 C
1268 10-12-2019 09:35:00 2.3 C 95 % 1.58 C
1269 10-12-2019 09:40:00 2.3 C 95 % 1.58 C
1270 10-12-2019 09:45:00 2.4 C 95 % 1.68 C
1271 10-12-2019 09:50:00 2.4 C 95 % 1.68 C
1272 10-12-2019 09:55:00 2.6 C 95 % 1.88 C
1273 10-12-2019 10:00:00 2.7 C 95 % 1.98 C
1274 10-12-2019 10:05:00 2.7 C 95 % 1.98 C
1275 10-12-2019 10:10:00 2.8 C 94 % 1.93 C
Sensor: Nr:Datum:Temp:Feuchte:Taupunkt:
Aussen-T/F 1276 10-12-2019 10:15:00 3 C 94 % 2.13 C
1277 10-12-2019 10:20:00 3.1 C 94 % 2.23 C
1278 10-12-2019 10:25:00 3.2 C 94 % 2.33 C
1279 10-12-2019 10:30:00 3.3 C 93 % 2.28 C
1280 10-12-2019 10:35:00 3.3 C 93 % 2.28 C
1281 10-12-2019 10:40:00 3.4 C 93 % 2.38 C
1282 10-12-2019 10:45:00 3.4 C 93 % 2.38 C
1283 10-12-2019 10:50:00 3.4 C 93 % 2.38 C
1284 10-12-2019 10:55:00 3.3 C 93 % 2.28 C
1285 10-12-2019 11:00:00 3.3 C 93 % 2.28 C
1286 10-12-2019 11:05:00 3.3 C 93 % 2.28 C
1287 10-12-2019 11:10:00 3.2 C 93 % 2.18 C
1288 10-12-2019 11:15:00 3.2 C 93 % 2.18 C
1289 10-12-2019 11:20:00 3.2 C 93 % 2.18 C
1290 10-12-2019 11:25:00 3.2 C 93 % 2.18 C
1291 10-12-2019 11:30:00 3.2 C 93 % 2.18 C
1292 10-12-2019 11:35:00 3.2 C 93 % 2.18 C
1293 10-12-2019 11:40:00 3.3 C 94 % 2.43 C
1294 10-12-2019 11:45:00 3.5 C 93 % 2.48 C
1295 10-12-2019 11:50:00 3.8 C 93 % 2.77 C
1296 10-12-2019 11:55:00 3.9 C 92 % 2.72 C
1297 10-12-2019 12:00:00 4.1 C 91 % 2.77 C
1298 10-12-2019 12:05:00 4.2 C 90 % 2.71 C
1299 10-12-2019 12:10:00 4.3 C 90 % 2.81 C
1300 10-12-2019 12:15:00 4.3 C 90 % 2.81 C
Sensor: Nr:Datum:Temp:Feuchte:Taupunkt:
Aussen-T/F 1301 10-12-2019 12:20:00 4.4 C 90 % 2.91 C
1302 10-12-2019 12:25:00 4.4 C 90 % 2.91 C
1303 10-12-2019 12:30:00 4.5 C 90 % 3.01 C
1304 10-12-2019 12:35:00 4.6 C 90 % 3.1 C
1305 10-12-2019 12:40:00 4.6 C 89 % 2.95 C
1306 10-12-2019 12:45:00 4.7 C 89 % 3.05 C
1307 10-12-2019 12:50:00 4.8 C 89 % 3.14 C
1308 10-12-2019 12:55:00 4.8 C 89 % 3.14 C
1309 10-12-2019 13:00:00 4.9 C 89 % 3.24 C
1310 10-12-2019 13:05:00 5 C 89 % 3.34 C
1311 10-12-2019 13:10:00 5.1 C 88 % 3.28 C
1312 10-12-2019 13:15:00 5.2 C 88 % 3.38 C
1313 10-12-2019 13:20:00 5.2 C 88 % 3.38 C
1314 10-12-2019 13:25:00 5.2 C 88 % 3.38 C
1315 10-12-2019 13:30:00 5.2 C 87 % 3.22 C
1316 10-12-2019 13:35:00 5.3 C 87 % 3.32 C
1317 10-12-2019 13:40:00 5.3 C 87 % 3.32 C
1318 10-12-2019 13:45:00 5.4 C 87 % 3.41 C
1319 10-12-2019 13:50:00 5.4 C 87 % 3.41 C
1320 10-12-2019 13:55:00 5.4 C 86 % 3.25 C
1321 10-12-2019 14:00:00 5.4 C 86 % 3.25 C
1322 10-12-2019 14:05:00 5.4 C 87 % 3.41 C
1323 10-12-2019 14:10:00 5.3 C 87 % 3.32 C
1324 10-12-2019 14:15:00 5.2 C 87 % 3.22 C
1325 10-12-2019 14:20:00 5.1 C 87 % 3.12 C
Sensor: Nr:Datum:Temp:Feuchte:Taupunkt:
Aussen-T/F 1326 10-12-2019 14:25:00 4.9 C 87 % 2.92 C
1327 10-12-2019 14:30:00 5 C 87 % 3.02 C
1328 10-12-2019 14:35:00 4.9 C 87 % 2.92 C
1329 10-12-2019 14:40:00 4.8 C 87 % 2.82 C
1330 10-12-2019 14:45:00 4.8 C 88 % 2.99 C
1331 10-12-2019 14:50:00 4.7 C 88 % 2.89 C
1332 10-12-2019 14:55:00 4.6 C 88 % 2.79 C
1333 10-12-2019 15:00:00 4.5 C 88 % 2.69 C
1334 10-12-2019 15:05:00 4.4 C 88 % 2.59 C
1335 10-12-2019 15:10:00 4.3 C 89 % 2.65 C
1336 10-12-2019 15:15:00 4.3 C 89 % 2.65 C
1337 10-12-2019 15:20:00 4.2 C 89 % 2.55 C
1338 10-12-2019 15:25:00 4.1 C 89 % 2.45 C
1339 10-12-2019 15:30:00 4.1 C 90 % 2.61 C
1340 10-12-2019 15:35:00 4.1 C 89 % 2.45 C
1341 10-12-2019 15:40:00 4 C 89 % 2.36 C
1342 10-12-2019 15:45:00 3.9 C 90 % 2.41 C
1343 10-12-2019 15:50:00 3.9 C 89 % 2.26 C
1344 10-12-2019 15:55:00 3.8 C 89 % 2.16 C
1345 10-12-2019 16:00:00 3.7 C 89 % 2.06 C
1346 10-12-2019 16:05:00 3.6 C 90 % 2.12 C
1347 10-12-2019 16:10:00 3.5 C 90 % 2.02 C
1348 10-12-2019 16:15:00 3.6 C 90 % 2.12 C
1349 10-12-2019 16:20:00 3.7 C 90 % 2.22 C
1350 10-12-2019 16:25:00 3.8 C 90 % 2.31 C
Sensor: Nr:Datum:Temp:Feuchte:Taupunkt:
Aussen-T/F 1351 10-12-2019 16:30:00 3.9 C 90 % 2.41 C
1352 10-12-2019 16:35:00 4 C 88 % 2.2 C
1353 10-12-2019 16:40:00 4.2 C 88 % 2.39 C
1354 10-12-2019 16:45:00 4.1 C 87 % 2.14 C
1355 10-12-2019 16:50:00 4 C 86 % 1.88 C
1356 10-12-2019 16:55:00 4 C 86 % 1.88 C
1357 10-12-2019 17:00:00 3.9 C 86 % 1.78 C
1358 10-12-2019 17:05:00 3.8 C 86 % 1.68 C
1359 10-12-2019 17:10:00 3.7 C 86 % 1.58 C
1360 10-12-2019 17:15:00 3.7 C 86 % 1.58 C
1361 10-12-2019 17:20:00 3.7 C 86 % 1.58 C
1362 10-12-2019 17:25:00 3.7 C 86 % 1.58 C
1363 10-12-2019 17:30:00 3.7 C 86 % 1.58 C
1364 10-12-2019 17:35:00 3.7 C 85 % 1.42 C
1365 10-12-2019 17:40:00 3.6 C 86 % 1.48 C
1366 10-12-2019 17:45:00 3.6 C 86 % 1.48 C
1367 10-12-2019 17:50:00 3.6 C 86 % 1.48 C
1368 10-12-2019 17:55:00 3.4 C 86 % 1.29 C
1369 10-12-2019 18:00:00 3.4 C 86 % 1.29 C
1370 10-12-2019 18:05:00 3.3 C 87 % 1.35 C
1371 10-12-2019 18:10:00 3.3 C 87 % 1.35 C
1372 10-12-2019 18:15:00 3.1 C 87 % 1.15 C
1373 10-12-2019 18:20:00 3 C 88 % 1.21 C
1374 10-12-2019 18:25:00 3 C 89 % 1.37 C
1375 10-12-2019 18:30:00 2.9 C 89 % 1.27 C
Sensor: Nr:Datum:Temp:Feuchte:Taupunkt:
Aussen-T/F 1376 10-12-2019 18:35:00 2.8 C 89 % 1.17 C
1377 10-12-2019 18:40:00 2.8 C 90 % 1.33 C
1378 10-12-2019 18:45:00 2.8 C 90 % 1.33 C
1379 10-12-2019 18:50:00 2.7 C 90 % 1.23 C
1380 10-12-2019 18:55:00 2.7 C 90 % 1.23 C
1381 10-12-2019 19:00:00 2.6 C 90 % 1.13 C
1382 10-12-2019 19:05:00 2.6 C 91 % 1.28 C
1383 10-12-2019 19:10:00 2.5 C 91 % 1.18 C
1384 10-12-2019 19:15:00 2.4 C 91 % 1.08 C
1385 10-12-2019 19:20:00 2.4 C 91 % 1.08 C
1386 10-12-2019 19:25:00 2.4 C 91 % 1.08 C
1387 10-12-2019 19:30:00 2.4 C 92 % 1.24 C
1388 10-12-2019 19:35:00 2.4 C 92 % 1.24 C
1389 10-12-2019 19:40:00 2.4 C 92 % 1.24 C
1390 10-12-2019 19:45:00 2.4 C 92 % 1.24 C
1391 10-12-2019 19:50:00 2.4 C 92 % 1.24 C
1392 10-12-2019 19:55:00 2.4 C 92 % 1.24 C
1393 10-12-2019 20:00:00 2.5 C 92 % 1.34 C
1394 10-12-2019 20:05:00 2.6 C 92 % 1.43 C
1395 10-12-2019 20:10:00 2.7 C 92 % 1.53 C
1396 10-12-2019 20:15:00 2.8 C 92 % 1.63 C
1397 10-12-2019 20:20:00 3 C 91 % 1.68 C
1398 10-12-2019 20:25:00 3.2 C 90 % 1.72 C
1399 10-12-2019 20:30:00 3.4 C 90 % 1.92 C
1400 10-12-2019 20:35:00 3.4 C 89 % 1.76 C
Sensor: Nr:Datum:Temp:Feuchte:Taupunkt:
Aussen-T/F 1401 10-12-2019 20:40:00 3.4 C 89 % 1.76 C
1402 10-12-2019 20:45:00 3.5 C 89 % 1.86 C
1403 10-12-2019 20:50:00 3.4 C 89 % 1.76 C
1404 10-12-2019 20:55:00 3.4 C 89 % 1.76 C
1405 10-12-2019 21:00:00 3.3 C 89 % 1.67 C
1406 10-12-2019 21:05:00 3.3 C 89 % 1.67 C
1407 10-12-2019 21:10:00 3.4 C 90 % 1.92 C
1408 10-12-2019 21:15:00 3.3 C 90 % 1.82 C
1409 10-12-2019 21:20:00 3.3 C 90 % 1.82 C
1410 10-12-2019 21:25:00 3.2 C 90 % 1.72 C
1411 10-12-2019 21:30:00 3.2 C 90 % 1.72 C
1412 10-12-2019 21:35:00 3.1 C 90 % 1.62 C
1413 10-12-2019 21:40:00 3.1 C 90 % 1.62 C
1414 10-12-2019 21:45:00 3.1 C 91 % 1.78 C
1415 10-12-2019 21:50:00 3 C 90 % 1.52 C
1416 10-12-2019 21:55:00 2.9 C 91 % 1.58 C
1417 10-12-2019 22:00:00 2.9 C 91 % 1.58 C
1418 10-12-2019 22:05:00 2.8 C 91 % 1.48 C
1419 10-12-2019 22:10:00 2.9 C 91 % 1.58 C
1420 10-12-2019 22:15:00 2.9 C 92 % 1.73 C
1421 10-12-2019 22:20:00 3 C 92 % 1.83 C
1422 10-12-2019 22:25:00 3.1 C 92 % 1.93 C
1423 10-12-2019 22:30:00 3.1 C 92 % 1.93 C
1424 10-12-2019 22:35:00 3.2 C 91 % 1.88 C
1425 10-12-2019 22:40:00 3.2 C 91 % 1.88 C
Sensor: Nr:Datum:Temp:Feuchte:Taupunkt:
Aussen-T/F 1426 10-12-2019 22:45:00 3.2 C 91 % 1.88 C
1427 10-12-2019 22:50:00 3.3 C 91 % 1.98 C
1428 10-12-2019 22:55:00 3.4 C 91 % 2.07 C
1429 10-12-2019 23:00:00 3.5 C 91 % 2.17 C
1430 10-12-2019 23:05:00 3.6 C 91 % 2.27 C
1431 10-12-2019 23:10:00 3.7 C 90 % 2.22 C
1432 10-12-2019 23:15:00 3.7 C 91 % 2.37 C
1433 10-12-2019 23:20:00 3.7 C 90 % 2.22 C
1434 10-12-2019 23:25:00 3.7 C 90 % 2.22 C
1435 10-12-2019 23:30:00 3.7 C 90 % 2.22 C
1436 10-12-2019 23:35:00 3.7 C 90 % 2.22 C
1437 10-12-2019 23:40:00 3.8 C 90 % 2.31 C
1438 10-12-2019 23:45:00 3.8 C 90 % 2.31 C
1439 10-12-2019 23:50:00 3.9 C 90 % 2.41 C
1440 10-12-2019 23:55:00 3.9 C 90 % 2.41 C
1441 11-12-2019 00:00:00 3.9 C 90 % 2.41 C
1442 11-12-2019 00:05:00 3.9 C 89 % 2.26 C
1443 11-12-2019 00:10:00 4 C 89 % 2.36 C
1444 11-12-2019 00:15:00 4 C 89 % 2.36 C
1445 11-12-2019 00:20:00 4.1 C 89 % 2.45 C
1446 11-12-2019 00:25:00 4.1 C 89 % 2.45 C
1447 11-12-2019 00:30:00 4.1 C 89 % 2.45 C
1448 11-12-2019 00:35:00 4.1 C 89 % 2.45 C
1449 11-12-2019 00:40:00 4.1 C 88 % 2.3 C
1450 11-12-2019 00:45:00 4.1 C 88 % 2.3 C
Sensor: Nr:Datum:Temp:Feuchte:Taupunkt:
Aussen-T/F 1451 11-12-2019 00:50:00 4.1 C 88 % 2.3 C
1452 11-12-2019 00:55:00 4.2 C 87 % 2.23 C
1453 11-12-2019 01:00:00 4.2 C 87 % 2.23 C
1454 11-12-2019 01:05:00 4.2 C 87 % 2.23 C
1455 11-12-2019 01:10:00 4.2 C 87 % 2.23 C
1456 11-12-2019 01:15:00 4.3 C 87 % 2.33 C
1457 11-12-2019 01:20:00 4.3 C 86 % 2.17 C
1458 11-12-2019 01:25:00 4.3 C 87 % 2.33 C
1459 11-12-2019 01:30:00 4.3 C 87 % 2.33 C
1460 11-12-2019 01:35:00 4.3 C 88 % 2.49 C
1461 11-12-2019 01:40:00 4.3 C 88 % 2.49 C
1462 11-12-2019 01:45:00 4.3 C 87 % 2.33 C
1463 11-12-2019 01:50:00 4.3 C 89 % 2.65 C
1464 11-12-2019 01:55:00 4.3 C 89 % 2.65 C
1465 11-12-2019 02:00:00 4.3 C 90 % 2.81 C
1466 11-12-2019 02:05:00 4.2 C 90 % 2.71 C
1467 11-12-2019 02:10:00 4.2 C 90 % 2.71 C
1468 11-12-2019 02:15:00 4.1 C 89 % 2.45 C
1469 11-12-2019 02:20:00 4.1 C 89 % 2.45 C
1470 11-12-2019 02:25:00 4.1 C 90 % 2.61 C
1471 11-12-2019 02:30:00 4.1 C 90 % 2.61 C
1472 11-12-2019 02:35:00 4.1 C 90 % 2.61 C
1473 11-12-2019 02:40:00 4 C 90 % 2.51 C
1474 11-12-2019 02:45:00 3.9 C 89 % 2.26 C
1475 11-12-2019 02:50:00 3.9 C 89 % 2.26 C
Sensor: Nr:Datum:Temp:Feuchte:Taupunkt:
Aussen-T/F 1476 11-12-2019 02:55:00 4 C 89 % 2.36 C
1477 11-12-2019 03:00:00 4 C 90 % 2.51 C
1478 11-12-2019 03:05:00 4.1 C 90 % 2.61 C
1479 11-12-2019 03:10:00 4.1 C 90 % 2.61 C
1480 11-12-2019 03:15:00 4.1 C 91 % 2.77 C
1481 11-12-2019 03:20:00 4 C 89 % 2.36 C
1482 11-12-2019 03:25:00 4.1 C 89 % 2.45 C
1483 11-12-2019 03:30:00 4.1 C 90 % 2.61 C
1484 11-12-2019 03:35:00 4.1 C 90 % 2.61 C
1485 11-12-2019 03:40:00 4.1 C 91 % 2.77 C
1486 11-12-2019 03:45:00 4.1 C 91 % 2.77 C
1487 11-12-2019 03:50:00 4.1 C 91 % 2.77 C
1488 11-12-2019 03:55:00 4.1 C 91 % 2.77 C
1489 11-12-2019 04:00:00 4 C 92 % 2.82 C
1490 11-12-2019 04:05:00 3.9 C 91 % 2.57 C
1491 11-12-2019 04:10:00 3.9 C 91 % 2.57 C
1492 11-12-2019 04:15:00 3.8 C 91 % 2.47 C
1493 11-12-2019 04:20:00 3.8 C 92 % 2.62 C
1494 11-12-2019 04:25:00 3.8 C 92 % 2.62 C
1495 11-12-2019 04:30:00 3.8 C 92 % 2.62 C
1496 11-12-2019 04:35:00 3.8 C 92 % 2.62 C
1497 11-12-2019 04:40:00 3.8 C 92 % 2.62 C
1498 11-12-2019 04:45:00 3.8 C 93 % 2.77 C
1499 11-12-2019 04:50:00 3.7 C 93 % 2.68 C
1500 11-12-2019 04:55:00 3.7 C 93 % 2.68 C
Sensor: Nr:Datum:Temp:Feuchte:Taupunkt:
Aussen-T/F 1501 11-12-2019 05:00:00 3.8 C 93 % 2.77 C
1502 11-12-2019 05:05:00 3.8 C 93 % 2.77 C
1503 11-12-2019 05:10:00 3.8 C 93 % 2.77 C
1504 11-12-2019 05:15:00 3.7 C 93 % 2.68 C
1505 11-12-2019 05:20:00 3.7 C 94 % 2.83 C
1506 11-12-2019 05:25:00 3.7 C 94 % 2.83 C
1507 11-12-2019 05:30:00 3.7 C 94 % 2.83 C
1508 11-12-2019 05:35:00 3.7 C 94 % 2.83 C
1509 11-12-2019 05:40:00 3.6 C 94 % 2.73 C
1510 11-12-2019 05:45:00 3.6 C 94 % 2.73 C
1511 11-12-2019 05:50:00 3.6 C 94 % 2.73 C
1512 11-12-2019 05:55:00 3.6 C 94 % 2.73 C
1513 11-12-2019 06:00:00 3.5 C 94 % 2.63 C
1514 11-12-2019 06:05:00 3.5 C 95 % 2.78 C
1515 11-12-2019 06:10:00 3.5 C 95 % 2.78 C
1516 11-12-2019 06:15:00 3.4 C 95 % 2.68 C
1517 11-12-2019 06:20:00 3.4 C 95 % 2.68 C
1518 11-12-2019 06:25:00 3.4 C 95 % 2.68 C
1519 11-12-2019 06:30:00 3.4 C 95 % 2.68 C
1520 11-12-2019 06:35:00 3.4 C 95 % 2.68 C
1521 11-12-2019 06:40:00 3.4 C 95 % 2.68 C
1522 11-12-2019 06:45:00 3.4 C 95 % 2.68 C
1523 11-12-2019 06:50:00 3.4 C 95 % 2.68 C
1524 11-12-2019 06:55:00 3.4 C 95 % 2.68 C
1525 11-12-2019 07:00:00 3.4 C 95 % 2.68 C
Sensor: Nr:Datum:Temp:Feuchte:Taupunkt:
Aussen-T/F 1526 11-12-2019 07:05:00 3.4 C 95 % 2.68 C
1527 11-12-2019 07:10:00 3.4 C 95 % 2.68 C
1528 11-12-2019 07:15:00 3.4 C 95 % 2.68 C
1529 11-12-2019 07:20:00 3.3 C 95 % 2.58 C
1530 11-12-2019 07:25:00 3.3 C 95 % 2.58 C
1531 11-12-2019 07:30:00 3.3 C 95 % 2.58 C
1532 11-12-2019 07:35:00 3.3 C 95 % 2.58 C
1533 11-12-2019 07:40:00 3.3 C 95 % 2.58 C
1534 11-12-2019 07:45:00 3.3 C 95 % 2.58 C
1535 11-12-2019 07:50:00 3.3 C 95 % 2.58 C
1536 11-12-2019 07:55:00 3.3 C 95 % 2.58 C
1537 11-12-2019 08:00:00 3.3 C 95 % 2.58 C
1538 11-12-2019 08:05:00 3.3 C 95 % 2.58 C
1539 11-12-2019 08:10:00 3.3 C 95 % 2.58 C
1540 11-12-2019 08:15:00 3.3 C 95 % 2.58 C
1541 11-12-2019 08:20:00 3.3 C 96 % 2.72 C
1542 11-12-2019 08:25:00 3.3 C 96 % 2.72 C
1543 11-12-2019 08:30:00 3.3 C 96 % 2.72 C
1544 11-12-2019 08:35:00 3.2 C 96 % 2.63 C
1545 11-12-2019 08:40:00 3.2 C 96 % 2.63 C
1546 11-12-2019 08:45:00 3.2 C 96 % 2.63 C
1547 11-12-2019 08:50:00 3.2 C 96 % 2.63 C
1548 11-12-2019 08:55:00 3.2 C 96 % 2.63 C
1549 11-12-2019 09:00:00 3.2 C 96 % 2.63 C
1550 11-12-2019 09:05:00 3.2 C 96 % 2.63 C
Sensor: Nr:Datum:Temp:Feuchte:Taupunkt:
Aussen-T/F 1551 11-12-2019 09:10:00 3.2 C 96 % 2.63 C
1552 11-12-2019 09:15:00 3.2 C 96 % 2.63 C
1553 11-12-2019 09:20:00 3.2 C 96 % 2.63 C
1554 11-12-2019 09:25:00 3.3 C 96 % 2.72 C
1555 11-12-2019 09:30:00 3.3 C 96 % 2.72 C
1556 11-12-2019 09:35:00 3.3 C 96 % 2.72 C
1557 11-12-2019 09:40:00 3.3 C 96 % 2.72 C
1558 11-12-2019 09:45:00 3.3 C 96 % 2.72 C
1559 11-12-2019 09:50:00 3.3 C 96 % 2.72 C
1560 11-12-2019 09:55:00 3.4 C 96 % 2.82 C
1561 11-12-2019 10:00:00 3.4 C 96 % 2.82 C
1562 11-12-2019 10:05:00 3.4 C 96 % 2.82 C
1563 11-12-2019 10:10:00 3.4 C 96 % 2.82 C
1564 11-12-2019 10:15:00 3.5 C 96 % 2.92 C
1565 11-12-2019 10:20:00 3.5 C 96 % 2.92 C
1566 11-12-2019 10:25:00 3.6 C 96 % 3.02 C
1567 11-12-2019 10:30:00 3.6 C 96 % 3.02 C
1568 11-12-2019 10:35:00 3.6 C 96 % 3.02 C
1569 11-12-2019 10:40:00 3.6 C 96 % 3.02 C
1570 11-12-2019 10:45:00 3.6 C 96 % 3.02 C
1571 11-12-2019 10:50:00 3.6 C 96 % 3.02 C
1572 11-12-2019 10:55:00 3.7 C 96 % 3.12 C
1573 11-12-2019 11:00:00 3.7 C 96 % 3.12 C
1574 11-12-2019 11:05:00 3.7 C 96 % 3.12 C
1575 11-12-2019 11:10:00 3.7 C 96 % 3.12 C
Sensor: Nr:Datum:Temp:Feuchte:Taupunkt:
Aussen-T/F 1576 11-12-2019 11:15:00 3.7 C 96 % 3.12 C
1577 11-12-2019 11:20:00 3.7 C 96 % 3.12 C
1578 11-12-2019 11:25:00 3.8 C 96 % 3.22 C
1579 11-12-2019 11:30:00 3.8 C 96 % 3.22 C
1580 11-12-2019 11:35:00 3.8 C 96 % 3.22 C
1581 11-12-2019 11:40:00 3.8 C 96 % 3.22 C
1582 11-12-2019 11:45:00 3.8 C 96 % 3.22 C
1583 11-12-2019 11:50:00 3.8 C 96 % 3.22 C
1584 11-12-2019 11:55:00 3.8 C 96 % 3.22 C
1585 11-12-2019 12:00:00 3.9 C 96 % 3.32 C
1586 11-12-2019 12:05:00 3.9 C 96 % 3.32 C
1587 11-12-2019 12:10:00 3.9 C 96 % 3.32 C
1588 11-12-2019 12:15:00 3.9 C 96 % 3.32 C
1589 11-12-2019 12:20:00 3.9 C 96 % 3.32 C
1590 11-12-2019 12:25:00 3.9 C 96 % 3.32 C
1591 11-12-2019 12:30:00 3.9 C 96 % 3.32 C
1592 11-12-2019 12:35:00 3.9 C 96 % 3.32 C
1593 11-12-2019 12:40:00 3.9 C 96 % 3.32 C
1594 11-12-2019 12:45:00 3.9 C 96 % 3.32 C
1595 11-12-2019 12:50:00 3.9 C 96 % 3.32 C
1596 11-12-2019 12:55:00 3.9 C 96 % 3.32 C
1597 11-12-2019 13:00:00 3.9 C 96 % 3.32 C
1598 11-12-2019 13:05:00 3.9 C 96 % 3.32 C
1599 11-12-2019 13:10:00 3.9 C 96 % 3.32 C
1600 11-12-2019 13:15:00 3.9 C 96 % 3.32 C
Sensor: Nr:Datum:Temp:Feuchte:Taupunkt:
Aussen-T/F 1601 11-12-2019 13:20:00 3.9 C 96 % 3.32 C
1602 11-12-2019 13:25:00 3.9 C 96 % 3.32 C
1603 11-12-2019 13:30:00 3.9 C 96 % 3.32 C
1604 11-12-2019 13:35:00 4 C 96 % 3.42 C
1605 11-12-2019 13:40:00 3.9 C 96 % 3.32 C
1606 11-12-2019 13:45:00 4 C 96 % 3.42 C
1607 11-12-2019 13:50:00 4 C 96 % 3.42 C
1608 11-12-2019 13:55:00 4 C 96 % 3.42 C
1609 11-12-2019 14:00:00 4 C 96 % 3.42 C
1610 11-12-2019 14:05:00 4 C 96 % 3.42 C
1611 11-12-2019 14:10:00 4.1 C 96 % 3.52 C
1612 11-12-2019 14:15:00 4.1 C 96 % 3.52 C
1613 11-12-2019 14:20:00 4.1 C 96 % 3.52 C
1614 11-12-2019 14:25:00 4.1 C 96 % 3.52 C
1615 11-12-2019 14:30:00 4.1 C 96 % 3.52 C
1616 11-12-2019 14:35:00 4.1 C 96 % 3.52 C
1617 11-12-2019 14:40:00 4.1 C 96 % 3.52 C
1618 11-12-2019 14:45:00 4.1 C 96 % 3.52 C
1619 11-12-2019 14:50:00 4.1 C 96 % 3.52 C
1620 11-12-2019 14:55:00 4.2 C 96 % 3.62 C
1621 11-12-2019 15:00:00 4.2 C 96 % 3.62 C
1622 11-12-2019 15:05:00 4.2 C 96 % 3.62 C
1623 11-12-2019 15:10:00 4.2 C 96 % 3.62 C
1624 11-12-2019 15:15:00 4.2 C 96 % 3.62 C
1625 11-12-2019 15:20:00 4.2 C 96 % 3.62 C
Sensor: Nr:Datum:Temp:Feuchte:Taupunkt:
Aussen-T/F 1626 11-12-2019 15:25:00 4.2 C 96 % 3.62 C
1627 11-12-2019 15:30:00 4.2 C 96 % 3.62 C
1628 11-12-2019 15:35:00 4.2 C 96 % 3.62 C
1629 11-12-2019 15:40:00 4.2 C 96 % 3.62 C
1630 11-12-2019 15:45:00 4.2 C 96 % 3.62 C
1631 11-12-2019 15:50:00 4.2 C 96 % 3.62 C
1632 11-12-2019 15:55:00 4.2 C 96 % 3.62 C
1633 11-12-2019 16:00:00 4.2 C 96 % 3.62 C
1634 11-12-2019 16:05:00 4.2 C 96 % 3.62 C
1635 11-12-2019 16:10:00 4.2 C 96 % 3.62 C
1636 11-12-2019 16:15:00 4.1 C 96 % 3.52 C
1637 11-12-2019 16:20:00 4.1 C 96 % 3.52 C
1638 11-12-2019 16:25:00 4.1 C 96 % 3.52 C
1639 11-12-2019 16:30:00 4.1 C 96 % 3.52 C
1640 11-12-2019 16:35:00 4.1 C 96 % 3.52 C
1641 11-12-2019 16:40:00 4.1 C 96 % 3.52 C
1642 11-12-2019 16:45:00 4.1 C 97 % 3.67 C
1643 11-12-2019 16:50:00 4.1 C 96 % 3.52 C
1644 11-12-2019 16:55:00 4 C 96 % 3.42 C
1645 11-12-2019 17:00:00 4 C 96 % 3.42 C
1646 11-12-2019 17:05:00 4 C 96 % 3.42 C
1647 11-12-2019 17:10:00 3.9 C 96 % 3.32 C
1648 11-12-2019 17:15:00 3.9 C 96 % 3.32 C
1649 11-12-2019 17:20:00 3.9 C 96 % 3.32 C
1650 11-12-2019 17:25:00 3.9 C 96 % 3.32 C
Sensor: Nr:Datum:Temp:Feuchte:Taupunkt:
Aussen-T/F 1651 11-12-2019 17:30:00 3.9 C 96 % 3.32 C
1652 11-12-2019 17:35:00 3.9 C 96 % 3.32 C
1653 11-12-2019 17:40:00 3.9 C 96 % 3.32 C
1654 11-12-2019 17:45:00 3.9 C 96 % 3.32 C
1655 11-12-2019 17:50:00 3.9 C 96 % 3.32 C
1656 11-12-2019 17:55:00 3.9 C 96 % 3.32 C
1657 11-12-2019 18:00:00 4 C 96 % 3.42 C
1658 11-12-2019 18:05:00 4 C 97 % 3.57 C
1659 11-12-2019 18:10:00 4 C 97 % 3.57 C
1660 11-12-2019 18:15:00 4.1 C 97 % 3.67 C
1661 11-12-2019 18:20:00 4.1 C 97 % 3.67 C
1662 11-12-2019 18:25:00 4.1 C 97 % 3.67 C
1663 11-12-2019 18:30:00 4.2 C 97 % 3.77 C
1664 11-12-2019 18:35:00 4.2 C 97 % 3.77 C
1665 11-12-2019 18:40:00 4.2 C 97 % 3.77 C
1666 11-12-2019 18:45:00 4.2 C 97 % 3.77 C
1667 11-12-2019 18:50:00 4.2 C 97 % 3.77 C
1668 11-12-2019 18:55:00 4.3 C 97 % 3.87 C
1669 11-12-2019 19:00:00 4.3 C 97 % 3.87 C
1670 11-12-2019 19:05:00 4.3 C 97 % 3.87 C
1671 11-12-2019 19:10:00 4.3 C 97 % 3.87 C
1672 11-12-2019 19:15:00 4.3 C 97 % 3.87 C
1673 11-12-2019 19:20:00 4.3 C 97 % 3.87 C
1674 11-12-2019 19:25:00 4.3 C 97 % 3.87 C
1675 11-12-2019 19:30:00 4.4 C 97 % 3.97 C
Sensor: Nr:Datum:Temp:Feuchte:Taupunkt:
Aussen-T/F 1676 11-12-2019 19:35:00 4.4 C 97 % 3.97 C
1677 11-12-2019 19:40:00 4.4 C 97 % 3.97 C
1678 11-12-2019 19:45:00 4.4 C 97 % 3.97 C
1679 11-12-2019 19:50:00 4.4 C 97 % 3.97 C
1680 11-12-2019 19:55:00 4.4 C 97 % 3.97 C
1681 11-12-2019 20:00:00 4.5 C 97 % 4.07 C
1682 11-12-2019 20:05:00 4.5 C 97 % 4.07 C
1683 11-12-2019 20:10:00 4.5 C 97 % 4.07 C
1684 11-12-2019 20:15:00 4.6 C 97 % 4.17 C
1685 11-12-2019 20:20:00 4.6 C 97 % 4.17 C
1686 11-12-2019 20:25:00 4.6 C 97 % 4.17 C
1687 11-12-2019 20:30:00 4.6 C 97 % 4.17 C
1688 11-12-2019 20:35:00 4.6 C 97 % 4.17 C
1689 11-12-2019 20:40:00 4.7 C 97 % 4.27 C
1690 11-12-2019 20:45:00 4.7 C 97 % 4.27 C
1691 11-12-2019 20:50:00 4.7 C 97 % 4.27 C
1692 11-12-2019 20:55:00 4.7 C 97 % 4.27 C
1693 11-12-2019 21:00:00 4.8 C 97 % 4.37 C
1694 11-12-2019 21:05:00 4.8 C 97 % 4.37 C
1695 11-12-2019 21:10:00 4.8 C 97 % 4.37 C
1696 11-12-2019 21:15:00 4.8 C 97 % 4.37 C
1697 11-12-2019 21:20:00 4.8 C 97 % 4.37 C
1698 11-12-2019 21:25:00 4.8 C 97 % 4.37 C
1699 11-12-2019 21:30:00 4.8 C 97 % 4.37 C
1700 11-12-2019 21:35:00 4.7 C 97 % 4.27 C
Sensor: Nr:Datum:Temp:Feuchte:Taupunkt:
Aussen-T/F 1701 11-12-2019 21:40:00 4.7 C 97 % 4.27 C
1702 11-12-2019 21:45:00 4.7 C 97 % 4.27 C
1703 11-12-2019 21:50:00 4.7 C 97 % 4.27 C
1704 11-12-2019 21:55:00 4.7 C 97 % 4.27 C
1705 11-12-2019 22:00:00 4.7 C 97 % 4.27 C
1706 11-12-2019 22:05:00 4.7 C 97 % 4.27 C
1707 11-12-2019 22:10:00 4.7 C 97 % 4.27 C
1708 11-12-2019 22:15:00 4.7 C 97 % 4.27 C
1709 11-12-2019 22:20:00 4.6 C 96 % 4.02 C
1710 11-12-2019 22:25:00 4.6 C 96 % 4.02 C
1711 11-12-2019 22:30:00 4.5 C 96 % 3.92 C
1712 11-12-2019 22:35:00 4.4 C 96 % 3.82 C
1713 11-12-2019 22:40:00 4.4 C 97 % 3.97 C
1714 11-12-2019 22:45:00 4.4 C 97 % 3.97 C
1715 11-12-2019 22:50:00 4.3 C 96 % 3.72 C
1716 11-12-2019 22:55:00 4.3 C 96 % 3.72 C
1717 11-12-2019 23:00:00 4.3 C 96 % 3.72 C
1718 11-12-2019 23:05:00 4.4 C 96 % 3.82 C
1719 11-12-2019 23:10:00 4.4 C 97 % 3.97 C
1720 11-12-2019 23:15:00 4.4 C 97 % 3.97 C
1721 11-12-2019 23:20:00 4.3 C 96 % 3.72 C
1722 11-12-2019 23:25:00 4.2 C 96 % 3.62 C
1723 11-12-2019 23:30:00 4.2 C 96 % 3.62 C
1724 11-12-2019 23:35:00 4.1 C 96 % 3.52 C
1725 11-12-2019 23:40:00 4.1 C 96 % 3.52 C
Sensor: Nr:Datum:Temp:Feuchte:Taupunkt:
Aussen-T/F 1726 11-12-2019 23:45:00 4.1 C 97 % 3.67 C
1727 11-12-2019 23:50:00 4.1 C 96 % 3.52 C
1728 11-12-2019 23:55:00 4.1 C 96 % 3.52 C
1729 12-12-2019 00:00:00 4.1 C 97 % 3.67 C
1730 12-12-2019 00:05:00 4 C 96 % 3.42 C
1731 12-12-2019 00:10:00 3.9 C 96 % 3.32 C
1732 12-12-2019 00:15:00 3.9 C 96 % 3.32 C
1733 12-12-2019 00:20:00 3.8 C 97 % 3.37 C
1734 12-12-2019 00:25:00 3.8 C 97 % 3.37 C
1735 12-12-2019 00:30:00 3.7 C 97 % 3.27 C
1736 12-12-2019 00:35:00 3.6 C 96 % 3.02 C
1737 12-12-2019 00:40:00 3.4 C 96 % 2.82 C
1738 12-12-2019 00:45:00 3.4 C 96 % 2.82 C
1739 12-12-2019 00:50:00 3.4 C 97 % 2.97 C
1740 12-12-2019 00:55:00 3.3 C 96 % 2.72 C
1741 12-12-2019 01:00:00 3.3 C 96 % 2.72 C
1742 12-12-2019 01:05:00 3.3 C 96 % 2.72 C
1743 12-12-2019 01:10:00 3.3 C 97 % 2.87 C
1744 12-12-2019 01:15:00 3.4 C 97 % 2.97 C
1745 12-12-2019 01:20:00 3.5 C 97 % 3.07 C
1746 12-12-2019 01:25:00 3.5 C 97 % 3.07 C
1747 12-12-2019 01:30:00 3.4 C 97 % 2.97 C
1748 12-12-2019 01:35:00 3.4 C 97 % 2.97 C
1749 12-12-2019 01:40:00 3.4 C 97 % 2.97 C
1750 12-12-2019 01:45:00 3.4 C 97 % 2.97 C
Sensor: Nr:Datum:Temp:Feuchte:Taupunkt:
Aussen-T/F 1751 12-12-2019 01:50:00 3.3 C 97 % 2.87 C
1752 12-12-2019 01:55:00 3.2 C 97 % 2.77 C
1753 12-12-2019 02:00:00 3.1 C 97 % 2.67 C
1754 12-12-2019 02:05:00 3.1 C 97 % 2.67 C
1755 12-12-2019 02:10:00 2.9 C 97 % 2.47 C
1756 12-12-2019 02:15:00 2.8 C 97 % 2.37 C
1757 12-12-2019 02:20:00 2.7 C 97 % 2.27 C
1758 12-12-2019 02:25:00 2.7 C 96 % 2.13 C
1759 12-12-2019 02:30:00 2.7 C 97 % 2.27 C
1760 12-12-2019 02:35:00 2.7 C 97 % 2.27 C
1761 12-12-2019 02:40:00 2.7 C 97 % 2.27 C
1762 12-12-2019 02:45:00 2.8 C 97 % 2.37 C
1763 12-12-2019 02:50:00 2.9 C 97 % 2.47 C
1764 12-12-2019 02:55:00 2.9 C 97 % 2.47 C
1765 12-12-2019 03:00:00 3 C 97 % 2.57 C
1766 12-12-2019 03:05:00 3.1 C 97 % 2.67 C
1767 12-12-2019 03:10:00 3.1 C 97 % 2.67 C
1768 12-12-2019 03:15:00 3.2 C 97 % 2.77 C
1769 12-12-2019 03:20:00 3.3 C 97 % 2.87 C
1770 12-12-2019 03:25:00 3.4 C 97 % 2.97 C
1771 12-12-2019 03:30:00 3.4 C 97 % 2.97 C
1772 12-12-2019 03:35:00 3.4 C 97 % 2.97 C
1773 12-12-2019 03:40:00 3.4 C 97 % 2.97 C
1774 12-12-2019 03:45:00 3.4 C 97 % 2.97 C
1775 12-12-2019 03:50:00 3.4 C 97 % 2.97 C
Sensor: Nr:Datum:Temp:Feuchte:Taupunkt:
Aussen-T/F 1776 12-12-2019 03:55:00 3.4 C 97 % 2.97 C
1777 12-12-2019 04:00:00 3.5 C 97 % 3.07 C
1778 12-12-2019 04:05:00 3.6 C 97 % 3.17 C
1779 12-12-2019 04:10:00 3.6 C 97 % 3.17 C
1780 12-12-2019 04:15:00 3.7 C 97 % 3.27 C
1781 12-12-2019 04:20:00 3.7 C 97 % 3.27 C
1782 12-12-2019 04:25:00 3.7 C 97 % 3.27 C
1783 12-12-2019 04:30:00 3.7 C 97 % 3.27 C
1784 12-12-2019 04:35:00 3.7 C 97 % 3.27 C
1785 12-12-2019 04:40:00 3.8 C 97 % 3.37 C
1786 12-12-2019 04:45:00 3.8 C 97 % 3.37 C
1787 12-12-2019 04:50:00 3.8 C 97 % 3.37 C
1788 12-12-2019 04:55:00 3.7 C 97 % 3.27 C
1789 12-12-2019 05:00:00 3.4 C 97 % 2.97 C
1790 12-12-2019 05:05:00 3.3 C 97 % 2.87 C
1791 12-12-2019 05:10:00 3.2 C 97 % 2.77 C
1792 12-12-2019 05:15:00 3.2 C 97 % 2.77 C
1793 12-12-2019 05:20:00 3.2 C 97 % 2.77 C
1794 12-12-2019 05:25:00 3.2 C 97 % 2.77 C
1795 12-12-2019 05:30:00 3.1 C 97 % 2.67 C
1796 12-12-2019 05:35:00 3.1 C 97 % 2.67 C
1797 12-12-2019 05:40:00 3.2 C 97 % 2.77 C
1798 12-12-2019 05:45:00 3.1 C 97 % 2.67 C
1799 12-12-2019 05:50:00 3.1 C 97 % 2.67 C
1800 12-12-2019 05:55:00 3 C 97 % 2.57 C
Sensor: Nr:Datum:Temp:Feuchte:Taupunkt:
Aussen-T/F 1801 12-12-2019 06:00:00 2.9 C 97 % 2.47 C
1802 12-12-2019 06:05:00 2.9 C 97 % 2.47 C
1803 12-12-2019 06:10:00 3 C 97 % 2.57 C
1804 12-12-2019 06:15:00 2.9 C 97 % 2.47 C
1805 12-12-2019 06:20:00 2.9 C 97 % 2.47 C
1806 12-12-2019 06:25:00 2.9 C 97 % 2.47 C
1807 12-12-2019 06:30:00 2.8 C 97 % 2.37 C
1808 12-12-2019 06:35:00 2.8 C 97 % 2.37 C
1809 12-12-2019 06:40:00 2.9 C 97 % 2.47 C
1810 12-12-2019 06:45:00 3 C 97 % 2.57 C
1811 12-12-2019 06:50:00 3.1 C 97 % 2.67 C
1812 12-12-2019 06:55:00 3.3 C 97 % 2.87 C
1813 12-12-2019 07:00:00 3.4 C 98 % 3.11 C
1814 12-12-2019 07:05:00 3.6 C 97 % 3.17 C
1815 12-12-2019 07:10:00 3.7 C 97 % 3.27 C
1816 12-12-2019 07:15:00 3.8 C 98 % 3.51 C
1817 12-12-2019 07:20:00 3.8 C 98 % 3.51 C
1818 12-12-2019 07:25:00 3.8 C 98 % 3.51 C
1819 12-12-2019 07:30:00 3.9 C 98 % 3.61 C
1820 12-12-2019 07:35:00 3.8 C 98 % 3.51 C
1821 12-12-2019 07:40:00 3.8 C 98 % 3.51 C
1822 12-12-2019 07:45:00 3.8 C 97 % 3.37 C
1823 12-12-2019 07:50:00 3.8 C 97 % 3.37 C
1824 12-12-2019 07:55:00 3.8 C 97 % 3.37 C
1825 12-12-2019 08:00:00 3.8 C 97 % 3.37 C
Sensor: Nr:Datum:Temp:Feuchte:Taupunkt:
Aussen-T/F 1826 12-12-2019 08:05:00 3.8 C 97 % 3.37 C
1827 12-12-2019 08:10:00 3.9 C 97 % 3.47 C
1828 12-12-2019 08:15:00 3.9 C 97 % 3.47 C
1829 12-12-2019 08:20:00 3.9 C 97 % 3.47 C
1830 12-12-2019 08:25:00 4 C 98 % 3.71 C
1831 12-12-2019 08:30:00 4.1 C 97 % 3.67 C
1832 12-12-2019 08:35:00 4.1 C 98 % 3.81 C
1833 12-12-2019 08:40:00 4.2 C 98 % 3.91 C
1834 12-12-2019 08:45:00 4.2 C 98 % 3.91 C
1835 12-12-2019 08:50:00 4.2 C 98 % 3.91 C
1836 12-12-2019 08:55:00 4.2 C 98 % 3.91 C
1837 12-12-2019 09:00:00 4.3 C 98 % 4.01 C
1838 12-12-2019 09:05:00 4.3 C 98 % 4.01 C
1839 12-12-2019 09:10:00 4.3 C 98 % 4.01 C
1840 12-12-2019 09:15:00 4.4 C 98 % 4.11 C
1841 12-12-2019 09:20:00 4.4 C 98 % 4.11 C
1842 12-12-2019 09:25:00 4.6 C 98 % 4.31 C
1843 12-12-2019 09:30:00 4.6 C 98 % 4.31 C
1844 12-12-2019 09:35:00 4.7 C 98 % 4.41 C
1845 12-12-2019 09:40:00 4.7 C 98 % 4.41 C
1846 12-12-2019 09:45:00 4.7 C 98 % 4.41 C
1847 12-12-2019 09:50:00 4.7 C 98 % 4.41 C
1848 12-12-2019 09:55:00 4.6 C 98 % 4.31 C
1849 12-12-2019 10:00:00 4.6 C 98 % 4.31 C
1850 12-12-2019 10:05:00 4.7 C 98 % 4.41 C
Sensor: Nr:Datum:Temp:Feuchte:Taupunkt:
Aussen-T/F 1851 12-12-2019 10:10:00 4.7 C 98 % 4.41 C
1852 12-12-2019 10:15:00 4.7 C 98 % 4.41 C
1853 12-12-2019 10:20:00 4.8 C 98 % 4.51 C
1854 12-12-2019 10:25:00 4.8 C 98 % 4.51 C
1855 12-12-2019 10:30:00 4.9 C 98 % 4.61 C
1856 12-12-2019 10:35:00 4.9 C 98 % 4.61 C
1857 12-12-2019 10:40:00 4.9 C 98 % 4.61 C
1858 12-12-2019 10:45:00 4.9 C 97 % 4.46 C
1859 12-12-2019 10:50:00 4.9 C 97 % 4.46 C
1860 12-12-2019 10:55:00 4.9 C 98 % 4.61 C
1861 12-12-2019 11:00:00 4.9 C 97 % 4.46 C
1862 12-12-2019 11:05:00 4.9 C 97 % 4.46 C
1863 12-12-2019 11:10:00 4.8 C 97 % 4.37 C
1864 12-12-2019 11:15:00 4.8 C 97 % 4.37 C
1865 12-12-2019 11:20:00 4.8 C 97 % 4.37 C
1866 12-12-2019 11:25:00 4.8 C 97 % 4.37 C
1867 12-12-2019 11:30:00 4.8 C 96 % 4.22 C
1868 12-12-2019 11:35:00 4.9 C 96 % 4.32 C
1869 12-12-2019 11:40:00 4.9 C 96 % 4.32 C
1870 12-12-2019 11:45:00 5 C 96 % 4.42 C
1871 12-12-2019 11:50:00 5.1 C 96 % 4.52 C
1872 12-12-2019 11:55:00 5.1 C 95 % 4.37 C
1873 12-12-2019 12:00:00 5.1 C 95 % 4.37 C
1874 12-12-2019 12:05:00 5.2 C 95 % 4.47 C
1875 12-12-2019 12:10:00 5.1 C 94 % 4.22 C
Sensor: Nr:Datum:Temp:Feuchte:Taupunkt:
Aussen-T/F 1876 12-12-2019 12:15:00 5.2 C 93 % 4.16 C
1877 12-12-2019 12:20:00 5.3 C 92 % 4.11 C
1878 12-12-2019 12:25:00 5.3 C 91 % 3.95 C
1879 12-12-2019 12:30:00 5.2 C 91 % 3.85 C
1880 12-12-2019 12:35:00 5.2 C 91 % 3.85 C
1881 12-12-2019 12:40:00 5.2 C 91 % 3.85 C
1882 12-12-2019 12:45:00 5.2 C 91 % 3.85 C
1883 12-12-2019 12:50:00 5.2 C 91 % 3.85 C
1884 12-12-2019 12:55:00 5.2 C 91 % 3.85 C
1885 12-12-2019 13:00:00 5.3 C 90 % 3.8 C
1886 12-12-2019 13:05:00 5.3 C 90 % 3.8 C
1887 12-12-2019 13:10:00 5.3 C 90 % 3.8 C
1888 12-12-2019 13:15:00 5.3 C 90 % 3.8 C
1889 12-12-2019 13:20:00 5.2 C 89 % 3.54 C
1890 12-12-2019 13:25:00 5.2 C 89 % 3.54 C
1891 12-12-2019 13:30:00 5.2 C 88 % 3.38 C
1892 12-12-2019 13:35:00 5.2 C 87 % 3.22 C
1893 12-12-2019 13:40:00 5.1 C 87 % 3.12 C
1894 12-12-2019 13:45:00 4.9 C 87 % 2.92 C
1895 12-12-2019 13:50:00 4.8 C 86 % 2.66 C
1896 12-12-2019 13:55:00 4.9 C 85 % 2.6 C
1897 12-12-2019 14:00:00 5.1 C 85 % 2.79 C
1898 12-12-2019 14:05:00 5.1 C 86 % 2.96 C
1899 12-12-2019 14:10:00 5.1 C 84 % 2.63 C
1900 12-12-2019 14:15:00 5.1 C 84 % 2.63 C
Sensor: Nr:Datum:Temp:Feuchte:Taupunkt:
Aussen-T/F 1901 12-12-2019 14:20:00 5.1 C 86 % 2.96 C
1902 12-12-2019 14:25:00 5.1 C 86 % 2.96 C
1903 12-12-2019 14:30:00 5 C 86 % 2.86 C
1904 12-12-2019 14:35:00 5.1 C 86 % 2.96 C
1905 12-12-2019 14:40:00 5.2 C 86 % 3.05 C
1906 12-12-2019 14:45:00 5.2 C 85 % 2.89 C
1907 12-12-2019 14:50:00 5.3 C 87 % 3.32 C
1908 12-12-2019 14:55:00 5.3 C 86 % 3.15 C
1909 12-12-2019 15:00:00 5.3 C 87 % 3.32 C
1910 12-12-2019 15:05:00 5.2 C 87 % 3.22 C
1911 12-12-2019 15:10:00 5.2 C 87 % 3.22 C
1912 12-12-2019 15:15:00 5.1 C 87 % 3.12 C
1913 12-12-2019 15:20:00 4.9 C 87 % 2.92 C
1914 12-12-2019 15:25:00 4.8 C 87 % 2.82 C
1915 12-12-2019 15:30:00 4.7 C 87 % 2.73 C
1916 12-12-2019 15:35:00 4.6 C 87 % 2.63 C
1917 12-12-2019 15:40:00 4.6 C 87 % 2.63 C
1918 12-12-2019 15:45:00 4.7 C 87 % 2.73 C
1919 12-12-2019 15:50:00 4.7 C 87 % 2.73 C
1920 12-12-2019 15:55:00 4.7 C 87 % 2.73 C
1921 12-12-2019 16:00:00 4.6 C 87 % 2.63 C
1922 12-12-2019 16:05:00 4.6 C 87 % 2.63 C
1923 12-12-2019 16:10:00 4.5 C 86 % 2.37 C
1924 12-12-2019 16:15:00 4.5 C 87 % 2.53 C
1925 12-12-2019 16:20:00 4.4 C 87 % 2.43 C
Sensor: Nr:Datum:Temp:Feuchte:Taupunkt:
Aussen-T/F 1926 12-12-2019 16:25:00 4.4 C 86 % 2.27 C
1927 12-12-2019 16:30:00 4.3 C 87 % 2.33 C
1928 12-12-2019 16:35:00 4.3 C 86 % 2.17 C
1929 12-12-2019 16:40:00 4.3 C 86 % 2.17 C
1930 12-12-2019 16:45:00 4.3 C 87 % 2.33 C
1931 12-12-2019 16:50:00 4.2 C 87 % 2.23 C
1932 12-12-2019 16:55:00 4.2 C 88 % 2.39 C
1933 12-12-2019 17:00:00 4.1 C 88 % 2.3 C
1934 12-12-2019 17:05:00 3.9 C 88 % 2.1 C
1935 12-12-2019 17:10:00 3.7 C 88 % 1.9 C
1936 12-12-2019 17:15:00 3.3 C 88 % 1.51 C
1937 12-12-2019 17:20:00 3 C 88 % 1.21 C
1938 12-12-2019 17:25:00 2.8 C 89 % 1.17 C
1939 12-12-2019 17:30:00 2.6 C 90 % 1.13 C
1940 12-12-2019 17:35:00 2.4 C 90 % 0.93 C
1941 12-12-2019 17:40:00 2.3 C 91 % 0.99 C
1942 12-12-2019 17:45:00 2.2 C 91 % 0.89 C
1943 12-12-2019 17:50:00 2.1 C 92 % 0.94 C
1944 12-12-2019 17:55:00 2.1 C 92 % 0.94 C
1945 12-12-2019 18:00:00 2 C 92 % 0.84 C
1946 12-12-2019 18:05:00 2 C 93 % 0.99 C
1947 12-12-2019 18:10:00 2 C 93 % 0.99 C
1948 12-12-2019 18:15:00 2 C 93 % 0.99 C
1949 12-12-2019 18:20:00 2.1 C 94 % 1.24 C
1950 12-12-2019 18:25:00 2.1 C 94 % 1.24 C
Sensor: Nr:Datum:Temp:Feuchte:Taupunkt:
Aussen-T/F 1951 12-12-2019 18:30:00 2.1 C 94 % 1.24 C
1952 12-12-2019 18:35:00 2.1 C 94 % 1.24 C
1953 12-12-2019 18:40:00 2 C 94 % 1.14 C
1954 12-12-2019 18:45:00 1.9 C 94 % 1.04 C
1955 12-12-2019 18:50:00 1.9 C 94 % 1.04 C
1956 12-12-2019 18:55:00 1.9 C 94 % 1.04 C
1957 12-12-2019 19:00:00 1.8 C 94 % 0.94 C
1958 12-12-2019 19:05:00 1.8 C 94 % 0.94 C
1959 12-12-2019 19:10:00 1.8 C 94 % 0.94 C
1960 12-12-2019 19:15:00 1.7 C 94 % 0.84 C
1961 12-12-2019 19:20:00 1.6 C 94 % 0.74 C
1962 12-12-2019 19:25:00 1.6 C 94 % 0.74 C
1963 12-12-2019 19:30:00 1.6 C 94 % 0.74 C
1964 12-12-2019 19:35:00 1.6 C 95 % 0.89 C
1965 12-12-2019 19:40:00 1.6 C 95 % 0.89 C
1966 12-12-2019 19:45:00 1.7 C 95 % 0.99 C
1967 12-12-2019 19:50:00 1.7 C 95 % 0.99 C
1968 12-12-2019 19:55:00 1.7 C 95 % 0.99 C
1969 12-12-2019 20:00:00 1.7 C 95 % 0.99 C
1970 12-12-2019 20:05:00 1.7 C 95 % 0.99 C
1971 12-12-2019 20:10:00 1.7 C 95 % 0.99 C
1972 12-12-2019 20:15:00 1.6 C 95 % 0.89 C
1973 12-12-2019 20:20:00 1.6 C 95 % 0.89 C
1974 12-12-2019 20:25:00 1.7 C 95 % 0.99 C
1975 12-12-2019 20:30:00 1.6 C 95 % 0.89 C
Sensor: Nr:Datum:Temp:Feuchte:Taupunkt:
Aussen-T/F 1976 12-12-2019 20:35:00 1.6 C 95 % 0.89 C
1977 12-12-2019 20:40:00 1.6 C 95 % 0.89 C
1978 12-12-2019 20:45:00 1.6 C 95 % 0.89 C
1979 12-12-2019 20:50:00 1.8 C 95 % 1.09 C
1980 12-12-2019 20:55:00 1.9 C 95 % 1.19 C
1981 12-12-2019 21:00:00 2.1 C 95 % 1.38 C
1982 12-12-2019 21:05:00 2.2 C 95 % 1.48 C
1983 12-12-2019 21:10:00 2.3 C 95 % 1.58 C
1984 12-12-2019 21:15:00 2.3 C 94 % 1.44 C
1985 12-12-2019 21:20:00 2.4 C 94 % 1.54 C
1986 12-12-2019 21:25:00 2.4 C 94 % 1.54 C
1987 12-12-2019 21:30:00 2.5 C 93 % 1.49 C
1988 12-12-2019 21:35:00 2.4 C 93 % 1.39 C
1989 12-12-2019 21:40:00 2.4 C 92 % 1.24 C
1990 12-12-2019 21:45:00 2.3 C 92 % 1.14 C
1991 12-12-2019 21:50:00 2.2 C 92 % 1.04 C
1992 12-12-2019 21:55:00 2.3 C 93 % 1.29 C
1993 12-12-2019 22:00:00 2.3 C 92 % 1.14 C
1994 12-12-2019 22:05:00 2.3 C 93 % 1.29 C
1995 12-12-2019 22:10:00 2.2 C 93 % 1.19 C
1996 12-12-2019 22:15:00 2.1 C 92 % 0.94 C
1997 12-12-2019 22:20:00 1.9 C 92 % 0.74 C
1998 12-12-2019 22:25:00 1.8 C 92 % 0.64 C
1999 12-12-2019 22:30:00 1.7 C 93 % 0.69 C
2000 12-12-2019 22:35:00 1.6 C 93 % 0.59 C
Sensor: Nr:Datum:Temp:Feuchte:Taupunkt:
Aussen-T/F 2001 12-12-2019 22:40:00 1.6 C 93 % 0.59 C
2002 12-12-2019 22:45:00 1.6 C 93 % 0.59 C
2003 12-12-2019 22:50:00 1.6 C 93 % 0.59 C
2004 12-12-2019 22:55:00 1.6 C 93 % 0.59 C
2005 12-12-2019 23:00:00 1.6 C 93 % 0.59 C
2006 12-12-2019 23:05:00 1.8 C 93 % 0.79 C
2007 12-12-2019 23:10:00 1.9 C 93 % 0.89 C
2008 12-12-2019 23:15:00 2.2 C 93 % 1.19 C
2009 12-12-2019 23:20:00 2.4 C 92 % 1.24 C
2010 12-12-2019 23:25:00 2.6 C 91 % 1.28 C
2011 12-12-2019 23:30:00 2.7 C 91 % 1.38 C
2012 12-12-2019 23:35:00 2.7 C 90 % 1.23 C
2013 12-12-2019 23:40:00 2.7 C 90 % 1.23 C
2014 12-12-2019 23:45:00 2.7 C 90 % 1.23 C
2015 12-12-2019 23:50:00 2.7 C 89 % 1.07 C
2016 12-12-2019 23:55:00 2.8 C 89 % 1.17 C
2017 13-12-2019 00:00:00 2.7 C 89 % 1.07 C
2018 13-12-2019 00:05:00 2.6 C 89 % 0.97 C
2019 13-12-2019 00:10:00 2.5 C 89 % 0.88 C
2020 13-12-2019 00:15:00 2.4 C 89 % 0.78 C
2021 13-12-2019 00:20:00 2.4 C 90 % 0.93 C
2022 13-12-2019 00:25:00 2.4 C 89 % 0.78 C
2023 13-12-2019 00:30:00 2.4 C 89 % 0.78 C
2024 13-12-2019 00:35:00 2.3 C 90 % 0.83 C
2025 13-12-2019 00:40:00 2.2 C 90 % 0.73 C
Sensor: Nr:Datum:Temp:Feuchte:Taupunkt:
Aussen-T/F 2026 13-12-2019 00:45:00 2.2 C 90 % 0.73 C
2027 13-12-2019 00:50:00 2.2 C 90 % 0.73 C
2028 13-12-2019 00:55:00 2.3 C 90 % 0.83 C
2029 13-12-2019 01:00:00 2.4 C 90 % 0.93 C
2030 13-12-2019 01:05:00 2.6 C 89 % 0.97 C
2031 13-12-2019 01:10:00 2.6 C 89 % 0.97 C
2032 13-12-2019 01:15:00 2.7 C 88 % 0.92 C
2033 13-12-2019 01:20:00 2.8 C 87 % 0.86 C
2034 13-12-2019 01:25:00 2.9 C 87 % 0.96 C
2035 13-12-2019 01:30:00 2.9 C 87 % 0.96 C
2036 13-12-2019 01:35:00 2.9 C 87 % 0.96 C
2037 13-12-2019 01:40:00 2.9 C 86 % 0.8 C
2038 13-12-2019 01:45:00 2.9 C 86 % 0.8 C
2039 13-12-2019 01:50:00 2.9 C 87 % 0.96 C
2040 13-12-2019 01:55:00 2.9 C 87 % 0.96 C
2041 13-12-2019 02:00:00 2.9 C 87 % 0.96 C
2042 13-12-2019 02:05:00 2.9 C 87 % 0.96 C
2043 13-12-2019 02:10:00 2.9 C 86 % 0.8 C
2044 13-12-2019 02:15:00 2.9 C 87 % 0.96 C
2045 13-12-2019 02:20:00 2.9 C 87 % 0.96 C
2046 13-12-2019 02:25:00 2.9 C 87 % 0.96 C
2047 13-12-2019 02:30:00 2.9 C 87 % 0.96 C
2048 13-12-2019 02:35:00 2.9 C 87 % 0.96 C
2049 13-12-2019 02:40:00 2.9 C 86 % 0.8 C
2050 13-12-2019 02:45:00 2.9 C 87 % 0.96 C
Sensor: Nr:Datum:Temp:Feuchte:Taupunkt:
Aussen-T/F 2051 13-12-2019 02:50:00 2.9 C 87 % 0.96 C
2052 13-12-2019 02:55:00 2.9 C 87 % 0.96 C
2053 13-12-2019 03:00:00 2.8 C 87 % 0.86 C
2054 13-12-2019 03:05:00 2.8 C 87 % 0.86 C
2055 13-12-2019 03:10:00 2.8 C 87 % 0.86 C
2056 13-12-2019 03:15:00 2.8 C 87 % 0.86 C
2057 13-12-2019 03:20:00 2.7 C 88 % 0.92 C
2058 13-12-2019 03:25:00 2.7 C 88 % 0.92 C
2059 13-12-2019 03:30:00 2.7 C 88 % 0.92 C
2060 13-12-2019 03:35:00 2.7 C 88 % 0.92 C
2061 13-12-2019 03:40:00 2.7 C 88 % 0.92 C
2062 13-12-2019 03:45:00 2.7 C 89 % 1.07 C
2063 13-12-2019 03:50:00 2.7 C 89 % 1.07 C
2064 13-12-2019 03:55:00 2.6 C 89 % 0.97 C
2065 13-12-2019 04:00:00 2.6 C 89 % 0.97 C
2066 13-12-2019 04:05:00 2.6 C 89 % 0.97 C
2067 13-12-2019 04:10:00 2.6 C 90 % 1.13 C
2068 13-12-2019 04:15:00 2.5 C 90 % 1.03 C
2069 13-12-2019 04:20:00 2.5 C 90 % 1.03 C
2070 13-12-2019 04:25:00 2.5 C 90 % 1.03 C
2071 13-12-2019 04:30:00 2.5 C 90 % 1.03 C
2072 13-12-2019 04:35:00 2.5 C 90 % 1.03 C
2073 13-12-2019 04:40:00 2.5 C 90 % 1.03 C
2074 13-12-2019 04:45:00 2.5 C 91 % 1.18 C
2075 13-12-2019 04:50:00 2.5 C 91 % 1.18 C
Sensor: Nr:Datum:Temp:Feuchte:Taupunkt:
Aussen-T/F 2076 13-12-2019 04:55:00 2.5 C 91 % 1.18 C
2077 13-12-2019 05:00:00 2.5 C 91 % 1.18 C
2078 13-12-2019 05:05:00 2.5 C 91 % 1.18 C
2079 13-12-2019 05:10:00 2.6 C 91 % 1.28 C
2080 13-12-2019 05:15:00 2.6 C 91 % 1.28 C
2081 13-12-2019 05:20:00 2.6 C 91 % 1.28 C
2082 13-12-2019 05:25:00 2.6 C 91 % 1.28 C
2083 13-12-2019 05:30:00 2.6 C 91 % 1.28 C
2084 13-12-2019 05:35:00 2.7 C 91 % 1.38 C
2085 13-12-2019 05:40:00 2.7 C 91 % 1.38 C
2086 13-12-2019 05:45:00 2.7 C 91 % 1.38 C
2087 13-12-2019 05:50:00 2.7 C 91 % 1.38 C
2088 13-12-2019 05:55:00 2.8 C 91 % 1.48 C
2089 13-12-2019 06:00:00 2.8 C 91 % 1.48 C
2090 13-12-2019 06:05:00 2.8 C 91 % 1.48 C
2091 13-12-2019 06:10:00 2.8 C 91 % 1.48 C
2092 13-12-2019 06:15:00 2.8 C 91 % 1.48 C
2093 13-12-2019 06:20:00 2.9 C 91 % 1.58 C
2094 13-12-2019 06:25:00 2.9 C 91 % 1.58 C
2095 13-12-2019 06:30:00 2.9 C 91 % 1.58 C
2096 13-12-2019 06:35:00 2.9 C 91 % 1.58 C
2097 13-12-2019 06:40:00 2.9 C 91 % 1.58 C
2098 13-12-2019 06:45:00 2.9 C 92 % 1.73 C
2099 13-12-2019 06:50:00 2.9 C 92 % 1.73 C
2100 13-12-2019 06:55:00 2.9 C 92 % 1.73 C
Sensor: Nr:Datum:Temp:Feuchte:Taupunkt:
Aussen-T/F 2101 13-12-2019 07:00:00 2.9 C 92 % 1.73 C
2102 13-12-2019 07:05:00 2.9 C 92 % 1.73 C
2103 13-12-2019 07:10:00 2.9 C 93 % 1.88 C
2104 13-12-2019 07:15:00 2.8 C 93 % 1.78 C
2105 13-12-2019 07:20:00 2.8 C 93 % 1.78 C
2106 13-12-2019 07:25:00 2.8 C 93 % 1.78 C
2107 13-12-2019 07:30:00 2.8 C 93 % 1.78 C
2108 13-12-2019 07:35:00 2.8 C 93 % 1.78 C
2109 13-12-2019 07:40:00 2.9 C 93 % 1.88 C
2110 13-12-2019 07:45:00 2.9 C 93 % 1.88 C
2111 13-12-2019 07:50:00 2.9 C 93 % 1.88 C
2112 13-12-2019 07:55:00 2.9 C 93 % 1.88 C
2113 13-12-2019 08:00:00 2.9 C 93 % 1.88 C
2114 13-12-2019 08:05:00 2.9 C 93 % 1.88 C
2115 13-12-2019 08:10:00 2.9 C 93 % 1.88 C
2116 13-12-2019 08:15:00 2.9 C 93 % 1.88 C
2117 13-12-2019 08:20:00 2.8 C 94 % 1.93 C
2118 13-12-2019 08:25:00 2.8 C 94 % 1.93 C
2119 13-12-2019 08:30:00 2.8 C 94 % 1.93 C
2120 13-12-2019 08:35:00 2.8 C 94 % 1.93 C
2121 13-12-2019 08:40:00 2.8 C 94 % 1.93 C
2122 13-12-2019 08:45:00 2.8 C 94 % 1.93 C
2123 13-12-2019 08:50:00 2.8 C 94 % 1.93 C
2124 13-12-2019 08:55:00 2.8 C 94 % 1.93 C
2125 13-12-2019 09:00:00 2.8 C 94 % 1.93 C
Sensor: Nr:Datum:Temp:Feuchte:Taupunkt:
Aussen-T/F 2126 13-12-2019 09:05:00 2.8 C 94 % 1.93 C
2127 13-12-2019 09:10:00 2.8 C 94 % 1.93 C
2128 13-12-2019 09:15:00 2.8 C 94 % 1.93 C
2129 13-12-2019 09:20:00 2.8 C 94 % 1.93 C
2130 13-12-2019 09:25:00 2.8 C 94 % 1.93 C
2131 13-12-2019 09:30:00 2.8 C 94 % 1.93 C
2132 13-12-2019 09:35:00 2.8 C 95 % 2.08 C
2133 13-12-2019 09:40:00 2.8 C 94 % 1.93 C
2134 13-12-2019 09:45:00 2.8 C 95 % 2.08 C
2135 13-12-2019 09:50:00 2.8 C 95 % 2.08 C
2136 13-12-2019 09:55:00 2.8 C 95 % 2.08 C
2137 13-12-2019 10:00:00 2.8 C 95 % 2.08 C
2138 13-12-2019 10:05:00 2.8 C 95 % 2.08 C
2139 13-12-2019 10:10:00 2.9 C 95 % 2.18 C
2140 13-12-2019 10:15:00 2.9 C 95 % 2.18 C
2141 13-12-2019 10:20:00 2.9 C 95 % 2.18 C
2142 13-12-2019 10:25:00 2.9 C 95 % 2.18 C
2143 13-12-2019 10:30:00 3 C 95 % 2.28 C
2144 13-12-2019 10:35:00 3.1 C 95 % 2.38 C
2145 13-12-2019 10:40:00 3.1 C 95 % 2.38 C
2146 13-12-2019 10:45:00 3.2 C 95 % 2.48 C
2147 13-12-2019 10:50:00 3.2 C 95 % 2.48 C
2148 13-12-2019 10:55:00 3.2 C 95 % 2.48 C
2149 13-12-2019 11:00:00 3.2 C 96 % 2.63 C
2150 13-12-2019 11:05:00 3.3 C 95 % 2.58 C
Sensor: Nr:Datum:Temp:Feuchte:Taupunkt:
Aussen-T/F 2151 13-12-2019 11:10:00 3.3 C 95 % 2.58 C
2152 13-12-2019 11:15:00 3.3 C 95 % 2.58 C
2153 13-12-2019 11:20:00 3.3 C 95 % 2.58 C
2154 13-12-2019 11:25:00 3.3 C 95 % 2.58 C
2155 13-12-2019 11:30:00 3.3 C 95 % 2.58 C
2156 13-12-2019 11:35:00 3.3 C 96 % 2.72 C
2157 13-12-2019 11:40:00 3.3 C 96 % 2.72 C
2158 13-12-2019 11:45:00 3.4 C 96 % 2.82 C
2159 13-12-2019 11:50:00 3.6 C 96 % 3.02 C
2160 13-12-2019 11:55:00 3.7 C 96 % 3.12 C
2161 13-12-2019 12:00:00 3.8 C 96 % 3.22 C
2162 13-12-2019 12:05:00 3.9 C 96 % 3.32 C
2163 13-12-2019 12:10:00 3.9 C 96 % 3.32 C
2164 13-12-2019 12:15:00 4 C 96 % 3.42 C
2165 13-12-2019 12:20:00 4.1 C 96 % 3.52 C
2166 13-12-2019 12:25:00 4.1 C 96 % 3.52 C
2167 13-12-2019 12:30:00 4.1 C 96 % 3.52 C
2168 13-12-2019 12:35:00 4.2 C 96 % 3.62 C
2169 13-12-2019 12:40:00 4.2 C 96 % 3.62 C
2170 13-12-2019 12:45:00 4.2 C 96 % 3.62 C
2171 13-12-2019 12:50:00 4.3 C 96 % 3.72 C
2172 13-12-2019 12:55:00 4.3 C 96 % 3.72 C
2173 13-12-2019 13:00:00 4.3 C 96 % 3.72 C
2174 13-12-2019 13:05:00 4.4 C 96 % 3.82 C
2175 13-12-2019 13:10:00 4.6 C 96 % 4.02 C
Sensor: Nr:Datum:Temp:Feuchte:Taupunkt:
Aussen-T/F 2176 13-12-2019 13:15:00 4.6 C 96 % 4.02 C
2177 13-12-2019 13:20:00 4.8 C 97 % 4.37 C
2178 13-12-2019 13:25:00 4.9 C 97 % 4.46 C
2179 13-12-2019 13:30:00 5.3 C 97 % 4.86 C
2180 13-12-2019 13:35:00 5.4 C 97 % 4.96 C
2181 13-12-2019 13:40:00 5.6 C 97 % 5.16 C
2182 13-12-2019 13:45:00 5.9 C 97 % 5.46 C
2183 13-12-2019 13:50:00 6.2 C 97 % 5.76 C
2184 13-12-2019 13:55:00 6.4 C 97 % 5.96 C
2185 13-12-2019 14:00:00 6.5 C 97 % 6.06 C
2186 13-12-2019 14:05:00 6.7 C 96 % 6.11 C
2187 13-12-2019 14:10:00 6.8 C 95 % 6.06 C
2188 13-12-2019 14:15:00 6.9 C 94 % 6 C
2189 13-12-2019 14:20:00 7 C 94 % 6.1 C
2190 13-12-2019 14:25:00 7 C 92 % 5.79 C
2191 13-12-2019 14:30:00 7.1 C 91 % 5.73 C
2192 13-12-2019 14:35:00 7.1 C 91 % 5.73 C
2193 13-12-2019 14:40:00 7.1 C 91 % 5.73 C
2194 13-12-2019 14:45:00 7.1 C 91 % 5.73 C
2195 13-12-2019 14:50:00 7 C 91 % 5.63 C
2196 13-12-2019 14:55:00 6.9 C 90 % 5.38 C
2197 13-12-2019 15:00:00 6.9 C 91 % 5.54 C
2198 13-12-2019 15:05:00 6.8 C 90 % 5.28 C
2199 13-12-2019 15:10:00 6.8 C 90 % 5.28 C
2200 13-12-2019 15:15:00 6.8 C 90 % 5.28 C
Sensor: Nr:Datum:Temp:Feuchte:Taupunkt:
Aussen-T/F 2201 13-12-2019 15:20:00 6.8 C 90 % 5.28 C
2202 13-12-2019 15:25:00 6.8 C 90 % 5.28 C
2203 13-12-2019 15:30:00 6.7 C 90 % 5.18 C
2204 13-12-2019 15:35:00 6.7 C 91 % 5.34 C
2205 13-12-2019 15:40:00 6.6 C 91 % 5.24 C
2206 13-12-2019 15:45:00 6.5 C 91 % 5.14 C
2207 13-12-2019 15:50:00 6.4 C 91 % 5.04 C
2208 13-12-2019 15:55:00 6.3 C 91 % 4.94 C
2209 13-12-2019 16:00:00 6.2 C 90 % 4.69 C
2210 13-12-2019 16:05:00 6.2 C 90 % 4.69 C
2211 13-12-2019 16:10:00 6.2 C 90 % 4.69 C
2212 13-12-2019 16:15:00 6.2 C 90 % 4.69 C
2213 13-12-2019 16:20:00 6.1 C 90 % 4.59 C
2214 13-12-2019 16:25:00 6.1 C 90 % 4.59 C
2215 13-12-2019 16:30:00 5.9 C 89 % 4.23 C
2216 13-12-2019 16:35:00 5.9 C 89 % 4.23 C
2217 13-12-2019 16:40:00 5.8 C 90 % 4.29 C
2218 13-12-2019 16:45:00 5.7 C 90 % 4.19 C
2219 13-12-2019 16:50:00 5.7 C 91 % 4.35 C
2220 13-12-2019 16:55:00 5.6 C 91 % 4.25 C
2221 13-12-2019 17:00:00 5.6 C 91 % 4.25 C
2222 13-12-2019 17:05:00 5.5 C 91 % 4.15 C
2223 13-12-2019 17:10:00 5.4 C 91 % 4.05 C
2224 13-12-2019 17:15:00 5.4 C 91 % 4.05 C
2225 13-12-2019 17:20:00 5.4 C 91 % 4.05 C
Sensor: Nr:Datum:Temp:Feuchte:Taupunkt:
Aussen-T/F 2226 13-12-2019 17:25:00 5.3 C 92 % 4.11 C
2227 13-12-2019 17:30:00 5.2 C 92 % 4.01 C
2228 13-12-2019 17:35:00 5.1 C 92 % 3.91 C
2229 13-12-2019 17:40:00 5.1 C 92 % 3.91 C
2230 13-12-2019 17:45:00 5 C 92 % 3.81 C
2231 13-12-2019 17:50:00 4.9 C 93 % 3.87 C
2232 13-12-2019 17:55:00 4.9 C 92 % 3.71 C
2233 13-12-2019 18:00:00 4.8 C 93 % 3.77 C
2234 13-12-2019 18:05:00 4.8 C 93 % 3.77 C
2235 13-12-2019 18:10:00 4.8 C 93 % 3.77 C
2236 13-12-2019 18:15:00 4.8 C 93 % 3.77 C
2237 13-12-2019 18:20:00 4.7 C 94 % 3.82 C
2238 13-12-2019 18:25:00 4.7 C 94 % 3.82 C
2239 13-12-2019 18:30:00 4.7 C 94 % 3.82 C
2240 13-12-2019 18:35:00 4.7 C 94 % 3.82 C
2241 13-12-2019 18:40:00 4.7 C 94 % 3.82 C
2242 13-12-2019 18:45:00 4.7 C 94 % 3.82 C
2243 13-12-2019 18:50:00 4.7 C 94 % 3.82 C
2244 13-12-2019 18:55:00 4.7 C 94 % 3.82 C
2245 13-12-2019 19:00:00 4.7 C 94 % 3.82 C
2246 13-12-2019 19:05:00 4.7 C 94 % 3.82 C
2247 13-12-2019 19:10:00 4.7 C 94 % 3.82 C
2248 13-12-2019 19:15:00 4.7 C 94 % 3.82 C
2249 13-12-2019 19:20:00 4.7 C 94 % 3.82 C
2250 13-12-2019 19:25:00 4.7 C 94 % 3.82 C
Sensor: Nr:Datum:Temp:Feuchte:Taupunkt:
Aussen-T/F 2251 13-12-2019 19:30:00 4.7 C 94 % 3.82 C
2252 13-12-2019 19:35:00 4.8 C 94 % 3.92 C
2253 13-12-2019 19:40:00 4.8 C 94 % 3.92 C
2254 13-12-2019 19:45:00 4.8 C 94 % 3.92 C
2255 13-12-2019 19:50:00 4.9 C 95 % 4.17 C
2256 13-12-2019 19:55:00 5 C 94 % 4.12 C
2257 13-12-2019 20:00:00 5.1 C 94 % 4.22 C
2258 13-12-2019 20:05:00 5.2 C 93 % 4.16 C
2259 13-12-2019 20:10:00 5.2 C 93 % 4.16 C
2260 13-12-2019 20:15:00 5.3 C 93 % 4.26 C
2261 13-12-2019 20:20:00 5.3 C 93 % 4.26 C
2262 13-12-2019 20:25:00 5.3 C 93 % 4.26 C
2263 13-12-2019 20:30:00 5.3 C 93 % 4.26 C
2264 13-12-2019 20:35:00 5.3 C 93 % 4.26 C
2265 13-12-2019 20:40:00 5.3 C 93 % 4.26 C
2266 13-12-2019 20:45:00 5.3 C 93 % 4.26 C
2267 13-12-2019 20:50:00 5.3 C 93 % 4.26 C
2268 13-12-2019 20:55:00 5.3 C 93 % 4.26 C
2269 13-12-2019 21:00:00 5.3 C 93 % 4.26 C
2270 13-12-2019 21:05:00 5.2 C 93 % 4.16 C
2271 13-12-2019 21:10:00 5.1 C 93 % 4.06 C
2272 13-12-2019 21:15:00 5.1 C 93 % 4.06 C
2273 13-12-2019 21:20:00 5.1 C 93 % 4.06 C
2274 13-12-2019 21:25:00 5.1 C 94 % 4.22 C
2275 13-12-2019 21:30:00 5.1 C 94 % 4.22 C
Sensor: Nr:Datum:Temp:Feuchte:Taupunkt:
Aussen-T/F 2276 13-12-2019 21:35:00 5.2 C 93 % 4.16 C
2277 13-12-2019 21:40:00 5.1 C 93 % 4.06 C
2278 13-12-2019 21:45:00 5.1 C 93 % 4.06 C
2279 13-12-2019 21:50:00 5.1 C 93 % 4.06 C
2280 13-12-2019 21:55:00 5.1 C 93 % 4.06 C
2281 13-12-2019 22:00:00 5.1 C 93 % 4.06 C
2282 13-12-2019 22:05:00 5.1 C 93 % 4.06 C
2283 13-12-2019 22:10:00 5.1 C 92 % 3.91 C
2284 13-12-2019 22:15:00 5.1 C 92 % 3.91 C
2285 13-12-2019 22:20:00 5.1 C 92 % 3.91 C
2286 13-12-2019 22:25:00 5.1 C 92 % 3.91 C
2287 13-12-2019 22:30:00 5.1 C 92 % 3.91 C
2288 13-12-2019 22:35:00 5.2 C 92 % 4.01 C
2289 13-12-2019 22:40:00 5.1 C 92 % 3.91 C
2290 13-12-2019 22:45:00 5 C 92 % 3.81 C
2291 13-12-2019 22:50:00 4.9 C 92 % 3.71 C
2292 13-12-2019 22:55:00 4.8 C 92 % 3.61 C
2293 13-12-2019 23:00:00 4.9 C 93 % 3.87 C
2294 13-12-2019 23:05:00 5.2 C 93 % 4.16 C
2295 13-12-2019 23:10:00 5.4 C 92 % 4.21 C
2296 13-12-2019 23:15:00 5.6 C 92 % 4.41 C
2297 13-12-2019 23:20:00 5.7 C 91 % 4.35 C
2298 13-12-2019 23:25:00 5.7 C 90 % 4.19 C
2299 13-12-2019 23:30:00 5.8 C 90 % 4.29 C
2300 13-12-2019 23:35:00 5.8 C 90 % 4.29 C
Sensor: Nr:Datum:Temp:Feuchte:Taupunkt:
Aussen-T/F 2301 13-12-2019 23:40:00 5.8 C 91 % 4.45 C
2302 13-12-2019 23:45:00 5.8 C 91 % 4.45 C
2303 13-12-2019 23:50:00 5.8 C 90 % 4.29 C
2304 13-12-2019 23:55:00 5.8 C 90 % 4.29 C
2305 14-12-2019 00:00:00 5.7 C 90 % 4.19 C
2306 14-12-2019 00:05:00 5.6 C 91 % 4.25 C
2307 14-12-2019 00:10:00 5.6 C 91 % 4.25 C
2308 14-12-2019 00:15:00 5.5 C 90 % 3.99 C
2309 14-12-2019 00:20:00 5.4 C 90 % 3.89 C
2310 14-12-2019 00:25:00 5.4 C 91 % 4.05 C
2311 14-12-2019 00:30:00 5.4 C 91 % 4.05 C
2312 14-12-2019 00:35:00 5.3 C 91 % 3.95 C
2313 14-12-2019 00:40:00 5.3 C 92 % 4.11 C
2314 14-12-2019 00:45:00 5.4 C 92 % 4.21 C
2315 14-12-2019 00:50:00 5.4 C 91 % 4.05 C
2316 14-12-2019 00:55:00 5.6 C 91 % 4.25 C
2317 14-12-2019 01:00:00 5.8 C 90 % 4.29 C
2318 14-12-2019 01:05:00 5.9 C 89 % 4.23 C
2319 14-12-2019 01:10:00 5.9 C 89 % 4.23 C
2320 14-12-2019 01:15:00 5.9 C 88 % 4.07 C
2321 14-12-2019 01:20:00 5.9 C 88 % 4.07 C
2322 14-12-2019 01:25:00 5.9 C 88 % 4.07 C
2323 14-12-2019 01:30:00 5.9 C 87 % 3.91 C
2324 14-12-2019 01:35:00 5.9 C 87 % 3.91 C
2325 14-12-2019 01:40:00 5.9 C 87 % 3.91 C
Sensor: Nr:Datum:Temp:Feuchte:Taupunkt:
Aussen-T/F 2326 14-12-2019 01:45:00 5.9 C 87 % 3.91 C
2327 14-12-2019 01:50:00 5.9 C 87 % 3.91 C
2328 14-12-2019 01:55:00 5.9 C 87 % 3.91 C
2329 14-12-2019 02:00:00 5.9 C 87 % 3.91 C
2330 14-12-2019 02:05:00 5.9 C 87 % 3.91 C
2331 14-12-2019 02:10:00 5.8 C 88 % 3.97 C
2332 14-12-2019 02:15:00 5.7 C 88 % 3.87 C
2333 14-12-2019 02:20:00 5.7 C 88 % 3.87 C
2334 14-12-2019 02:25:00 5.6 C 89 % 3.93 C
2335 14-12-2019 02:30:00 5.6 C 89 % 3.93 C
2336 14-12-2019 02:35:00 5.6 C 88 % 3.77 C
2337 14-12-2019 02:40:00 5.7 C 89 % 4.03 C
2338 14-12-2019 02:45:00 5.7 C 89 % 4.03 C
2339 14-12-2019 02:50:00 5.7 C 89 % 4.03 C
2340 14-12-2019 02:55:00 5.7 C 90 % 4.19 C
2341 14-12-2019 03:00:00 5.6 C 90 % 4.09 C
2342 14-12-2019 03:05:00 5.6 C 91 % 4.25 C
2343 14-12-2019 03:10:00 5.5 C 91 % 4.15 C
2344 14-12-2019 03:15:00 5.4 C 92 % 4.21 C
2345 14-12-2019 03:20:00 5.4 C 92 % 4.21 C
2346 14-12-2019 03:25:00 5.3 C 92 % 4.11 C
2347 14-12-2019 03:30:00 5.2 C 92 % 4.01 C
2348 14-12-2019 03:35:00 5.2 C 92 % 4.01 C
2349 14-12-2019 03:40:00 5.2 C 92 % 4.01 C
2350 14-12-2019 03:45:00 5.2 C 92 % 4.01 C
Sensor: Nr:Datum:Temp:Feuchte:Taupunkt:
Aussen-T/F 2351 14-12-2019 03:50:00 5.2 C 92 % 4.01 C
2352 14-12-2019 03:55:00 5.2 C 92 % 4.01 C
2353 14-12-2019 04:00:00 5.2 C 92 % 4.01 C
2354 14-12-2019 04:05:00 5.2 C 93 % 4.16 C
2355 14-12-2019 04:10:00 5.1 C 93 % 4.06 C
2356 14-12-2019 04:15:00 5 C 93 % 3.96 C
2357 14-12-2019 04:20:00 4.9 C 94 % 4.02 C
2358 14-12-2019 04:25:00 4.9 C 94 % 4.02 C
2359 14-12-2019 04:30:00 4.8 C 94 % 3.92 C
2360 14-12-2019 04:35:00 4.8 C 94 % 3.92 C
2361 14-12-2019 04:40:00 4.8 C 94 % 3.92 C
2362 14-12-2019 04:45:00 4.7 C 94 % 3.82 C
2363 14-12-2019 04:50:00 4.7 C 94 % 3.82 C
2364 14-12-2019 04:55:00 4.6 C 94 % 3.72 C
2365 14-12-2019 05:00:00 4.6 C 94 % 3.72 C
2366 14-12-2019 05:05:00 4.6 C 94 % 3.72 C
2367 14-12-2019 05:10:00 4.6 C 94 % 3.72 C
2368 14-12-2019 05:15:00 4.6 C 94 % 3.72 C
2369 14-12-2019 05:20:00 4.5 C 94 % 3.62 C
2370 14-12-2019 05:25:00 4.5 C 95 % 3.77 C
2371 14-12-2019 05:30:00 4.5 C 95 % 3.77 C
2372 14-12-2019 05:35:00 4.4 C 95 % 3.67 C
2373 14-12-2019 05:40:00 4.4 C 95 % 3.67 C
2374 14-12-2019 05:45:00 4.4 C 95 % 3.67 C
2375 14-12-2019 05:50:00 4.4 C 95 % 3.67 C
Sensor: Nr:Datum:Temp:Feuchte:Taupunkt:
Aussen-T/F 2376 14-12-2019 05:55:00 4.5 C 95 % 3.77 C
2377 14-12-2019 06:00:00 4.4 C 95 % 3.67 C
2378 14-12-2019 06:05:00 4.4 C 95 % 3.67 C
2379 14-12-2019 06:10:00 4.4 C 95 % 3.67 C
2380 14-12-2019 06:15:00 4.6 C 96 % 4.02 C
2381 14-12-2019 06:20:00 4.7 C 96 % 4.12 C
2382 14-12-2019 06:25:00 4.9 C 96 % 4.32 C
2383 14-12-2019 06:30:00 5.2 C 96 % 4.62 C
2384 14-12-2019 06:35:00 5.4 C 97 % 4.96 C
2385 14-12-2019 06:40:00 5.7 C 97 % 5.26 C
2386 14-12-2019 06:45:00 6 C 96 % 5.41 C
2387 14-12-2019 06:50:00 6.2 C 96 % 5.61 C
2388 14-12-2019 06:55:00 6.3 C 96 % 5.71 C
2389 14-12-2019 07:00:00 6.4 C 96 % 5.81 C
2390 14-12-2019 07:05:00 6.4 C 95 % 5.66 C
2391 14-12-2019 07:10:00 6.5 C 95 % 5.76 C
2392 14-12-2019 07:15:00 6.6 C 95 % 5.86 C
2393 14-12-2019 07:20:00 6.6 C 95 % 5.86 C
2394 14-12-2019 07:25:00 6.6 C 95 % 5.86 C
2395 14-12-2019 07:30:00 6.7 C 95 % 5.96 C
2396 14-12-2019 07:35:00 6.8 C 95 % 6.06 C
2397 14-12-2019 07:40:00 6.9 C 95 % 6.16 C
2398 14-12-2019 07:45:00 7.1 C 95 % 6.35 C
2399 14-12-2019 07:50:00 7.2 C 96 % 6.61 C
2400 14-12-2019 07:55:00 7.2 C 95 % 6.45 C
Sensor: Nr:Datum:Temp:Feuchte:Taupunkt:
Aussen-T/F 2401 14-12-2019 08:00:00 7.3 C 95 % 6.55 C
2402 14-12-2019 08:05:00 7.3 C 95 % 6.55 C
2403 14-12-2019 08:10:00 7.3 C 93 % 6.25 C
2404 14-12-2019 08:15:00 7.3 C 90 % 5.77 C
2405 14-12-2019 08:20:00 7.4 C 89 % 5.71 C
2406 14-12-2019 08:25:00 7.4 C 87 % 5.38 C
2407 14-12-2019 08:30:00 7.5 C 85 % 5.15 C
2408 14-12-2019 08:35:00 7.6 C 85 % 5.24 C
2409 14-12-2019 08:40:00 7.5 C 84 % 4.98 C
2410 14-12-2019 08:45:00 7.5 C 83 % 4.81 C
2411 14-12-2019 08:50:00 7.4 C 83 % 4.71 C
2412 14-12-2019 08:55:00 7.3 C 83 % 4.61 C
2413 14-12-2019 09:00:00 7.4 C 82 % 4.53 C
2414 14-12-2019 09:05:00 7.4 C 83 % 4.71 C
2415 14-12-2019 09:10:00 7.3 C 81 % 4.26 C
2416 14-12-2019 09:15:00 7.3 C 81 % 4.26 C
2417 14-12-2019 09:20:00 7.2 C 81 % 4.16 C
2418 14-12-2019 09:25:00 7.2 C 81 % 4.16 C
2419 14-12-2019 09:30:00 7.1 C 81 % 4.07 C
2420 14-12-2019 09:35:00 7.1 C 82 % 4.24 C
2421 14-12-2019 09:40:00 7.1 C 82 % 4.24 C
2422 14-12-2019 09:45:00 7.1 C 81 % 4.07 C
2423 14-12-2019 09:50:00 7.1 C 82 % 4.24 C
2424 14-12-2019 09:55:00 7.1 C 82 % 4.24 C
2425 14-12-2019 10:00:00 7.1 C 81 % 4.07 C
Sensor: Nr:Datum:Temp:Feuchte:Taupunkt:
Aussen-T/F 2426 14-12-2019 10:05:00 7.1 C 82 % 4.24 C
2427 14-12-2019 10:10:00 7.1 C 83 % 4.41 C
2428 14-12-2019 10:15:00 7.1 C 82 % 4.24 C
2429 14-12-2019 10:20:00 7.1 C 83 % 4.41 C
2430 14-12-2019 10:25:00 7.1 C 84 % 4.58 C
2431 14-12-2019 10:30:00 7.1 C 83 % 4.41 C
2432 14-12-2019 10:35:00 7.1 C 84 % 4.58 C
2433 14-12-2019 10:40:00 7.1 C 84 % 4.58 C
2434 14-12-2019 10:45:00 7.1 C 85 % 4.75 C
2435 14-12-2019 10:50:00 7.1 C 86 % 4.92 C
2436 14-12-2019 10:55:00 7 C 87 % 4.99 C
2437 14-12-2019 11:00:00 6.9 C 88 % 5.05 C
2438 14-12-2019 11:05:00 6.9 C 87 % 4.89 C
2439 14-12-2019 11:10:00 6.9 C 87 % 4.89 C
2440 14-12-2019 11:15:00 6.9 C 87 % 4.89 C
2441 14-12-2019 11:20:00 7 C 86 % 4.82 C
2442 14-12-2019 11:25:00 7.1 C 86 % 4.92 C
2443 14-12-2019 11:30:00 7.1 C 86 % 4.92 C
2444 14-12-2019 11:35:00 7.1 C 82 % 4.24 C
2445 14-12-2019 11:40:00 7.1 C 82 % 4.24 C
2446 14-12-2019 11:45:00 7.1 C 81 % 4.07 C
2447 14-12-2019 11:50:00 7.1 C 80 % 3.89 C
2448 14-12-2019 11:55:00 7.2 C 80 % 3.99 C
2449 14-12-2019 12:00:00 7.3 C 79 % 3.91 C
2450 14-12-2019 12:05:00 7.3 C 77 % 3.54 C
Sensor: Nr:Datum:Temp:Feuchte:Taupunkt:
Aussen-T/F 2451 14-12-2019 12:10:00 7.4 C 76 % 3.45 C
2452 14-12-2019 12:15:00 7.5 C 75 % 3.36 C
2453 14-12-2019 12:20:00 7.5 C 76 % 3.55 C
2454 14-12-2019 12:25:00 7.5 C 75 % 3.36 C
2455 14-12-2019 12:30:00 7.5 C 74 % 3.17 C
2456 14-12-2019 12:35:00 7.6 C 74 % 3.27 C
2457 14-12-2019 12:40:00 7.7 C 74 % 3.37 C
2458 14-12-2019 12:45:00 7.8 C 73 % 3.27 C
2459 14-12-2019 12:50:00 7.9 C 70 % 2.78 C
2460 14-12-2019 12:55:00 8 C 71 % 3.07 C
2461 14-12-2019 13:00:00 8.1 C 71 % 3.17 C
2462 14-12-2019 13:05:00 8.1 C 72 % 3.37 C
2463 14-12-2019 13:10:00 8.2 C 74 % 3.85 C
2464 14-12-2019 13:15:00 8.3 C 73 % 3.75 C
2465 14-12-2019 13:20:00 8.4 C 73 % 3.85 C
2466 14-12-2019 13:25:00 8.6 C 71 % 3.65 C
2467 14-12-2019 13:30:00 8.6 C 72 % 3.85 C
2468 14-12-2019 13:35:00 8.6 C 72 % 3.85 C
2469 14-12-2019 13:40:00 8.6 C 72 % 3.85 C
2470 14-12-2019 13:45:00 8.6 C 72 % 3.85 C
2471 14-12-2019 13:50:00 8.6 C 73 % 4.04 C
2472 14-12-2019 13:55:00 8.7 C 74 % 4.33 C
2473 14-12-2019 14:00:00 8.7 C 74 % 4.33 C
2474 14-12-2019 14:05:00 8.7 C 74 % 4.33 C
2475 14-12-2019 14:10:00 8.7 C 74 % 4.33 C
Sensor: Nr:Datum:Temp:Feuchte:Taupunkt:
Aussen-T/F 2476 14-12-2019 14:15:00 8.6 C 75 % 4.43 C
2477 14-12-2019 14:20:00 8.6 C 75 % 4.43 C
2478 14-12-2019 14:25:00 8.7 C 75 % 4.52 C
2479 14-12-2019 14:30:00 8.7 C 75 % 4.52 C
2480 14-12-2019 14:35:00 8.8 C 75 % 4.62 C
2481 14-12-2019 14:40:00 8.9 C 75 % 4.72 C
2482 14-12-2019 14:45:00 8.9 C 75 % 4.72 C
2483 14-12-2019 14:50:00 9 C 75 % 4.81 C
2484 14-12-2019 14:55:00 8.9 C 77 % 5.09 C
2485 14-12-2019 15:00:00 8.8 C 79 % 5.36 C
2486 14-12-2019 15:05:00 8.4 C 82 % 5.51 C
2487 14-12-2019 15:10:00 8.1 C 84 % 5.56 C
2488 14-12-2019 15:15:00 7.9 C 86 % 5.71 C
2489 14-12-2019 15:20:00 7.7 C 86 % 5.51 C
2490 14-12-2019 15:25:00 7.6 C 87 % 5.58 C
2491 14-12-2019 15:30:00 7.5 C 87 % 5.48 C
2492 14-12-2019 15:35:00 7.5 C 87 % 5.48 C
2493 14-12-2019 15:40:00 7.5 C 86 % 5.31 C
2494 14-12-2019 15:45:00 7.6 C 86 % 5.41 C
2495 14-12-2019 15:50:00 7.6 C 85 % 5.24 C
2496 14-12-2019 15:55:00 7.7 C 85 % 5.34 C
2497 14-12-2019 16:00:00 7.7 C 84 % 5.17 C
2498 14-12-2019 16:05:00 7.7 C 84 % 5.17 C
2499 14-12-2019 16:10:00 7.8 C 84 % 5.27 C
2500 14-12-2019 16:15:00 7.8 C 83 % 5.1 C
Sensor: Nr:Datum:Temp:Feuchte:Taupunkt:
Aussen-T/F 2501 14-12-2019 16:20:00 7.8 C 83 % 5.1 C
2502 14-12-2019 16:25:00 7.8 C 83 % 5.1 C
2503 14-12-2019 16:30:00 7.8 C 83 % 5.1 C
2504 14-12-2019 16:35:00 7.9 C 83 % 5.2 C
2505 14-12-2019 16:40:00 7.9 C 83 % 5.2 C
2506 14-12-2019 16:45:00 8.1 C 82 % 5.22 C
2507 14-12-2019 16:50:00 8.1 C 83 % 5.39 C
2508 14-12-2019 16:55:00 8.1 C 83 % 5.39 C
2509 14-12-2019 17:00:00 8.1 C 83 % 5.39 C
2510 14-12-2019 17:05:00 8.1 C 83 % 5.39 C
2511 14-12-2019 17:10:00 8.1 C 83 % 5.39 C
2512 14-12-2019 17:15:00 8.1 C 83 % 5.39 C
2513 14-12-2019 17:20:00 8.1 C 83 % 5.39 C
2514 14-12-2019 17:25:00 8.1 C 83 % 5.39 C
2515 14-12-2019 17:30:00 8.1 C 83 % 5.39 C
2516 14-12-2019 17:35:00 8.1 C 84 % 5.56 C
2517 14-12-2019 17:40:00 8 C 85 % 5.64 C
2518 14-12-2019 17:45:00 7.9 C 85 % 5.54 C
2519 14-12-2019 17:50:00 7.9 C 85 % 5.54 C
2520 14-12-2019 17:55:00 7.8 C 85 % 5.44 C
2521 14-12-2019 18:00:00 7.8 C 85 % 5.44 C
2522 14-12-2019 18:05:00 7.7 C 85 % 5.34 C
2523 14-12-2019 18:10:00 7.7 C 85 % 5.34 C
2524 14-12-2019 18:15:00 7.8 C 84 % 5.27 C
2525 14-12-2019 18:20:00 7.9 C 84 % 5.37 C
Sensor: Nr:Datum:Temp:Feuchte:Taupunkt:
Aussen-T/F 2526 14-12-2019 18:25:00 8 C 83 % 5.29 C
2527 14-12-2019 18:30:00 8.1 C 83 % 5.39 C
2528 14-12-2019 18:35:00 8.2 C 83 % 5.49 C
2529 14-12-2019 18:40:00 8.3 C 83 % 5.59 C
2530 14-12-2019 18:45:00 8.2 C 84 % 5.66 C
2531 14-12-2019 18:50:00 8 C 84 % 5.47 C
2532 14-12-2019 18:55:00 7.8 C 84 % 5.27 C
2533 14-12-2019 19:00:00 7.7 C 84 % 5.17 C
2534 14-12-2019 19:05:00 7.5 C 85 % 5.15 C
2535 14-12-2019 19:10:00 7.3 C 85 % 4.95 C
2536 14-12-2019 19:15:00 7.2 C 85 % 4.85 C
2537 14-12-2019 19:20:00 7 C 85 % 4.66 C
2538 14-12-2019 19:25:00 6.9 C 84 % 4.39 C
2539 14-12-2019 19:30:00 6.9 C 84 % 4.39 C
2540 14-12-2019 19:35:00 6.9 C 84 % 4.39 C
2541 14-12-2019 19:40:00 6.8 C 84 % 4.29 C
2542 14-12-2019 19:45:00 6.8 C 83 % 4.12 C
2543 14-12-2019 19:50:00 6.7 C 83 % 4.02 C
2544 14-12-2019 19:55:00 6.8 C 83 % 4.12 C
2545 14-12-2019 20:00:00 6.8 C 83 % 4.12 C
2546 14-12-2019 20:05:00 6.8 C 83 % 4.12 C
2547 14-12-2019 20:10:00 6.9 C 83 % 4.22 C
2548 14-12-2019 20:15:00 6.9 C 83 % 4.22 C
2549 14-12-2019 20:20:00 6.9 C 83 % 4.22 C
2550 14-12-2019 20:25:00 7 C 83 % 4.32 C
Sensor: Nr:Datum:Temp:Feuchte:Taupunkt:
Aussen-T/F 2551 14-12-2019 20:30:00 6.9 C 83 % 4.22 C
2552 14-12-2019 20:35:00 6.8 C 84 % 4.29 C
2553 14-12-2019 20:40:00 6.8 C 85 % 4.46 C
2554 14-12-2019 20:45:00 6.8 C 85 % 4.46 C
2555 14-12-2019 20:50:00 6.9 C 86 % 4.72 C
2556 14-12-2019 20:55:00 7.1 C 85 % 4.75 C
2557 14-12-2019 21:00:00 7.3 C 85 % 4.95 C
2558 14-12-2019 21:05:00 7.4 C 85 % 5.05 C
2559 14-12-2019 21:10:00 7.4 C 84 % 4.88 C
2560 14-12-2019 21:15:00 7.5 C 84 % 4.98 C
2561 14-12-2019 21:20:00 7.4 C 84 % 4.88 C
2562 14-12-2019 21:25:00 7.5 C 84 % 4.98 C
2563 14-12-2019 21:30:00 7.4 C 84 % 4.88 C
2564 14-12-2019 21:35:00 7.4 C 84 % 4.88 C
2565 14-12-2019 21:40:00 7.4 C 85 % 5.05 C
2566 14-12-2019 21:45:00 7.3 C 84 % 4.78 C
2567 14-12-2019 21:50:00 7.3 C 84 % 4.78 C
2568 14-12-2019 21:55:00 7.2 C 85 % 4.85 C
2569 14-12-2019 22:00:00 7.2 C 85 % 4.85 C
2570 14-12-2019 22:05:00 7.2 C 85 % 4.85 C
2571 14-12-2019 22:10:00 7.2 C 85 % 4.85 C
2572 14-12-2019 22:15:00 7.3 C 85 % 4.95 C
2573 14-12-2019 22:20:00 7.4 C 85 % 5.05 C
2574 14-12-2019 22:25:00 7.5 C 85 % 5.15 C
2575 14-12-2019 22:30:00 7.6 C 84 % 5.07 C
Sensor: Nr:Datum:Temp:Feuchte:Taupunkt:
Aussen-T/F 2576 14-12-2019 22:35:00 7.6 C 84 % 5.07 C
2577 14-12-2019 22:40:00 7.6 C 85 % 5.24 C
2578 14-12-2019 22:45:00 7.6 C 85 % 5.24 C
2579 14-12-2019 22:50:00 7.6 C 85 % 5.24 C
2580 14-12-2019 22:55:00 7.7 C 84 % 5.17 C
2581 14-12-2019 23:00:00 7.7 C 84 % 5.17 C
2582 14-12-2019 23:05:00 7.8 C 84 % 5.27 C
2583 14-12-2019 23:10:00 7.8 C 84 % 5.27 C
2584 14-12-2019 23:15:00 7.8 C 84 % 5.27 C
2585 14-12-2019 23:20:00 7.8 C 84 % 5.27 C
2586 14-12-2019 23:25:00 7.7 C 84 % 5.17 C
2587 14-12-2019 23:30:00 7.7 C 84 % 5.17 C
2588 14-12-2019 23:35:00 7.7 C 84 % 5.17 C
2589 14-12-2019 23:40:00 7.7 C 84 % 5.17 C
2590 14-12-2019 23:45:00 7.7 C 84 % 5.17 C
2591 14-12-2019 23:50:00 7.7 C 84 % 5.17 C
2592 14-12-2019 23:55:00 7.7 C 84 % 5.17 C
2593 15-12-2019 00:00:00 7.5 C 84 % 4.98 C
2594 15-12-2019 00:05:00 7.4 C 85 % 5.05 C
2595 15-12-2019 00:10:00 7.3 C 85 % 4.95 C
2596 15-12-2019 00:15:00 7.2 C 85 % 4.85 C
2597 15-12-2019 00:20:00 7.1 C 86 % 4.92 C
2598 15-12-2019 00:25:00 6.9 C 86 % 4.72 C
2599 15-12-2019 00:30:00 6.8 C 87 % 4.79 C
2600 15-12-2019 00:35:00 6.6 C 87 % 4.6 C
Sensor: Nr:Datum:Temp:Feuchte:Taupunkt:
Aussen-T/F 2601 15-12-2019 00:40:00 6.4 C 88 % 4.56 C
2602 15-12-2019 00:45:00 6.3 C 88 % 4.46 C
2603 15-12-2019 00:50:00 6.3 C 89 % 4.62 C
2604 15-12-2019 00:55:00 6.3 C 89 % 4.62 C
2605 15-12-2019 01:00:00 6.2 C 89 % 4.53 C
2606 15-12-2019 01:05:00 6.2 C 89 % 4.53 C
2607 15-12-2019 01:10:00 6.2 C 90 % 4.69 C
2608 15-12-2019 01:15:00 6.2 C 90 % 4.69 C
2609 15-12-2019 01:20:00 6.2 C 90 % 4.69 C
2610 15-12-2019 01:25:00 6.3 C 90 % 4.78 C
2611 15-12-2019 01:30:00 6.3 C 90 % 4.78 C
2612 15-12-2019 01:35:00 6.4 C 90 % 4.88 C
2613 15-12-2019 01:40:00 6.4 C 89 % 4.72 C
2614 15-12-2019 01:45:00 6.4 C 89 % 4.72 C
2615 15-12-2019 01:50:00 6.5 C 90 % 4.98 C
2616 15-12-2019 01:55:00 6.6 C 89 % 4.92 C
2617 15-12-2019 02:00:00 6.7 C 90 % 5.18 C
2618 15-12-2019 02:05:00 6.7 C 90 % 5.18 C
2619 15-12-2019 02:10:00 6.7 C 90 % 5.18 C
2620 15-12-2019 02:15:00 6.7 C 90 % 5.18 C
2621 15-12-2019 02:20:00 6.7 C 91 % 5.34 C
2622 15-12-2019 02:25:00 6.7 C 91 % 5.34 C
2623 15-12-2019 02:30:00 6.7 C 91 % 5.34 C
2624 15-12-2019 02:35:00 6.8 C 92 % 5.59 C
2625 15-12-2019 02:40:00 6.8 C 92 % 5.59 C
Sensor: Nr:Datum:Temp:Feuchte:Taupunkt:
Aussen-T/F 2626 15-12-2019 02:45:00 6.8 C 93 % 5.75 C
2627 15-12-2019 02:50:00 6.9 C 93 % 5.85 C
2628 15-12-2019 02:55:00 7 C 93 % 5.95 C
2629 15-12-2019 03:00:00 7 C 93 % 5.95 C
2630 15-12-2019 03:05:00 7 C 93 % 5.95 C
2631 15-12-2019 03:10:00 6.9 C 94 % 6 C
2632 15-12-2019 03:15:00 6.9 C 94 % 6 C
2633 15-12-2019 03:20:00 6.9 C 94 % 6 C
2634 15-12-2019 03:25:00 6.9 C 94 % 6 C
2635 15-12-2019 03:30:00 6.9 C 94 % 6 C
2636 15-12-2019 03:35:00 6.9 C 95 % 6.16 C
2637 15-12-2019 03:40:00 7 C 95 % 6.26 C
2638 15-12-2019 03:45:00 7.1 C 95 % 6.35 C
2639 15-12-2019 03:50:00 7.2 C 95 % 6.45 C
2640 15-12-2019 03:55:00 7.2 C 95 % 6.45 C
2641 15-12-2019 04:00:00 7.3 C 95 % 6.55 C
2642 15-12-2019 04:05:00 7.7 C 96 % 7.1 C
2643 15-12-2019 04:10:00 8 C 96 % 7.4 C
2644 15-12-2019 04:15:00 8.1 C 96 % 7.5 C
2645 15-12-2019 04:20:00 8.2 C 96 % 7.6 C
2646 15-12-2019 04:25:00 8.2 C 96 % 7.6 C
2647 15-12-2019 04:30:00 8.3 C 96 % 7.7 C
2648 15-12-2019 04:35:00 8.4 C 96 % 7.8 C
2649 15-12-2019 04:40:00 8.5 C 96 % 7.9 C
2650 15-12-2019 04:45:00 8.6 C 96 % 8 C
Sensor: Nr:Datum:Temp:Feuchte:Taupunkt:
Aussen-T/F 2651 15-12-2019 04:50:00 8.7 C 96 % 8.1 C
2652 15-12-2019 04:55:00 8.8 C 96 % 8.2 C
2653 15-12-2019 05:00:00 8.9 C 96 % 8.3 C
2654 15-12-2019 05:05:00 8.9 C 96 % 8.3 C
2655 15-12-2019 05:10:00 8.9 C 95 % 8.14 C
2656 15-12-2019 05:15:00 9 C 95 % 8.24 C
2657 15-12-2019 05:20:00 9.1 C 95 % 8.34 C
2658 15-12-2019 05:25:00 9.1 C 95 % 8.34 C
2659 15-12-2019 05:30:00 9.3 C 95 % 8.54 C
2660 15-12-2019 05:35:00 9.4 C 95 % 8.64 C
2661 15-12-2019 05:40:00 9.7 C 94 % 8.78 C
2662 15-12-2019 05:45:00 10 C 93 % 8.92 C
2663 15-12-2019 05:50:00 10.2 C 91 % 8.8 C
2664 15-12-2019 05:55:00 10.4 C 91 % 9 C
2665 15-12-2019 06:00:00 10.5 C 90 % 8.93 C
2666 15-12-2019 06:05:00 10.7 C 90 % 9.13 C
2667 15-12-2019 06:10:00 10.7 C 89 % 8.96 C
2668 15-12-2019 06:15:00 10.8 C 88 % 8.89 C
2669 15-12-2019 06:20:00 10.8 C 88 % 8.89 C
2670 15-12-2019 06:25:00 10.7 C 88 % 8.8 C
2671 15-12-2019 06:30:00 10.7 C 88 % 8.8 C
2672 15-12-2019 06:35:00 10.9 C 87 % 8.82 C
2673 15-12-2019 06:40:00 11 C 86 % 8.75 C
2674 15-12-2019 06:45:00 11.1 C 86 % 8.85 C
2675 15-12-2019 06:50:00 11.1 C 85 % 8.68 C
Sensor: Nr:Datum:Temp:Feuchte:Taupunkt:
Aussen-T/F 2676 15-12-2019 06:55:00 11.1 C 85 % 8.68 C
2677 15-12-2019 07:00:00 11 C 85 % 8.58 C
2678 15-12-2019 07:05:00 11 C 85 % 8.58 C
2679 15-12-2019 07:10:00 11 C 85 % 8.58 C
2680 15-12-2019 07:15:00 11.1 C 85 % 8.68 C
2681 15-12-2019 07:20:00 11 C 85 % 8.58 C
2682 15-12-2019 07:25:00 10.9 C 85 % 8.48 C
2683 15-12-2019 07:30:00 11 C 85 % 8.58 C
2684 15-12-2019 07:35:00 11 C 85 % 8.58 C
2685 15-12-2019 07:40:00 11 C 85 % 8.58 C
2686 15-12-2019 07:45:00 10.9 C 85 % 8.48 C
2687 15-12-2019 07:50:00 11 C 85 % 8.58 C
2688 15-12-2019 07:55:00 11.1 C 85 % 8.68 C
2689 15-12-2019 08:00:00 11.1 C 85 % 8.68 C
2690 15-12-2019 08:05:00 11.1 C 85 % 8.68 C
2691 15-12-2019 08:10:00 11.1 C 85 % 8.68 C
2692 15-12-2019 08:15:00 11.2 C 85 % 8.77 C
2693 15-12-2019 08:20:00 11.2 C 85 % 8.77 C
2694 15-12-2019 08:25:00 11.2 C 85 % 8.77 C
2695 15-12-2019 08:30:00 11.2 C 85 % 8.77 C
2696 15-12-2019 08:35:00 11.2 C 85 % 8.77 C
2697 15-12-2019 08:40:00 11.2 C 86 % 8.95 C
2698 15-12-2019 08:45:00 11.1 C 88 % 9.19 C
2699 15-12-2019 08:50:00 10.8 C 89 % 9.06 C
2700 15-12-2019 08:55:00 10.5 C 90 % 8.93 C
Sensor: Nr:Datum:Temp:Feuchte:Taupunkt:
Aussen-T/F 2701 15-12-2019 09:00:00 10.2 C 91 % 8.8 C
2702 15-12-2019 09:05:00 10.1 C 92 % 8.86 C
2703 15-12-2019 09:10:00 9.9 C 92 % 8.66 C
2704 15-12-2019 09:15:00 9.8 C 92 % 8.56 C
2705 15-12-2019 09:20:00 9.6 C 92 % 8.37 C
2706 15-12-2019 09:25:00 9.4 C 92 % 8.17 C
2707 15-12-2019 09:30:00 9.3 C 92 % 8.07 C
2708 15-12-2019 09:35:00 9.2 C 92 % 7.97 C
2709 15-12-2019 09:40:00 9.2 C 92 % 7.97 C
2710 15-12-2019 09:45:00 9.1 C 93 % 8.03 C
2711 15-12-2019 09:50:00 8.9 C 93 % 7.83 C
2712 15-12-2019 09:55:00 8.9 C 93 % 7.83 C
2713 15-12-2019 10:00:00 8.8 C 93 % 7.73 C
2714 15-12-2019 10:05:00 8.7 C 93 % 7.63 C
2715 15-12-2019 10:10:00 8.6 C 93 % 7.53 C
2716 15-12-2019 10:15:00 8.6 C 93 % 7.53 C
2717 15-12-2019 10:20:00 8.7 C 94 % 7.79 C
2718 15-12-2019 10:25:00 8.7 C 94 % 7.79 C
2719 15-12-2019 10:30:00 8.7 C 94 % 7.79 C
2720 15-12-2019 10:35:00 8.7 C 94 % 7.79 C
2721 15-12-2019 10:40:00 8.7 C 94 % 7.79 C
2722 15-12-2019 10:45:00 8.7 C 93 % 7.63 C
2723 15-12-2019 10:50:00 8.7 C 93 % 7.63 C
2724 15-12-2019 10:55:00 8.8 C 93 % 7.73 C
2725 15-12-2019 11:00:00 8.8 C 93 % 7.73 C
Sensor: Nr:Datum:Temp:Feuchte:Taupunkt:
Aussen-T/F 2726 15-12-2019 11:05:00 8.7 C 92 % 7.47 C
2727 15-12-2019 11:10:00 8.8 C 92 % 7.57 C
2728 15-12-2019 11:15:00 8.8 C 91 % 7.41 C
2729 15-12-2019 11:20:00 8.7 C 90 % 7.15 C
2730 15-12-2019 11:25:00 8.7 C 89 % 6.99 C
2731 15-12-2019 11:30:00 8.7 C 89 % 6.99 C
2732 15-12-2019 11:35:00 8.7 C 89 % 6.99 C
2733 15-12-2019 11:40:00 8.8 C 89 % 7.09 C
2734 15-12-2019 11:45:00 8.8 C 88 % 6.93 C
2735 15-12-2019 11:50:00 8.8 C 88 % 6.93 C
2736 15-12-2019 11:55:00 8.8 C 88 % 6.93 C
2737 15-12-2019 12:00:00 8.7 C 87 % 6.66 C
2738 15-12-2019 12:05:00 8.7 C 87 % 6.66 C
2739 15-12-2019 12:10:00 8.7 C 87 % 6.66 C
2740 15-12-2019 12:15:00 8.6 C 87 % 6.56 C
2741 15-12-2019 12:20:00 8.6 C 88 % 6.73 C
2742 15-12-2019 12:25:00 8.6 C 88 % 6.73 C
2743 15-12-2019 12:30:00 8.6 C 88 % 6.73 C
2744 15-12-2019 12:35:00 8.6 C 88 % 6.73 C
2745 15-12-2019 12:40:00 8.6 C 88 % 6.73 C
2746 15-12-2019 12:45:00 8.6 C 89 % 6.89 C
2747 15-12-2019 12:50:00 8.6 C 89 % 6.89 C
2748 15-12-2019 12:55:00 8.6 C 88 % 6.73 C
2749 15-12-2019 13:00:00 8.7 C 87 % 6.66 C
2750 15-12-2019 13:05:00 8.8 C 87 % 6.76 C
Sensor: Nr:Datum:Temp:Feuchte:Taupunkt:
Aussen-T/F 2751 15-12-2019 13:10:00 8.9 C 86 % 6.69 C
2752 15-12-2019 13:15:00 9.1 C 85 % 6.72 C
2753 15-12-2019 13:20:00 9.2 C 83 % 6.47 C
2754 15-12-2019 13:25:00 9.3 C 82 % 6.39 C
2755 15-12-2019 13:30:00 9.3 C 83 % 6.57 C
2756 15-12-2019 13:35:00 9.3 C 82 % 6.39 C
2757 15-12-2019 13:40:00 9.3 C 81 % 6.21 C
2758 15-12-2019 13:45:00 9.3 C 81 % 6.21 C
2759 15-12-2019 13:50:00 9.3 C 81 % 6.21 C
2760 15-12-2019 13:55:00 9.3 C 81 % 6.21 C
2761 15-12-2019 14:00:00 9.3 C 81 % 6.21 C
2762 15-12-2019 14:05:00 9.3 C 81 % 6.21 C
2763 15-12-2019 14:10:00 9.3 C 81 % 6.21 C
2764 15-12-2019 14:15:00 9.3 C 81 % 6.21 C
2765 15-12-2019 14:20:00 9.3 C 81 % 6.21 C
2766 15-12-2019 14:25:00 9.3 C 81 % 6.21 C
2767 15-12-2019 14:30:00 9.4 C 79 % 5.95 C
2768 15-12-2019 14:35:00 9.3 C 79 % 5.85 C
2769 15-12-2019 14:40:00 9.3 C 79 % 5.85 C
2770 15-12-2019 14:45:00 9.3 C 79 % 5.85 C
2771 15-12-2019 14:50:00 9.3 C 79 % 5.85 C
2772 15-12-2019 14:55:00 9.3 C 78 % 5.67 C
2773 15-12-2019 15:00:00 9.3 C 79 % 5.85 C
2774 15-12-2019 15:05:00 9.2 C 80 % 5.94 C
2775 15-12-2019 15:10:00 9.2 C 80 % 5.94 C
Sensor: Nr:Datum:Temp:Feuchte:Taupunkt:
Aussen-T/F 2776 15-12-2019 15:15:00 9.2 C 79 % 5.75 C
2777 15-12-2019 15:20:00 9.2 C 78 % 5.57 C
2778 15-12-2019 15:25:00 9.1 C 79 % 5.66 C
2779 15-12-2019 15:30:00 9.1 C 79 % 5.66 C
2780 15-12-2019 15:35:00 9.1 C 79 % 5.66 C
2781 15-12-2019 15:40:00 9.1 C 78 % 5.47 C
2782 15-12-2019 15:45:00 9 C 78 % 5.38 C
2783 15-12-2019 15:50:00 8.9 C 78 % 5.28 C
2784 15-12-2019 15:55:00 8.9 C 77 % 5.09 C
2785 15-12-2019 16:00:00 8.8 C 78 % 5.18 C
2786 15-12-2019 16:05:00 8.8 C 77 % 5 C
2787 15-12-2019 16:10:00 8.8 C 77 % 5 C
2788 15-12-2019 16:15:00 8.7 C 78 % 5.08 C
2789 15-12-2019 16:20:00 8.6 C 77 % 4.8 C
2790 15-12-2019 16:25:00 8.5 C 78 % 4.89 C
2791 15-12-2019 16:30:00 8.4 C 78 % 4.79 C
2792 15-12-2019 16:35:00 8.3 C 78 % 4.7 C
2793 15-12-2019 16:40:00 8.3 C 78 % 4.7 C
2794 15-12-2019 16:45:00 8.2 C 79 % 4.78 C
2795 15-12-2019 16:50:00 8.2 C 79 % 4.78 C
2796 15-12-2019 16:55:00 8.2 C 79 % 4.78 C
2797 15-12-2019 17:00:00 8.2 C 80 % 4.96 C
2798 15-12-2019 17:05:00 8.1 C 80 % 4.86 C
2799 15-12-2019 17:10:00 7.9 C 80 % 4.67 C
2800 15-12-2019 17:15:00 7.9 C 80 % 4.67 C
Sensor: Nr:Datum:Temp:Feuchte:Taupunkt:
Aussen-T/F 2801 15-12-2019 17:20:00 7.8 C 80 % 4.57 C
2802 15-12-2019 17:25:00 7.9 C 80 % 4.67 C
2803 15-12-2019 17:30:00 7.9 C 80 % 4.67 C
2804 15-12-2019 17:35:00 7.8 C 81 % 4.75 C
2805 15-12-2019 17:40:00 7.7 C 81 % 4.65 C
2806 15-12-2019 17:45:00 7.7 C 81 % 4.65 C
2807 15-12-2019 17:50:00 7.7 C 82 % 4.83 C
2808 15-12-2019 17:55:00 7.7 C 82 % 4.83 C
2809 15-12-2019 18:00:00 7.7 C 82 % 4.83 C
2810 15-12-2019 18:05:00 7.7 C 82 % 4.83 C
2811 15-12-2019 18:10:00 7.8 C 82 % 4.92 C
2812 15-12-2019 18:15:00 7.9 C 81 % 4.85 C
2813 15-12-2019 18:20:00 8.1 C 81 % 5.04 C
2814 15-12-2019 18:25:00 8 C 81 % 4.94 C
2815 15-12-2019 18:30:00 7.9 C 82 % 5.02 C
2816 15-12-2019 18:35:00 7.7 C 82 % 4.83 C
2817 15-12-2019 18:40:00 7.6 C 83 % 4.9 C
2818 15-12-2019 18:45:00 7.3 C 84 % 4.78 C
2819 15-12-2019 18:50:00 7.2 C 84 % 4.68 C
2820 15-12-2019 18:55:00 7 C 85 % 4.66 C
2821 15-12-2019 19:00:00 6.9 C 86 % 4.72 C
2822 15-12-2019 19:05:00 6.7 C 86 % 4.53 C
2823 15-12-2019 19:10:00 6.6 C 87 % 4.6 C
2824 15-12-2019 19:15:00 6.4 C 87 % 4.4 C
2825 15-12-2019 19:20:00 6.3 C 88 % 4.46 C
Sensor: Nr:Datum:Temp:Feuchte:Taupunkt:
Aussen-T/F 2826 15-12-2019 19:25:00 6.2 C 88 % 4.36 C
2827 15-12-2019 19:30:00 6.2 C 89 % 4.53 C
2828 15-12-2019 19:35:00 6.2 C 89 % 4.53 C
2829 15-12-2019 19:40:00 6.1 C 90 % 4.59 C
2830 15-12-2019 19:45:00 6.1 C 90 % 4.59 C
2831 15-12-2019 19:50:00 6.1 C 90 % 4.59 C
2832 15-12-2019 19:55:00 6.1 C 90 % 4.59 C
2833 15-12-2019 20:00:00 6.1 C 90 % 4.59 C
2834 15-12-2019 20:05:00 6.1 C 91 % 4.74 C
2835 15-12-2019 20:10:00 6 C 90 % 4.49 C
2836 15-12-2019 20:15:00 5.9 C 91 % 4.55 C
2837 15-12-2019 20:20:00 5.8 C 91 % 4.45 C
2838 15-12-2019 20:25:00 5.8 C 91 % 4.45 C
2839 15-12-2019 20:30:00 5.7 C 91 % 4.35 C
2840 15-12-2019 20:35:00 5.6 C 91 % 4.25 C
2841 15-12-2019 20:40:00 5.5 C 91 % 4.15 C
2842 15-12-2019 20:45:00 5.3 C 91 % 3.95 C
2843 15-12-2019 20:50:00 5.2 C 92 % 4.01 C
2844 15-12-2019 20:55:00 5.1 C 92 % 3.91 C
2845 15-12-2019 21:00:00 5 C 92 % 3.81 C
2846 15-12-2019 21:05:00 4.8 C 92 % 3.61 C
2847 15-12-2019 21:10:00 4.7 C 92 % 3.51 C
2848 15-12-2019 21:15:00 4.6 C 92 % 3.42 C
2849 15-12-2019 21:20:00 4.5 C 92 % 3.32 C
2850 15-12-2019 21:25:00 4.4 C 93 % 3.37 C
Sensor: Nr:Datum:Temp:Feuchte:Taupunkt:
Aussen-T/F 2851 15-12-2019 21:30:00 4.3 C 93 % 3.27 C
2852 15-12-2019 21:35:00 4.2 C 93 % 3.17 C
2853 15-12-2019 21:40:00 4.1 C 93 % 3.07 C
2854 15-12-2019 21:45:00 4 C 93 % 2.97 C
2855 15-12-2019 21:50:00 4 C 94 % 3.12 C
2856 15-12-2019 21:55:00 4.1 C 94 % 3.22 C
2857 15-12-2019 22:00:00 4.1 C 94 % 3.22 C
2858 15-12-2019 22:05:00 4.2 C 95 % 3.47 C
2859 15-12-2019 22:10:00 4.2 C 95 % 3.47 C
2860 15-12-2019 22:15:00 4.2 C 95 % 3.47 C
2861 15-12-2019 22:20:00 4.3 C 95 % 3.57 C
2862 15-12-2019 22:25:00 4.3 C 95 % 3.57 C
2863 15-12-2019 22:30:00 4.3 C 95 % 3.57 C
2864 15-12-2019 22:35:00 4.3 C 95 % 3.57 C
2865 15-12-2019 22:40:00 4.3 C 95 % 3.57 C
2866 15-12-2019 22:45:00 4.3 C 95 % 3.57 C
2867 15-12-2019 22:50:00 4.3 C 95 % 3.57 C
2868 15-12-2019 22:55:00 4.3 C 95 % 3.57 C
2869 15-12-2019 23:00:00 4.2 C 95 % 3.47 C
2870 15-12-2019 23:05:00 4.3 C 95 % 3.57 C
2871 15-12-2019 23:10:00 4.3 C 95 % 3.57 C
2872 15-12-2019 23:15:00 4.3 C 95 % 3.57 C
2873 15-12-2019 23:20:00 4.4 C 96 % 3.82 C
2874 15-12-2019 23:25:00 4.5 C 96 % 3.92 C
2875 15-12-2019 23:30:00 4.6 C 96 % 4.02 C
Sensor: Nr:Datum:Temp:Feuchte:Taupunkt:
Aussen-T/F 2876 15-12-2019 23:35:00 4.5 C 95 % 3.77 C
2877 15-12-2019 23:40:00 4.4 C 95 % 3.67 C
2878 15-12-2019 23:45:00 4.3 C 95 % 3.57 C
2879 15-12-2019 23:50:00 4.3 C 95 % 3.57 C
2880 15-12-2019 23:55:00 4.3 C 95 % 3.57 C
2881 16-12-2019 00:00:00 4.4 C 96 % 3.82 C
2882 16-12-2019 00:05:00 4.6 C 96 % 4.02 C
2883 16-12-2019 00:10:00 4.8 C 96 % 4.22 C
2884 16-12-2019 00:15:00 4.9 C 96 % 4.32 C
2885 16-12-2019 00:20:00 4.9 C 96 % 4.32 C
2886 16-12-2019 00:25:00 5 C 96 % 4.42 C
2887 16-12-2019 00:30:00 5.2 C 96 % 4.62 C
2888 16-12-2019 00:35:00 5.2 C 96 % 4.62 C
2889 16-12-2019 00:40:00 5.2 C 96 % 4.62 C
2890 16-12-2019 00:45:00 5.2 C 96 % 4.62 C
2891 16-12-2019 00:50:00 5.3 C 96 % 4.72 C
2892 16-12-2019 00:55:00 5.3 C 96 % 4.72 C
2893 16-12-2019 01:00:00 5.4 C 96 % 4.81 C
2894 16-12-2019 01:05:00 5.6 C 96 % 5.01 C
2895 16-12-2019 01:10:00 5.6 C 96 % 5.01 C
2896 16-12-2019 01:15:00 5.6 C 96 % 5.01 C
2897 16-12-2019 01:20:00 5.7 C 96 % 5.11 C
2898 16-12-2019 01:25:00 5.9 C 97 % 5.46 C
2899 16-12-2019 01:30:00 5.9 C 97 % 5.46 C
2900 16-12-2019 01:35:00 5.9 C 96 % 5.31 C
Sensor: Nr:Datum:Temp:Feuchte:Taupunkt:
Aussen-T/F 2901 16-12-2019 01:40:00 6 C 97 % 5.56 C
2902 16-12-2019 01:45:00 6.1 C 97 % 5.66 C
2903 16-12-2019 01:50:00 6.2 C 97 % 5.76 C
2904 16-12-2019 01:55:00 6.3 C 97 % 5.86 C
2905 16-12-2019 02:00:00 6.3 C 97 % 5.86 C
2906 16-12-2019 02:05:00 6.3 C 97 % 5.86 C
2907 16-12-2019 02:10:00 6.3 C 96 % 5.71 C
2908 16-12-2019 02:15:00 6.3 C 97 % 5.86 C
2909 16-12-2019 02:20:00 6.3 C 97 % 5.86 C
2910 16-12-2019 02:25:00 6.4 C 97 % 5.96 C
2911 16-12-2019 02:30:00 6.4 C 97 % 5.96 C
2912 16-12-2019 02:35:00 6.5 C 97 % 6.06 C
2913 16-12-2019 02:40:00 6.6 C 97 % 6.16 C
2914 16-12-2019 02:45:00 6.6 C 97 % 6.16 C
2915 16-12-2019 02:50:00 6.7 C 97 % 6.26 C
2916 16-12-2019 02:55:00 6.6 C 97 % 6.16 C
2917 16-12-2019 03:00:00 6.6 C 97 % 6.16 C
2918 16-12-2019 03:05:00 6.6 C 97 % 6.16 C
2919 16-12-2019 03:10:00 6.6 C 97 % 6.16 C
2920 16-12-2019 03:15:00 6.6 C 97 % 6.16 C
2921 16-12-2019 03:20:00 6.6 C 97 % 6.16 C
2922 16-12-2019 03:25:00 6.7 C 97 % 6.26 C
2923 16-12-2019 03:30:00 6.7 C 97 % 6.26 C
2924 16-12-2019 03:35:00 6.7 C 97 % 6.26 C
2925 16-12-2019 03:40:00 6.7 C 97 % 6.26 C
Sensor: Nr:Datum:Temp:Feuchte:Taupunkt:
Aussen-T/F 2926 16-12-2019 03:45:00 6.7 C 97 % 6.26 C
2927 16-12-2019 03:50:00 6.7 C 97 % 6.26 C
2928 16-12-2019 03:55:00 6.7 C 97 % 6.26 C
2929 16-12-2019 04:00:00 6.7 C 97 % 6.26 C
2930 16-12-2019 04:05:00 6.8 C 97 % 6.36 C
2931 16-12-2019 04:10:00 6.8 C 97 % 6.36 C
2932 16-12-2019 04:15:00 6.8 C 97 % 6.36 C
2933 16-12-2019 04:20:00 6.8 C 97 % 6.36 C
2934 16-12-2019 04:25:00 6.8 C 97 % 6.36 C
2935 16-12-2019 04:30:00 6.8 C 97 % 6.36 C
2936 16-12-2019 04:35:00 6.8 C 97 % 6.36 C
2937 16-12-2019 04:40:00 6.9 C 97 % 6.46 C
2938 16-12-2019 04:45:00 7.1 C 97 % 6.66 C
2939 16-12-2019 04:50:00 7.1 C 97 % 6.66 C
2940 16-12-2019 04:55:00 7.1 C 97 % 6.66 C
2941 16-12-2019 05:00:00 7.2 C 97 % 6.76 C
2942 16-12-2019 05:05:00 7.2 C 97 % 6.76 C
2943 16-12-2019 05:10:00 7.2 C 97 % 6.76 C
2944 16-12-2019 05:15:00 7.2 C 97 % 6.76 C
2945 16-12-2019 05:20:00 7.3 C 97 % 6.86 C
2946 16-12-2019 05:25:00 7.3 C 97 % 6.86 C
2947 16-12-2019 05:30:00 7.3 C 97 % 6.86 C
2948 16-12-2019 05:35:00 7.3 C 97 % 6.86 C
2949 16-12-2019 05:40:00 7.3 C 97 % 6.86 C
2950 16-12-2019 05:45:00 7.4 C 97 % 6.96 C
Sensor: Nr:Datum:Temp:Feuchte:Taupunkt:
Aussen-T/F 2951 16-12-2019 05:50:00 7.6 C 97 % 7.16 C
2952 16-12-2019 05:55:00 7.6 C 97 % 7.16 C
2953 16-12-2019 06:00:00 7.6 C 97 % 7.16 C
2954 16-12-2019 06:05:00 7.7 C 97 % 7.25 C
2955 16-12-2019 06:10:00 7.7 C 97 % 7.25 C
2956 16-12-2019 06:15:00 7.7 C 97 % 7.25 C
2957 16-12-2019 06:20:00 7.7 C 97 % 7.25 C
2958 16-12-2019 06:25:00 7.7 C 97 % 7.25 C
2959 16-12-2019 06:30:00 7.6 C 97 % 7.16 C
2960 16-12-2019 06:35:00 7.6 C 97 % 7.16 C
2961 16-12-2019 06:40:00 7.6 C 97 % 7.16 C
2962 16-12-2019 06:45:00 7.6 C 97 % 7.16 C
2963 16-12-2019 06:50:00 7.6 C 97 % 7.16 C
2964 16-12-2019 06:55:00 7.6 C 97 % 7.16 C
2965 16-12-2019 07:00:00 7.5 C 97 % 7.06 C
2966 16-12-2019 07:05:00 7.5 C 97 % 7.06 C
2967 16-12-2019 07:10:00 7.5 C 97 % 7.06 C
2968 16-12-2019 07:15:00 7.5 C 97 % 7.06 C
2969 16-12-2019 07:20:00 7.5 C 97 % 7.06 C
2970 16-12-2019 07:25:00 7.6 C 97 % 7.16 C
2971 16-12-2019 07:30:00 7.6 C 97 % 7.16 C
2972 16-12-2019 07:35:00 7.6 C 97 % 7.16 C
2973 16-12-2019 07:40:00 7.6 C 97 % 7.16 C
2974 16-12-2019 07:45:00 7.6 C 97 % 7.16 C
2975 16-12-2019 07:50:00 7.7 C 97 % 7.25 C
Sensor: Nr:Datum:Temp:Feuchte:Taupunkt:
Aussen-T/F 2976 16-12-2019 07:55:00 7.7 C 97 % 7.25 C
2977 16-12-2019 08:00:00 7.7 C 97 % 7.25 C
2978 16-12-2019 08:05:00 7.8 C 97 % 7.35 C
2979 16-12-2019 08:10:00 7.8 C 97 % 7.35 C
2980 16-12-2019 08:15:00 7.8 C 97 % 7.35 C
2981 16-12-2019 08:20:00 7.8 C 97 % 7.35 C
2982 16-12-2019 08:25:00 7.8 C 97 % 7.35 C
2983 16-12-2019 08:30:00 7.8 C 97 % 7.35 C
2984 16-12-2019 08:35:00 7.8 C 97 % 7.35 C
2985 16-12-2019 08:40:00 7.8 C 97 % 7.35 C
2986 16-12-2019 08:45:00 7.8 C 97 % 7.35 C
2987 16-12-2019 08:50:00 7.8 C 97 % 7.35 C
2988 16-12-2019 08:55:00 7.9 C 97 % 7.45 C
2989 16-12-2019 09:00:00 7.9 C 97 % 7.45 C
2990 16-12-2019 09:05:00 8 C 97 % 7.55 C
2991 16-12-2019 09:10:00 8.1 C 97 % 7.65 C
2992 16-12-2019 09:15:00 8.1 C 97 % 7.65 C
2993 16-12-2019 09:20:00 8.2 C 98 % 7.9 C
2994 16-12-2019 09:25:00 8.2 C 98 % 7.9 C
2995 16-12-2019 09:30:00 8.2 C 98 % 7.9 C
2996 16-12-2019 09:35:00 8.2 C 97 % 7.75 C
2997 16-12-2019 09:40:00 8.2 C 97 % 7.75 C
2998 16-12-2019 09:45:00 8.2 C 97 % 7.75 C
2999 16-12-2019 09:50:00 8.3 C 97 % 7.85 C
3000 16-12-2019 09:55:00 8.3 C 97 % 7.85 C
Sensor: Nr:Datum:Temp:Feuchte:Taupunkt:
Aussen-T/F 3001 16-12-2019 10:00:00 8.3 C 97 % 7.85 C
3002 16-12-2019 10:05:00 8.3 C 97 % 7.85 C
3003 16-12-2019 10:10:00 8.3 C 97 % 7.85 C
3004 16-12-2019 10:15:00 8.4 C 97 % 7.95 C
3005 16-12-2019 10:20:00 8.4 C 97 % 7.95 C
3006 16-12-2019 10:25:00 8.4 C 97 % 7.95 C
3007 16-12-2019 10:30:00 8.5 C 97 % 8.05 C
3008 16-12-2019 10:35:00 8.5 C 98 % 8.2 C
3009 16-12-2019 10:40:00 8.6 C 98 % 8.3 C
3010 16-12-2019 10:45:00 8.7 C 98 % 8.4 C
3011 16-12-2019 10:50:00 8.7 C 98 % 8.4 C
3012 16-12-2019 10:55:00 8.8 C 98 % 8.5 C
3013 16-12-2019 11:00:00 8.8 C 98 % 8.5 C
3014 16-12-2019 11:05:00 8.8 C 98 % 8.5 C
3015 16-12-2019 11:10:00 8.9 C 98 % 8.6 C
3016 16-12-2019 11:15:00 9 C 98 % 8.7 C
3017 16-12-2019 11:20:00 9.2 C 98 % 8.9 C
3018 16-12-2019 11:25:00 9.3 C 98 % 9 C
3019 16-12-2019 11:30:00 9.3 C 98 % 9 C
3020 16-12-2019 11:35:00 9.3 C 98 % 9 C
3021 16-12-2019 11:40:00 9.4 C 98 % 9.1 C
3022 16-12-2019 11:45:00 9.4 C 98 % 9.1 C
3023 16-12-2019 11:50:00 9.6 C 98 % 9.3 C
3024 16-12-2019 11:55:00 9.7 C 98 % 9.4 C
3025 16-12-2019 12:00:00 9.7 C 98 % 9.4 C
Sensor: Nr:Datum:Temp:Feuchte:Taupunkt:
Aussen-T/F 3026 16-12-2019 12:05:00 9.7 C 98 % 9.4 C
3027 16-12-2019 12:10:00 9.8 C 98 % 9.5 C
3028 16-12-2019 12:15:00 9.8 C 98 % 9.5 C
3029 16-12-2019 12:20:00 9.8 C 98 % 9.5 C
3030 16-12-2019 12:25:00 9.8 C 98 % 9.5 C
3031 16-12-2019 12:30:00 9.8 C 98 % 9.5 C
3032 16-12-2019 12:35:00 9.8 C 98 % 9.5 C
3033 16-12-2019 12:40:00 9.8 C 98 % 9.5 C
3034 16-12-2019 12:45:00 9.8 C 98 % 9.5 C
3035 16-12-2019 12:50:00 9.9 C 98 % 9.6 C
3036 16-12-2019 12:55:00 9.9 C 98 % 9.6 C
3037 16-12-2019 13:00:00 10.1 C 98 % 9.8 C
3038 16-12-2019 13:05:00 10.1 C 98 % 9.8 C
3039 16-12-2019 13:10:00 10.1 C 98 % 9.8 C
3040 16-12-2019 13:15:00 10.2 C 98 % 9.9 C
3041 16-12-2019 13:20:00 10.2 C 98 % 9.9 C
3042 16-12-2019 13:25:00 10.2 C 98 % 9.9 C
3043 16-12-2019 13:30:00 10.3 C 98 % 10 C
3044 16-12-2019 13:35:00 10.3 C 98 % 10 C
3045 16-12-2019 13:40:00 10.4 C 98 % 10.1 C
3046 16-12-2019 13:45:00 10.4 C 98 % 10.1 C
3047 16-12-2019 13:50:00 10.5 C 98 % 10.2 C
3048 16-12-2019 13:55:00 10.4 C 98 % 10.1 C
3049 16-12-2019 14:00:00 10.4 C 98 % 10.1 C
3050 16-12-2019 14:05:00 10.4 C 97 % 9.94 C
Sensor: Nr:Datum:Temp:Feuchte:Taupunkt:
Aussen-T/F 3051 16-12-2019 14:10:00 10.4 C 97 % 9.94 C
3052 16-12-2019 14:15:00 10.4 C 97 % 9.94 C
3053 16-12-2019 14:20:00 10.4 C 97 % 9.94 C
3054 16-12-2019 14:25:00 10.4 C 97 % 9.94 C
3055 16-12-2019 14:30:00 10.4 C 97 % 9.94 C
3056 16-12-2019 14:35:00 10.5 C 97 % 10.04 C
3057 16-12-2019 14:40:00 10.4 C 97 % 9.94 C
3058 16-12-2019 14:45:00 10.5 C 97 % 10.04 C
3059 16-12-2019 14:50:00 10.4 C 97 % 9.94 C
3060 16-12-2019 14:55:00 10.4 C 97 % 9.94 C
3061 16-12-2019 15:00:00 10.4 C 97 % 9.94 C
3062 16-12-2019 15:05:00 10.4 C 97 % 9.94 C
3063 16-12-2019 15:10:00 10.3 C 97 % 9.85 C
3064 16-12-2019 15:15:00 10.3 C 97 % 9.85 C
3065 16-12-2019 15:20:00 10.2 C 97 % 9.75 C
3066 16-12-2019 15:25:00 10.2 C 97 % 9.75 C
3067 16-12-2019 15:30:00 10.1 C 97 % 9.65 C
3068 16-12-2019 15:35:00 10 C 97 % 9.55 C
3069 16-12-2019 15:40:00 9.9 C 97 % 9.45 C
3070 16-12-2019 15:45:00 9.8 C 97 % 9.35 C
3071 16-12-2019 15:50:00 9.8 C 97 % 9.35 C
3072 16-12-2019 15:55:00 9.7 C 97 % 9.25 C
3073 16-12-2019 16:00:00 9.6 C 97 % 9.15 C
3074 16-12-2019 16:05:00 9.6 C 97 % 9.15 C
3075 16-12-2019 16:10:00 9.4 C 97 % 8.95 C
Sensor: Nr:Datum:Temp:Feuchte:Taupunkt:
Aussen-T/F 3076 16-12-2019 16:15:00 9.3 C 97 % 8.85 C
3077 16-12-2019 16:20:00 9.2 C 96 % 8.6 C
3078 16-12-2019 16:25:00 9.2 C 96 % 8.6 C
3079 16-12-2019 16:30:00 9.1 C 97 % 8.65 C
3080 16-12-2019 16:35:00 8.9 C 97 % 8.45 C
3081 16-12-2019 16:40:00 8.8 C 96 % 8.2 C
3082 16-12-2019 16:45:00 8.8 C 96 % 8.2 C
3083 16-12-2019 16:50:00 8.7 C 96 % 8.1 C
3084 16-12-2019 16:55:00 8.6 C 96 % 8 C
3085 16-12-2019 17:00:00 8.5 C 96 % 7.9 C
3086 16-12-2019 17:05:00 8.4 C 96 % 7.8 C
3087 16-12-2019 17:10:00 8.3 C 97 % 7.85 C
3088 16-12-2019 17:15:00 8.3 C 96 % 7.7 C
3089 16-12-2019 17:20:00 8.2 C 96 % 7.6 C
3090 16-12-2019 17:25:00 8.2 C 96 % 7.6 C
3091 16-12-2019 17:30:00 8.1 C 97 % 7.65 C
3092 16-12-2019 17:35:00 8.1 C 97 % 7.65 C
3093 16-12-2019 17:40:00 8 C 96 % 7.4 C
3094 16-12-2019 17:45:00 8 C 97 % 7.55 C
3095 16-12-2019 17:50:00 7.9 C 97 % 7.45 C
3096 16-12-2019 17:55:00 7.9 C 97 % 7.45 C
3097 16-12-2019 18:00:00 7.9 C 97 % 7.45 C
3098 16-12-2019 18:05:00 8 C 97 % 7.55 C
3099 16-12-2019 18:10:00 8 C 97 % 7.55 C
3100 16-12-2019 18:15:00 8.1 C 97 % 7.65 C
Sensor: Nr:Datum:Temp:Feuchte:Taupunkt:
Aussen-T/F 3101 16-12-2019 18:20:00 8.2 C 97 % 7.75 C
3102 16-12-2019 18:25:00 8.2 C 97 % 7.75 C
3103 16-12-2019 18:30:00 8.4 C 97 % 7.95 C
3104 16-12-2019 18:35:00 8.5 C 97 % 8.05 C
3105 16-12-2019 18:40:00 8.6 C 97 % 8.15 C
3106 16-12-2019 18:45:00 8.7 C 97 % 8.25 C
3107 16-12-2019 18:50:00 8.8 C 97 % 8.35 C
3108 16-12-2019 18:55:00 8.9 C 97 % 8.45 C
3109 16-12-2019 19:00:00 8.8 C 97 % 8.35 C
3110 16-12-2019 19:05:00 8.9 C 97 % 8.45 C
3111 16-12-2019 19:10:00 8.8 C 97 % 8.35 C
3112 16-12-2019 19:15:00 8.7 C 97 % 8.25 C
3113 16-12-2019 19:20:00 8.6 C 96 % 8 C
3114 16-12-2019 19:25:00 8.6 C 96 % 8 C
3115 16-12-2019 19:30:00 8.6 C 96 % 8 C
3116 16-12-2019 19:35:00 8.7 C 96 % 8.1 C
3117 16-12-2019 19:40:00 8.6 C 96 % 8 C
3118 16-12-2019 19:45:00 8.7 C 96 % 8.1 C
3119 16-12-2019 19:50:00 8.7 C 96 % 8.1 C
3120 16-12-2019 19:55:00 8.7 C 96 % 8.1 C
3121 16-12-2019 20:00:00 8.7 C 96 % 8.1 C
3122 16-12-2019 20:05:00 8.7 C 96 % 8.1 C
3123 16-12-2019 20:10:00 8.8 C 96 % 8.2 C
3124 16-12-2019 20:15:00 8.7 C 96 % 8.1 C
3125 16-12-2019 20:20:00 8.7 C 96 % 8.1 C
Sensor: Nr:Datum:Temp:Feuchte:Taupunkt:
Aussen-T/F 3126 16-12-2019 20:25:00 8.6 C 95 % 7.85 C
3127 16-12-2019 20:30:00 8.6 C 96 % 8 C
3128 16-12-2019 20:35:00 8.7 C 96 % 8.1 C
3129 16-12-2019 20:40:00 8.7 C 96 % 8.1 C
3130 16-12-2019 20:45:00 8.6 C 96 % 8 C
3131 16-12-2019 20:50:00 8.6 C 96 % 8 C
3132 16-12-2019 20:55:00 8.6 C 95 % 7.85 C
3133 16-12-2019 21:00:00 8.4 C 95 % 7.65 C
3134 16-12-2019 21:05:00 8.3 C 95 % 7.55 C
3135 16-12-2019 21:10:00 8.3 C 95 % 7.55 C
3136 16-12-2019 21:15:00 8.2 C 95 % 7.45 C
3137 16-12-2019 21:20:00 8.2 C 96 % 7.6 C
3138 16-12-2019 21:25:00 8.3 C 96 % 7.7 C
3139 16-12-2019 21:30:00 8.2 C 96 % 7.6 C
3140 16-12-2019 21:35:00 8.2 C 95 % 7.45 C
3141 16-12-2019 21:40:00 8.1 C 95 % 7.35 C
3142 16-12-2019 21:45:00 8 C 95 % 7.25 C
3143 16-12-2019 21:50:00 7.9 C 95 % 7.15 C
3144 16-12-2019 21:55:00 7.8 C 95 % 7.05 C
3145 16-12-2019 22:00:00 7.8 C 96 % 7.2 C
3146 16-12-2019 22:05:00 7.8 C 96 % 7.2 C
3147 16-12-2019 22:10:00 7.9 C 96 % 7.3 C
3148 16-12-2019 22:15:00 8 C 96 % 7.4 C
3149 16-12-2019 22:20:00 8.1 C 96 % 7.5 C
3150 16-12-2019 22:25:00 8.2 C 96 % 7.6 C
Sensor: Nr:Datum:Temp:Feuchte:Taupunkt:
Aussen-T/F 3151 16-12-2019 22:30:00 8.2 C 96 % 7.6 C
3152 16-12-2019 22:35:00 8.2 C 96 % 7.6 C
3153 16-12-2019 22:40:00 8.3 C 96 % 7.7 C
3154 16-12-2019 22:45:00 8.3 C 95 % 7.55 C
3155 16-12-2019 22:50:00 8.3 C 95 % 7.55 C
3156 16-12-2019 22:55:00 8.2 C 95 % 7.45 C
3157 16-12-2019 23:00:00 8.2 C 95 % 7.45 C
3158 16-12-2019 23:05:00 8.1 C 95 % 7.35 C
3159 16-12-2019 23:10:00 8.1 C 95 % 7.35 C
3160 16-12-2019 23:15:00 8.2 C 96 % 7.6 C
3161 16-12-2019 23:20:00 8.2 C 96 % 7.6 C
3162 16-12-2019 23:25:00 8.3 C 96 % 7.7 C
3163 16-12-2019 23:30:00 8.3 C 96 % 7.7 C
3164 16-12-2019 23:35:00 8.3 C 96 % 7.7 C
3165 16-12-2019 23:40:00 8.3 C 96 % 7.7 C
3166 16-12-2019 23:45:00 8.3 C 96 % 7.7 C
3167 16-12-2019 23:50:00 8.3 C 96 % 7.7 C
3168 16-12-2019 23:55:00 8.3 C 96 % 7.7 C
3169 17-12-2019 00:00:00 8.3 C 96 % 7.7 C
3170 17-12-2019 00:05:00 8.3 C 95 % 7.55 C
3171 17-12-2019 00:10:00 8.3 C 95 % 7.55 C
3172 17-12-2019 00:15:00 8.3 C 95 % 7.55 C
3173 17-12-2019 00:20:00 8.2 C 96 % 7.6 C
3174 17-12-2019 00:25:00 8.2 C 96 % 7.6 C
3175 17-12-2019 00:30:00 8.2 C 96 % 7.6 C
Sensor: Nr:Datum:Temp:Feuchte:Taupunkt:
Aussen-T/F 3176 17-12-2019 00:35:00 8.2 C 96 % 7.6 C
3177 17-12-2019 00:40:00 8.1 C 96 % 7.5 C
3178 17-12-2019 00:45:00 8.1 C 95 % 7.35 C
3179 17-12-2019 00:50:00 8.1 C 95 % 7.35 C
3180 17-12-2019 00:55:00 8.1 C 96 % 7.5 C
3181 17-12-2019 01:00:00 8 C 95 % 7.25 C
3182 17-12-2019 01:05:00 8 C 95 % 7.25 C
3183 17-12-2019 01:10:00 7.9 C 96 % 7.3 C
3184 17-12-2019 01:15:00 8 C 96 % 7.4 C
3185 17-12-2019 01:20:00 8.1 C 96 % 7.5 C
3186 17-12-2019 01:25:00 8.2 C 96 % 7.6 C
3187 17-12-2019 01:30:00 8.2 C 96 % 7.6 C
3188 17-12-2019 01:35:00 8.1 C 96 % 7.5 C
3189 17-12-2019 01:40:00 8.1 C 96 % 7.5 C
3190 17-12-2019 01:45:00 8.1 C 96 % 7.5 C
3191 17-12-2019 01:50:00 8.2 C 96 % 7.6 C
3192 17-12-2019 01:55:00 8.2 C 96 % 7.6 C
3193 17-12-2019 02:00:00 8.1 C 95 % 7.35 C
3194 17-12-2019 02:05:00 8.1 C 95 % 7.35 C
3195 17-12-2019 02:10:00 8.1 C 95 % 7.35 C
3196 17-12-2019 02:15:00 8.1 C 95 % 7.35 C
3197 17-12-2019 02:20:00 8 C 95 % 7.25 C
3198 17-12-2019 02:25:00 8 C 95 % 7.25 C
3199 17-12-2019 02:30:00 8 C 95 % 7.25 C
3200 17-12-2019 02:35:00 8 C 95 % 7.25 C
Sensor: Nr:Datum:Temp:Feuchte:Taupunkt:
Aussen-T/F 3201 17-12-2019 02:40:00 8.1 C 95 % 7.35 C
3202 17-12-2019 02:45:00 8.2 C 95 % 7.45 C
3203 17-12-2019 02:50:00 8.3 C 95 % 7.55 C
3204 17-12-2019 02:55:00 8.4 C 95 % 7.65 C
3205 17-12-2019 03:00:00 8.4 C 95 % 7.65 C
3206 17-12-2019 03:05:00 8.6 C 95 % 7.85 C
3207 17-12-2019 03:10:00 8.6 C 94 % 7.69 C
3208 17-12-2019 03:15:00 8.8 C 94 % 7.89 C
3209 17-12-2019 03:20:00 8.9 C 94 % 7.99 C
3210 17-12-2019 03:25:00 9.1 C 94 % 8.19 C
3211 17-12-2019 03:30:00 9.3 C 93 % 8.23 C
3212 17-12-2019 03:35:00 9.5 C 92 % 8.27 C
3213 17-12-2019 03:40:00 9.5 C 92 % 8.27 C
3214 17-12-2019 03:45:00 9.6 C 92 % 8.37 C
3215 17-12-2019 03:50:00 9.6 C 92 % 8.37 C
3216 17-12-2019 03:55:00 9.6 C 91 % 8.21 C
3217 17-12-2019 04:00:00 9.6 C 91 % 8.21 C
3218 17-12-2019 04:05:00 9.6 C 91 % 8.21 C
3219 17-12-2019 04:10:00 9.6 C 91 % 8.21 C
3220 17-12-2019 04:15:00 9.6 C 91 % 8.21 C
3221 17-12-2019 04:20:00 9.6 C 91 % 8.21 C
3222 17-12-2019 04:25:00 9.5 C 91 % 8.11 C
3223 17-12-2019 04:30:00 9.4 C 91 % 8.01 C
3224 17-12-2019 04:35:00 9.4 C 91 % 8.01 C
3225 17-12-2019 04:40:00 9.3 C 91 % 7.91 C
Sensor: Nr:Datum:Temp:Feuchte:Taupunkt:
Aussen-T/F 3226 17-12-2019 04:45:00 9.3 C 91 % 7.91 C
3227 17-12-2019 04:50:00 9.2 C 91 % 7.81 C
3228 17-12-2019 04:55:00 9.2 C 91 % 7.81 C
3229 17-12-2019 05:00:00 9.2 C 92 % 7.97 C
3230 17-12-2019 05:05:00 9.3 C 92 % 8.07 C
3231 17-12-2019 05:10:00 9.4 C 92 % 8.17 C
3232 17-12-2019 05:15:00 9.4 C 92 % 8.17 C
3233 17-12-2019 05:20:00 9.3 C 92 % 8.07 C
3234 17-12-2019 05:25:00 9.2 C 92 % 7.97 C
3235 17-12-2019 05:30:00 9.2 C 92 % 7.97 C
3236 17-12-2019 05:35:00 9.1 C 92 % 7.87 C
3237 17-12-2019 05:40:00 9 C 92 % 7.77 C
3238 17-12-2019 05:45:00 8.9 C 92 % 7.67 C
3239 17-12-2019 05:50:00 8.9 C 92 % 7.67 C
3240 17-12-2019 05:55:00 8.9 C 93 % 7.83 C
3241 17-12-2019 06:00:00 8.8 C 93 % 7.73 C
3242 17-12-2019 06:05:00 8.8 C 93 % 7.73 C
3243 17-12-2019 06:10:00 8.7 C 92 % 7.47 C
3244 17-12-2019 06:15:00 8.6 C 93 % 7.53 C
3245 17-12-2019 06:20:00 8.5 C 93 % 7.43 C
3246 17-12-2019 06:25:00 8.5 C 93 % 7.43 C
3247 17-12-2019 06:30:00 8.4 C 93 % 7.34 C
3248 17-12-2019 06:35:00 8.5 C 94 % 7.59 C
3249 17-12-2019 06:40:00 8.4 C 93 % 7.34 C
3250 17-12-2019 06:45:00 8.4 C 94 % 7.49 C
Sensor: Nr:Datum:Temp:Feuchte:Taupunkt:
Aussen-T/F 3251 17-12-2019 06:50:00 8.4 C 94 % 7.49 C
3252 17-12-2019 06:55:00 8.4 C 94 % 7.49 C
3253 17-12-2019 07:00:00 8.5 C 94 % 7.59 C
3254 17-12-2019 07:05:00 8.6 C 94 % 7.69 C
3255 17-12-2019 07:10:00 8.5 C 94 % 7.59 C
3256 17-12-2019 07:15:00 8.5 C 94 % 7.59 C
3257 17-12-2019 07:20:00 8.4 C 94 % 7.49 C
3258 17-12-2019 07:25:00 8.3 C 94 % 7.39 C
3259 17-12-2019 07:30:00 8.2 C 94 % 7.29 C
3260 17-12-2019 07:35:00 8.2 C 94 % 7.29 C
3261 17-12-2019 07:40:00 8.2 C 94 % 7.29 C
3262 17-12-2019 07:45:00 8.2 C 94 % 7.29 C
3263 17-12-2019 07:50:00 8.2 C 94 % 7.29 C
3264 17-12-2019 07:55:00 8.2 C 94 % 7.29 C
3265 17-12-2019 08:00:00 8.2 C 94 % 7.29 C
3266 17-12-2019 08:05:00 8.2 C 94 % 7.29 C
3267 17-12-2019 08:10:00 8.1 C 94 % 7.19 C
3268 17-12-2019 08:15:00 8.1 C 94 % 7.19 C
3269 17-12-2019 08:20:00 8 C 94 % 7.09 C
3270 17-12-2019 08:25:00 7.9 C 93 % 6.84 C
3271 17-12-2019 08:30:00 7.8 C 93 % 6.74 C
3272 17-12-2019 08:35:00 7.8 C 94 % 6.9 C
3273 17-12-2019 08:40:00 7.8 C 94 % 6.9 C
3274 17-12-2019 08:45:00 7.8 C 94 % 6.9 C
3275 17-12-2019 08:50:00 7.8 C 94 % 6.9 C
Sensor: Nr:Datum:Temp:Feuchte:Taupunkt:
Aussen-T/F 3276 17-12-2019 08:55:00 7.7 C 94 % 6.8 C
3277 17-12-2019 09:00:00 7.6 C 94 % 6.7 C
3278 17-12-2019 09:05:00 7.6 C 94 % 6.7 C
3279 17-12-2019 09:10:00 7.6 C 94 % 6.7 C
3280 17-12-2019 09:15:00 7.6 C 94 % 6.7 C
3281 17-12-2019 09:20:00 7.6 C 95 % 6.85 C
3282 17-12-2019 09:25:00 7.6 C 95 % 6.85 C
3283 17-12-2019 09:30:00 7.5 C 94 % 6.6 C
3284 17-12-2019 09:35:00 7.5 C 94 % 6.6 C
3285 17-12-2019 09:40:00 7.4 C 95 % 6.65 C
3286 17-12-2019 09:45:00 7.5 C 95 % 6.75 C
3287 17-12-2019 09:50:00 7.4 C 95 % 6.65 C
3288 17-12-2019 09:55:00 7.4 C 95 % 6.65 C
3289 17-12-2019 10:00:00 7.4 C 95 % 6.65 C
3290 17-12-2019 10:05:00 7.4 C 95 % 6.65 C
3291 17-12-2019 10:10:00 7.3 C 95 % 6.55 C
3292 17-12-2019 10:15:00 7.4 C 95 % 6.65 C
3293 17-12-2019 10:20:00 7.4 C 95 % 6.65 C
3294 17-12-2019 10:25:00 7.4 C 95 % 6.65 C
3295 17-12-2019 10:30:00 7.3 C 95 % 6.55 C
3296 17-12-2019 10:35:00 7.5 C 95 % 6.75 C
3297 17-12-2019 10:40:00 7.6 C 96 % 7 C
3298 17-12-2019 10:45:00 7.7 C 96 % 7.1 C
3299 17-12-2019 10:50:00 7.8 C 96 % 7.2 C
3300 17-12-2019 10:55:00 8 C 96 % 7.4 C
Sensor: Nr:Datum:Temp:Feuchte:Taupunkt:
Aussen-T/F 3301 17-12-2019 11:00:00 8.3 C 96 % 7.7 C
3302 17-12-2019 11:05:00 8.4 C 96 % 7.8 C
3303 17-12-2019 11:10:00 8.6 C 96 % 8 C
3304 17-12-2019 11:15:00 8.7 C 96 % 8.1 C
3305 17-12-2019 11:20:00 8.8 C 96 % 8.2 C
3306 17-12-2019 11:25:00 8.9 C 95 % 8.14 C
3307 17-12-2019 11:30:00 9 C 95 % 8.24 C
3308 17-12-2019 11:35:00 9.2 C 95 % 8.44 C
3309 17-12-2019 11:40:00 9.3 C 96 % 8.7 C
3310 17-12-2019 11:45:00 9.4 C 95 % 8.64 C
3311 17-12-2019 11:50:00 9.4 C 95 % 8.64 C
3312 17-12-2019 11:55:00 9.5 C 95 % 8.74 C
3313 17-12-2019 12:00:00 9.6 C 95 % 8.84 C
3314 17-12-2019 12:05:00 9.6 C 95 % 8.84 C
3315 17-12-2019 12:10:00 9.7 C 95 % 8.94 C
3316 17-12-2019 12:15:00 9.8 C 95 % 9.04 C
3317 17-12-2019 12:20:00 9.8 C 94 % 8.88 C
3318 17-12-2019 12:25:00 9.9 C 94 % 8.98 C
3319 17-12-2019 12:30:00 10.1 C 95 % 9.34 C
3320 17-12-2019 12:35:00 10.2 C 94 % 9.28 C
3321 17-12-2019 12:40:00 10.2 C 94 % 9.28 C
3322 17-12-2019 12:45:00 10.3 C 93 % 9.22 C
3323 17-12-2019 12:50:00 10.3 C 93 % 9.22 C
3324 17-12-2019 12:55:00 10.3 C 93 % 9.22 C
3325 17-12-2019 13:00:00 10.4 C 93 % 9.32 C
Sensor: Nr:Datum:Temp:Feuchte:Taupunkt:
Aussen-T/F 3326 17-12-2019 13:05:00 10.5 C 93 % 9.42 C
3327 17-12-2019 13:10:00 10.6 C 93 % 9.52 C
3328 17-12-2019 13:15:00 10.8 C 93 % 9.71 C
3329 17-12-2019 13:20:00 10.8 C 92 % 9.55 C
3330 17-12-2019 13:25:00 11 C 92 % 9.75 C
3331 17-12-2019 13:30:00 11.1 C 92 % 9.85 C
3332 17-12-2019 13:35:00 11.2 C 92 % 9.95 C
3333 17-12-2019 13:40:00 11.4 C 92 % 10.15 C
3334 17-12-2019 13:45:00 11.6 C 92 % 10.35 C
3335 17-12-2019 13:50:00 11.8 C 91 % 10.38 C
3336 17-12-2019 13:55:00 12.1 C 91 % 10.68 C
3337 17-12-2019 14:00:00 12.2 C 91 % 10.78 C
3338 17-12-2019 14:05:00 12.4 C 91 % 10.97 C
3339 17-12-2019 14:10:00 12.6 C 89 % 10.84 C
3340 17-12-2019 14:15:00 12.6 C 87 % 10.5 C
3341 17-12-2019 14:20:00 12.6 C 87 % 10.5 C
3342 17-12-2019 14:25:00 12.5 C 86 % 10.22 C
3343 17-12-2019 14:30:00 12.4 C 86 % 10.13 C
3344 17-12-2019 14:35:00 12.4 C 85 % 9.95 C
3345 17-12-2019 14:40:00 12.4 C 85 % 9.95 C
3346 17-12-2019 14:45:00 12.3 C 85 % 9.85 C
3347 17-12-2019 14:50:00 12.3 C 85 % 9.85 C
3348 17-12-2019 14:55:00 12.3 C 85 % 9.85 C
3349 17-12-2019 15:00:00 12.3 C 85 % 9.85 C
3350 17-12-2019 15:05:00 12.4 C 86 % 10.13 C
Sensor: Nr:Datum:Temp:Feuchte:Taupunkt:
Aussen-T/F 3351 17-12-2019 15:10:00 12.4 C 86 % 10.13 C
3352 17-12-2019 15:15:00 12.5 C 86 % 10.22 C
3353 17-12-2019 15:20:00 12.5 C 86 % 10.22 C
3354 17-12-2019 15:25:00 12.4 C 85 % 9.95 C
3355 17-12-2019 15:30:00 12.4 C 85 % 9.95 C
3356 17-12-2019 15:35:00 12.4 C 84 % 9.78 C
3357 17-12-2019 15:40:00 12.7 C 81 % 9.53 C
3358 17-12-2019 15:45:00 12.9 C 83 % 10.09 C
3359 17-12-2019 15:50:00 12.8 C 83 % 9.99 C
3360 17-12-2019 15:55:00 12.8 C 81 % 9.62 C
3361 17-12-2019 16:00:00 12.9 C 81 % 9.72 C
3362 17-12-2019 16:05:00 13 C 82 % 10 C
3363 17-12-2019 16:10:00 12.9 C 82 % 9.9 C
3364 17-12-2019 16:15:00 12.9 C 81 % 9.72 C
3365 17-12-2019 16:20:00 13 C 82 % 10 C
3366 17-12-2019 16:25:00 13 C 80 % 9.63 C
3367 17-12-2019 16:30:00 13.1 C 81 % 9.92 C
3368 17-12-2019 16:35:00 13.1 C 82 % 10.1 C
3369 17-12-2019 16:40:00 13 C 81 % 9.82 C
3370 17-12-2019 16:45:00 12.9 C 81 % 9.72 C
3371 17-12-2019 16:50:00 12.8 C 81 % 9.62 C
3372 17-12-2019 16:55:00 12.6 C 81 % 9.43 C
3373 17-12-2019 17:00:00 12.4 C 82 % 9.42 C
3374 17-12-2019 17:05:00 12.2 C 82 % 9.22 C
3375 17-12-2019 17:10:00 12 C 82 % 9.03 C
Sensor: Nr:Datum:Temp:Feuchte:Taupunkt:
Aussen-T/F 3376 17-12-2019 17:15:00 12.1 C 82 % 9.12 C
3377 17-12-2019 17:20:00 12.2 C 82 % 9.22 C
3378 17-12-2019 17:25:00 12.4 C 80 % 9.05 C
3379 17-12-2019 17:30:00 12.8 C 78 % 9.06 C
3380 17-12-2019 17:35:00 13.4 C 76 % 9.26 C
3381 17-12-2019 17:40:00 13.8 C 75 % 9.45 C
3382 17-12-2019 17:45:00 14.1 C 73 % 9.34 C
3383 17-12-2019 17:50:00 14.3 C 74 % 9.73 C
3384 17-12-2019 17:55:00 14.3 C 74 % 9.73 C
3385 17-12-2019 18:00:00 14.2 C 75 % 9.84 C
3386 17-12-2019 18:05:00 14.1 C 75 % 9.74 C
3387 17-12-2019 18:10:00 14.1 C 76 % 9.94 C
3388 17-12-2019 18:15:00 14 C 77 % 10.04 C
3389 17-12-2019 18:20:00 14 C 77 % 10.04 C
3390 17-12-2019 18:25:00 14.1 C 77 % 10.13 C
3391 17-12-2019 18:30:00 14.2 C 77 % 10.23 C
3392 17-12-2019 18:35:00 14.2 C 78 % 10.42 C
3393 17-12-2019 18:40:00 14.1 C 78 % 10.33 C
3394 17-12-2019 18:45:00 14.1 C 80 % 10.71 C
3395 17-12-2019 18:50:00 13.9 C 80 % 10.51 C
3396 17-12-2019 18:55:00 14 C 79 % 10.42 C
3397 17-12-2019 19:00:00 13.9 C 79 % 10.32 C
3398 17-12-2019 19:05:00 13.8 C 79 % 10.22 C
3399 17-12-2019 19:10:00 13.8 C 80 % 10.41 C
3400 17-12-2019 19:15:00 13.7 C 80 % 10.32 C
Sensor: Nr:Datum:Temp:Feuchte:Taupunkt:
Aussen-T/F 3401 17-12-2019 19:20:00 13.6 C 81 % 10.4 C
3402 17-12-2019 19:25:00 13.5 C 84 % 10.85 C
3403 17-12-2019 19:30:00 13.3 C 84 % 10.66 C
3404 17-12-2019 19:35:00 13.2 C 85 % 10.74 C
3405 17-12-2019 19:40:00 13 C 86 % 10.72 C
3406 17-12-2019 19:45:00 12.8 C 86 % 10.52 C
3407 17-12-2019 19:50:00 12.8 C 87 % 10.69 C
3408 17-12-2019 19:55:00 12.7 C 87 % 10.59 C
3409 17-12-2019 20:00:00 12.7 C 87 % 10.59 C
3410 17-12-2019 20:05:00 12.7 C 88 % 10.77 C
3411 17-12-2019 20:10:00 12.7 C 88 % 10.77 C
3412 17-12-2019 20:15:00 12.7 C 88 % 10.77 C
3413 17-12-2019 20:20:00 12.8 C 88 % 10.86 C
3414 17-12-2019 20:25:00 12.7 C 88 % 10.77 C
3415 17-12-2019 20:30:00 12.6 C 89 % 10.84 C
3416 17-12-2019 20:35:00 12.6 C 89 % 10.84 C
3417 17-12-2019 20:40:00 12.5 C 90 % 10.91 C
3418 17-12-2019 20:45:00 12.4 C 90 % 10.81 C
3419 17-12-2019 20:50:00 12.4 C 91 % 10.97 C
3420 17-12-2019 20:55:00 12.3 C 91 % 10.87 C
3421 17-12-2019 21:00:00 12.3 C 91 % 10.87 C
3422 17-12-2019 21:05:00 12.1 C 91 % 10.68 C
3423 17-12-2019 21:10:00 11.9 C 91 % 10.48 C
3424 17-12-2019 21:15:00 11.8 C 91 % 10.38 C
3425 17-12-2019 21:20:00 11.7 C 92 % 10.44 C
Sensor: Nr:Datum:Temp:Feuchte:Taupunkt:
Aussen-T/F 3426 17-12-2019 21:25:00 11.6 C 92 % 10.35 C
3427 17-12-2019 21:30:00 11.5 C 92 % 10.25 C
3428 17-12-2019 21:35:00 11.4 C 92 % 10.15 C
3429 17-12-2019 21:40:00 11.4 C 92 % 10.15 C
3430 17-12-2019 21:45:00 11.7 C 91 % 10.28 C
3431 17-12-2019 21:50:00 11.8 C 91 % 10.38 C
3432 17-12-2019 21:55:00 12 C 89 % 10.25 C
3433 17-12-2019 22:00:00 12.6 C 86 % 10.32 C
3434 17-12-2019 22:05:00 12.9 C 85 % 10.44 C
3435 17-12-2019 22:10:00 13.1 C 83 % 10.28 C
3436 17-12-2019 22:15:00 13.1 C 83 % 10.28 C
3437 17-12-2019 22:20:00 13.3 C 83 % 10.48 C
3438 17-12-2019 22:25:00 13.4 C 83 % 10.57 C
3439 17-12-2019 22:30:00 13.4 C 82 % 10.39 C
3440 17-12-2019 22:35:00 13.6 C 82 % 10.59 C
3441 17-12-2019 22:40:00 13.6 C 82 % 10.59 C
3442 17-12-2019 22:45:00 13.5 C 82 % 10.49 C
3443 17-12-2019 22:50:00 13.4 C 83 % 10.57 C
3444 17-12-2019 22:55:00 13.3 C 83 % 10.48 C
3445 17-12-2019 23:00:00 13.2 C 84 % 10.56 C
3446 17-12-2019 23:05:00 13.1 C 85 % 10.64 C
3447 17-12-2019 23:10:00 12.9 C 85 % 10.44 C
3448 17-12-2019 23:15:00 12.7 C 86 % 10.42 C
3449 17-12-2019 23:20:00 12.6 C 87 % 10.5 C
3450 17-12-2019 23:25:00 12.3 C 88 % 10.37 C
Sensor: Nr:Datum:Temp:Feuchte:Taupunkt:
Aussen-T/F 3451 17-12-2019 23:30:00 12.2 C 88 % 10.27 C
3452 17-12-2019 23:35:00 12.1 C 89 % 10.34 C
3453 17-12-2019 23:40:00 11.9 C 89 % 10.15 C
3454 17-12-2019 23:45:00 11.9 C 89 % 10.15 C
3455 17-12-2019 23:50:00 11.8 C 90 % 10.21 C
3456 17-12-2019 23:55:00 11.8 C 90 % 10.21 C
3457 18-12-2019 00:00:00 11.7 C 90 % 10.12 C
3458 18-12-2019 00:05:00 11.6 C 91 % 10.18 C
3459 18-12-2019 00:10:00 11.4 C 91 % 9.98 C
3460 18-12-2019 00:15:00 11.4 C 91 % 9.98 C
3461 18-12-2019 00:20:00 11.3 C 91 % 9.89 C
3462 18-12-2019 00:25:00 11.3 C 91 % 9.89 C
3463 18-12-2019 00:30:00 11.3 C 91 % 9.89 C
3464 18-12-2019 00:35:00 11.3 C 90 % 9.72 C
3465 18-12-2019 00:40:00 11.3 C 90 % 9.72 C
3466 18-12-2019 00:45:00 11.4 C 89 % 9.65 C
3467 18-12-2019 00:50:00 11.4 C 89 % 9.65 C
3468 18-12-2019 00:55:00 11.4 C 89 % 9.65 C
3469 18-12-2019 01:00:00 11.4 C 89 % 9.65 C
3470 18-12-2019 01:05:00 11.4 C 89 % 9.65 C
3471 18-12-2019 01:10:00 11.4 C 89 % 9.65 C
3472 18-12-2019 01:15:00 11.4 C 89 % 9.65 C
3473 18-12-2019 01:20:00 11.3 C 89 % 9.55 C
3474 18-12-2019 01:25:00 11.3 C 89 % 9.55 C
3475 18-12-2019 01:30:00 11.4 C 89 % 9.65 C
Sensor: Nr:Datum:Temp:Feuchte:Taupunkt:
Aussen-T/F 3476 18-12-2019 01:35:00 11.3 C 89 % 9.55 C
3477 18-12-2019 01:40:00 11.3 C 89 % 9.55 C
3478 18-12-2019 01:45:00 11.2 C 89 % 9.46 C
3479 18-12-2019 01:50:00 11.2 C 89 % 9.46 C
3480 18-12-2019 01:55:00 11.2 C 90 % 9.62 C
3481 18-12-2019 02:00:00 11.3 C 90 % 9.72 C
3482 18-12-2019 02:05:00 11.3 C 90 % 9.72 C
3483 18-12-2019 02:10:00 11.3 C 90 % 9.72 C
3484 18-12-2019 02:15:00 11.4 C 90 % 9.82 C
3485 18-12-2019 02:20:00 11.4 C 90 % 9.82 C
3486 18-12-2019 02:25:00 11.4 C 90 % 9.82 C
3487 18-12-2019 02:30:00 11.6 C 90 % 10.02 C
3488 18-12-2019 02:35:00 11.6 C 90 % 10.02 C
3489 18-12-2019 02:40:00 11.6 C 89 % 9.85 C
3490 18-12-2019 02:45:00 11.6 C 90 % 10.02 C
3491 18-12-2019 02:50:00 11.5 C 90 % 9.92 C
3492 18-12-2019 02:55:00 11.5 C 90 % 9.92 C
3493 18-12-2019 03:00:00 11.5 C 91 % 10.08 C
3494 18-12-2019 03:05:00 11.4 C 91 % 9.98 C
3495 18-12-2019 03:10:00 11.4 C 91 % 9.98 C
3496 18-12-2019 03:15:00 11.3 C 91 % 9.89 C
3497 18-12-2019 03:20:00 11.3 C 92 % 10.05 C
3498 18-12-2019 03:25:00 11.2 C 92 % 9.95 C
3499 18-12-2019 03:30:00 11.2 C 92 % 9.95 C
3500 18-12-2019 03:35:00 11.1 C 92 % 9.85 C
Sensor: Nr:Datum:Temp:Feuchte:Taupunkt:
Aussen-T/F 3501 18-12-2019 03:40:00 11.1 C 93 % 10.01 C
3502 18-12-2019 03:45:00 11 C 93 % 9.91 C
3503 18-12-2019 03:50:00 10.9 C 93 % 9.81 C
3504 18-12-2019 03:55:00 10.9 C 93 % 9.81 C
3505 18-12-2019 04:00:00 10.8 C 93 % 9.71 C
3506 18-12-2019 04:05:00 10.8 C 93 % 9.71 C
3507 18-12-2019 04:10:00 10.8 C 93 % 9.71 C
3508 18-12-2019 04:15:00 10.8 C 93 % 9.71 C
3509 18-12-2019 04:20:00 10.7 C 93 % 9.62 C
3510 18-12-2019 04:25:00 10.6 C 92 % 9.36 C
3511 18-12-2019 04:30:00 10.5 C 92 % 9.26 C
3512 18-12-2019 04:35:00 10.4 C 92 % 9.16 C
3513 18-12-2019 04:40:00 10.3 C 91 % 8.9 C
3514 18-12-2019 04:45:00 10.3 C 91 % 8.9 C
3515 18-12-2019 04:50:00 10.2 C 91 % 8.8 C
3516 18-12-2019 04:55:00 10.2 C 91 % 8.8 C
3517 18-12-2019 05:00:00 10.1 C 91 % 8.7 C
3518 18-12-2019 05:05:00 10.1 C 91 % 8.7 C
3519 18-12-2019 05:10:00 10 C 91 % 8.6 C
3520 18-12-2019 05:15:00 9.9 C 91 % 8.5 C
3521 18-12-2019 05:20:00 9.8 C 91 % 8.4 C
3522 18-12-2019 05:25:00 9.7 C 91 % 8.3 C
3523 18-12-2019 05:30:00 9.7 C 91 % 8.3 C
3524 18-12-2019 05:35:00 9.6 C 92 % 8.37 C
3525 18-12-2019 05:40:00 9.5 C 92 % 8.27 C
Sensor: Nr:Datum:Temp:Feuchte:Taupunkt:
Aussen-T/F 3526 18-12-2019 05:45:00 9.4 C 92 % 8.17 C
3527 18-12-2019 05:50:00 9.3 C 92 % 8.07 C
3528 18-12-2019 05:55:00 9.2 C 92 % 7.97 C
3529 18-12-2019 06:00:00 9.2 C 93 % 8.13 C
3530 18-12-2019 06:05:00 9.1 C 92 % 7.87 C
3531 18-12-2019 06:10:00 8.9 C 92 % 7.67 C
3532 18-12-2019 06:15:00 8.8 C 93 % 7.73 C
3533 18-12-2019 06:20:00 8.8 C 93 % 7.73 C
3534 18-12-2019 06:25:00 8.7 C 93 % 7.63 C
3535 18-12-2019 06:30:00 8.7 C 93 % 7.63 C
3536 18-12-2019 06:35:00 8.6 C 93 % 7.53 C
3537 18-12-2019 06:40:00 8.6 C 93 % 7.53 C
3538 18-12-2019 06:45:00 8.4 C 93 % 7.34 C
3539 18-12-2019 06:50:00 8.3 C 93 % 7.24 C
3540 18-12-2019 06:55:00 8.3 C 93 % 7.24 C
3541 18-12-2019 07:00:00 8.2 C 93 % 7.14 C
3542 18-12-2019 07:05:00 8.2 C 94 % 7.29 C
3543 18-12-2019 07:10:00 8.1 C 94 % 7.19 C
3544 18-12-2019 07:15:00 8.1 C 94 % 7.19 C
3545 18-12-2019 07:20:00 8.1 C 94 % 7.19 C
3546 18-12-2019 07:25:00 8.1 C 94 % 7.19 C
3547 18-12-2019 07:30:00 8 C 94 % 7.09 C
3548 18-12-2019 07:35:00 7.9 C 94 % 7 C
3549 18-12-2019 07:40:00 7.8 C 94 % 6.9 C
3550 18-12-2019 07:45:00 7.8 C 94 % 6.9 C
Sensor: Nr:Datum:Temp:Feuchte:Taupunkt:
Aussen-T/F 3551 18-12-2019 07:50:00 7.8 C 94 % 6.9 C
3552 18-12-2019 07:55:00 7.8 C 94 % 6.9 C
3553 18-12-2019 08:00:00 7.7 C 94 % 6.8 C
3554 18-12-2019 08:05:00 7.7 C 94 % 6.8 C
3555 18-12-2019 08:10:00 7.6 C 95 % 6.85 C
3556 18-12-2019 08:15:00 7.6 C 95 % 6.85 C
3557 18-12-2019 08:20:00 7.6 C 95 % 6.85 C
3558 18-12-2019 08:25:00 7.5 C 95 % 6.75 C
3559 18-12-2019 08:30:00 7.4 C 95 % 6.65 C
3560 18-12-2019 08:35:00 7.4 C 95 % 6.65 C
3561 18-12-2019 08:40:00 7.3 C 95 % 6.55 C
3562 18-12-2019 08:45:00 7.3 C 95 % 6.55 C
3563 18-12-2019 08:50:00 7.3 C 95 % 6.55 C
3564 18-12-2019 08:55:00 7.3 C 95 % 6.55 C
3565 18-12-2019 09:00:00 7.4 C 95 % 6.65 C
3566 18-12-2019 09:05:00 7.3 C 95 % 6.55 C
3567 18-12-2019 09:10:00 7.3 C 95 % 6.55 C
3568 18-12-2019 09:15:00 7.2 C 95 % 6.45 C
3569 18-12-2019 09:20:00 7.1 C 95 % 6.35 C
3570 18-12-2019 09:25:00 7.1 C 95 % 6.35 C
3571 18-12-2019 09:30:00 7.2 C 96 % 6.61 C
3572 18-12-2019 09:35:00 7.3 C 96 % 6.71 C
3573 18-12-2019 09:40:00 7.3 C 96 % 6.71 C
3574 18-12-2019 09:45:00 7.4 C 96 % 6.8 C
3575 18-12-2019 09:50:00 7.4 C 96 % 6.8 C
Sensor: Nr:Datum:Temp:Feuchte:Taupunkt:
Aussen-T/F 3576 18-12-2019 09:55:00 7.5 C 96 % 6.9 C
3577 18-12-2019 10:00:00 7.6 C 96 % 7 C
3578 18-12-2019 10:05:00 7.6 C 96 % 7 C
3579 18-12-2019 10:10:00 7.7 C 96 % 7.1 C
3580 18-12-2019 10:15:00 7.7 C 96 % 7.1 C
3581 18-12-2019 10:20:00 7.8 C 96 % 7.2 C
3582 18-12-2019 10:25:00 7.8 C 96 % 7.2 C
3583 18-12-2019 10:30:00 7.9 C 96 % 7.3 C
3584 18-12-2019 10:35:00 7.9 C 96 % 7.3 C
3585 18-12-2019 10:40:00 7.9 C 96 % 7.3 C
3586 18-12-2019 10:45:00 7.9 C 96 % 7.3 C
3587 18-12-2019 10:50:00 7.9 C 96 % 7.3 C
3588 18-12-2019 10:55:00 7.8 C 96 % 7.2 C
3589 18-12-2019 11:00:00 7.7 C 95 % 6.95 C
3590 18-12-2019 11:05:00 7.7 C 95 % 6.95 C
3591 18-12-2019 11:10:00 7.6 C 95 % 6.85 C
3592 18-12-2019 11:15:00 7.6 C 95 % 6.85 C
3593 18-12-2019 11:20:00 7.6 C 95 % 6.85 C
3594 18-12-2019 11:25:00 7.5 C 95 % 6.75 C
3595 18-12-2019 11:30:00 7.4 C 95 % 6.65 C
3596 18-12-2019 11:35:00 7.5 C 95 % 6.75 C
3597 18-12-2019 11:40:00 7.6 C 95 % 6.85 C
3598 18-12-2019 11:45:00 7.6 C 95 % 6.85 C
3599 18-12-2019 11:50:00 7.7 C 95 % 6.95 C
3600 18-12-2019 11:55:00 7.8 C 96 % 7.2 C
Sensor: Nr:Datum:Temp:Feuchte:Taupunkt:
Aussen-T/F 3601 18-12-2019 12:00:00 7.9 C 95 % 7.15 C
3602 18-12-2019 12:05:00 8.1 C 95 % 7.35 C
3603 18-12-2019 12:10:00 8.2 C 95 % 7.45 C
3604 18-12-2019 12:15:00 8.2 C 95 % 7.45 C
3605 18-12-2019 12:20:00 8.3 C 94 % 7.39 C
3606 18-12-2019 12:25:00 8.4 C 94 % 7.49 C
3607 18-12-2019 12:30:00 8.4 C 94 % 7.49 C
3608 18-12-2019 12:35:00 8.5 C 92 % 7.28 C
3609 18-12-2019 12:40:00 8.6 C 91 % 7.22 C
3610 18-12-2019 12:45:00 8.8 C 90 % 7.25 C
3611 18-12-2019 12:50:00 8.9 C 90 % 7.35 C
3612 18-12-2019 12:55:00 8.9 C 90 % 7.35 C
3613 18-12-2019 13:00:00 8.9 C 90 % 7.35 C
3614 18-12-2019 13:05:00 8.8 C 90 % 7.25 C
3615 18-12-2019 13:10:00 8.8 C 90 % 7.25 C
3616 18-12-2019 13:15:00 8.8 C 90 % 7.25 C
3617 18-12-2019 13:20:00 8.7 C 90 % 7.15 C
3618 18-12-2019 13:25:00 8.7 C 90 % 7.15 C
3619 18-12-2019 13:30:00 8.7 C 90 % 7.15 C
3620 18-12-2019 13:35:00 8.6 C 90 % 7.06 C
3621 18-12-2019 13:40:00 8.6 C 91 % 7.22 C
3622 18-12-2019 13:45:00 8.5 C 91 % 7.12 C
3623 18-12-2019 13:50:00 8.5 C 91 % 7.12 C
3624 18-12-2019 13:55:00 8.4 C 91 % 7.02 C
3625 18-12-2019 14:00:00 8.4 C 92 % 7.18 C
Sensor: Nr:Datum:Temp:Feuchte:Taupunkt:
Aussen-T/F 3626 18-12-2019 14:05:00 8.4 C 92 % 7.18 C
3627 18-12-2019 14:10:00 8.3 C 92 % 7.08 C
3628 18-12-2019 14:15:00 8.3 C 92 % 7.08 C
3629 18-12-2019 14:20:00 8.3 C 92 % 7.08 C
3630 18-12-2019 14:25:00 8.3 C 92 % 7.08 C
3631 18-12-2019 14:30:00 8.2 C 92 % 6.98 C
3632 18-12-2019 14:35:00 8.1 C 92 % 6.88 C
3633 18-12-2019 14:40:00 8.1 C 92 % 6.88 C
3634 18-12-2019 14:45:00 7.9 C 92 % 6.68 C
3635 18-12-2019 14:50:00 7.9 C 92 % 6.68 C
3636 18-12-2019 14:55:00 7.9 C 93 % 6.84 C
3637 18-12-2019 15:00:00 7.8 C 93 % 6.74 C
3638 18-12-2019 15:05:00 7.8 C 93 % 6.74 C
3639 18-12-2019 15:10:00 7.7 C 93 % 6.64 C
3640 18-12-2019 15:15:00 7.7 C 93 % 6.64 C
3641 18-12-2019 15:20:00 7.7 C 93 % 6.64 C
3642 18-12-2019 15:25:00 7.6 C 93 % 6.54 C
3643 18-12-2019 15:30:00 7.5 C 93 % 6.44 C
3644 18-12-2019 15:35:00 7.4 C 93 % 6.34 C
3645 18-12-2019 15:40:00 7.4 C 93 % 6.34 C
3646 18-12-2019 15:45:00 7.4 C 94 % 6.5 C
3647 18-12-2019 15:50:00 7.3 C 94 % 6.4 C
3648 18-12-2019 15:55:00 7.3 C 93 % 6.25 C
3649 18-12-2019 16:00:00 7.2 C 93 % 6.15 C
3650 18-12-2019 16:05:00 7.2 C 94 % 6.3 C
Sensor: Nr:Datum:Temp:Feuchte:Taupunkt:
Aussen-T/F 3651 18-12-2019 16:10:00 7.1 C 94 % 6.2 C
3652 18-12-2019 16:15:00 7.1 C 94 % 6.2 C
3653 18-12-2019 16:20:00 7.1 C 94 % 6.2 C
3654 18-12-2019 16:25:00 7 C 94 % 6.1 C
3655 18-12-2019 16:30:00 6.9 C 93 % 5.85 C
3656 18-12-2019 16:35:00 6.8 C 94 % 5.9 C
3657 18-12-2019 16:40:00 6.7 C 94 % 5.8 C
3658 18-12-2019 16:45:00 6.6 C 94 % 5.71 C
3659 18-12-2019 16:50:00 6.5 C 94 % 5.61 C
3660 18-12-2019 16:55:00 6.4 C 94 % 5.51 C
3661 18-12-2019 17:00:00 6.4 C 94 % 5.51 C
3662 18-12-2019 17:05:00 6.3 C 94 % 5.41 C
3663 18-12-2019 17:10:00 6.3 C 94 % 5.41 C
3664 18-12-2019 17:15:00 6.2 C 94 % 5.31 C
3665 18-12-2019 17:20:00 6.1 C 94 % 5.21 C
3666 18-12-2019 17:25:00 6 C 94 % 5.11 C
3667 18-12-2019 17:30:00 5.9 C 94 % 5.01 C
3668 18-12-2019 17:35:00 5.8 C 94 % 4.91 C
3669 18-12-2019 17:40:00 5.7 C 94 % 4.81 C
3670 18-12-2019 17:45:00 5.6 C 94 % 4.71 C
3671 18-12-2019 17:50:00 5.5 C 94 % 4.61 C
3672 18-12-2019 17:55:00 5.4 C 94 % 4.51 C
3673 18-12-2019 18:00:00 5.3 C 94 % 4.41 C
3674 18-12-2019 18:05:00 5.2 C 95 % 4.47 C
3675 18-12-2019 18:10:00 5.2 C 95 % 4.47 C
Sensor: Nr:Datum:Temp:Feuchte:Taupunkt:
Aussen-T/F 3676 18-12-2019 18:15:00 5.2 C 95 % 4.47 C
3677 18-12-2019 18:20:00 5.2 C 95 % 4.47 C
3678 18-12-2019 18:25:00 5.3 C 95 % 4.57 C
3679 18-12-2019 18:30:00 5.4 C 96 % 4.81 C
3680 18-12-2019 18:35:00 5.6 C 96 % 5.01 C
3681 18-12-2019 18:40:00 5.6 C 96 % 5.01 C
3682 18-12-2019 18:45:00 5.5 C 96 % 4.91 C
3683 18-12-2019 18:50:00 5.6 C 96 % 5.01 C
3684 18-12-2019 18:55:00 5.7 C 96 % 5.11 C
3685 18-12-2019 19:00:00 5.7 C 96 % 5.11 C
3686 18-12-2019 19:05:00 5.7 C 96 % 5.11 C
3687 18-12-2019 19:10:00 5.7 C 96 % 5.11 C
3688 18-12-2019 19:15:00 5.7 C 96 % 5.11 C
3689 18-12-2019 19:20:00 5.6 C 96 % 5.01 C
3690 18-12-2019 19:25:00 5.5 C 96 % 4.91 C
3691 18-12-2019 19:30:00 5.5 C 96 % 4.91 C
3692 18-12-2019 19:35:00 5.6 C 96 % 5.01 C
3693 18-12-2019 19:40:00 5.5 C 96 % 4.91 C
3694 18-12-2019 19:45:00 5.6 C 96 % 5.01 C
3695 18-12-2019 19:50:00 5.5 C 96 % 4.91 C
3696 18-12-2019 19:55:00 5.4 C 96 % 4.81 C
3697 18-12-2019 20:00:00 5.4 C 96 % 4.81 C
3698 18-12-2019 20:05:00 5.5 C 96 % 4.91 C
3699 18-12-2019 20:10:00 5.6 C 96 % 5.01 C
3700 18-12-2019 20:15:00 5.6 C 96 % 5.01 C
Sensor: Nr:Datum:Temp:Feuchte:Taupunkt:
Aussen-T/F 3701 18-12-2019 20:20:00 5.5 C 96 % 4.91 C
3702 18-12-2019 20:25:00 5.4 C 96 % 4.81 C
3703 18-12-2019 20:30:00 5.4 C 96 % 4.81 C
3704 18-12-2019 20:35:00 5.4 C 96 % 4.81 C
3705 18-12-2019 20:40:00 5.3 C 96 % 4.72 C
3706 18-12-2019 20:45:00 5.3 C 96 % 4.72 C
3707 18-12-2019 20:50:00 5.2 C 96 % 4.62 C
3708 18-12-2019 20:55:00 5.1 C 96 % 4.52 C
3709 18-12-2019 21:00:00 4.9 C 96 % 4.32 C
3710 18-12-2019 21:05:00 4.9 C 96 % 4.32 C
3711 18-12-2019 21:10:00 4.9 C 96 % 4.32 C
3712 18-12-2019 21:15:00 4.8 C 96 % 4.22 C
3713 18-12-2019 21:20:00 4.8 C 96 % 4.22 C
3714 18-12-2019 21:25:00 4.8 C 96 % 4.22 C
3715 18-12-2019 21:30:00 4.8 C 96 % 4.22 C
3716 18-12-2019 21:35:00 4.7 C 96 % 4.12 C
3717 18-12-2019 21:40:00 4.7 C 96 % 4.12 C
3718 18-12-2019 21:45:00 4.6 C 96 % 4.02 C
3719 18-12-2019 21:50:00 4.6 C 96 % 4.02 C
3720 18-12-2019 21:55:00 4.4 C 96 % 3.82 C
3721 18-12-2019 22:00:00 4.3 C 96 % 3.72 C
3722 18-12-2019 22:05:00 4.3 C 96 % 3.72 C
3723 18-12-2019 22:10:00 4.3 C 96 % 3.72 C
3724 18-12-2019 22:15:00 4.3 C 96 % 3.72 C
3725 18-12-2019 22:20:00 4.2 C 96 % 3.62 C
Sensor: Nr:Datum:Temp:Feuchte:Taupunkt:
Aussen-T/F 3726 18-12-2019 22:25:00 4 C 96 % 3.42 C
3727 18-12-2019 22:30:00 3.9 C 96 % 3.32 C
3728 18-12-2019 22:35:00 3.7 C 96 % 3.12 C
3729 18-12-2019 22:40:00 3.7 C 96 % 3.12 C
3730 18-12-2019 22:45:00 3.7 C 96 % 3.12 C
3731 18-12-2019 22:50:00 3.6 C 96 % 3.02 C
3732 18-12-2019 22:55:00 3.5 C 96 % 2.92 C
3733 18-12-2019 23:00:00 3.4 C 96 % 2.82 C
3734 18-12-2019 23:05:00 3.3 C 96 % 2.72 C
3735 18-12-2019 23:10:00 3.4 C 96 % 2.82 C
3736 18-12-2019 23:15:00 3.4 C 96 % 2.82 C
3737 18-12-2019 23:20:00 3.5 C 97 % 3.07 C
3738 18-12-2019 23:25:00 3.4 C 97 % 2.97 C
3739 18-12-2019 23:30:00 3.3 C 96 % 2.72 C
3740 18-12-2019 23:35:00 3.3 C 96 % 2.72 C
3741 18-12-2019 23:40:00 3.2 C 96 % 2.63 C
3742 18-12-2019 23:45:00 3.2 C 96 % 2.63 C
3743 18-12-2019 23:50:00 3.2 C 96 % 2.63 C
3744 18-12-2019 23:55:00 3.2 C 96 % 2.63 C
3745 19-12-2019 00:00:00 3.1 C 97 % 2.67 C
3746 19-12-2019 00:05:00 3.2 C 97 % 2.77 C
3747 19-12-2019 00:10:00 3.1 C 97 % 2.67 C
3748 19-12-2019 00:15:00 3.1 C 96 % 2.53 C
3749 19-12-2019 00:20:00 3 C 96 % 2.43 C
3750 19-12-2019 00:25:00 3 C 96 % 2.43 C
Sensor: Nr:Datum:Temp:Feuchte:Taupunkt:
Aussen-T/F 3751 19-12-2019 00:30:00 2.9 C 97 % 2.47 C
3752 19-12-2019 00:35:00 2.9 C 97 % 2.47 C
3753 19-12-2019 00:40:00 3.1 C 97 % 2.67 C
3754 19-12-2019 00:45:00 3.1 C 97 % 2.67 C
3755 19-12-2019 00:50:00 3.1 C 97 % 2.67 C
3756 19-12-2019 00:55:00 3.1 C 97 % 2.67 C
3757 19-12-2019 01:00:00 3.1 C 97 % 2.67 C
3758 19-12-2019 01:05:00 3 C 97 % 2.57 C
3759 19-12-2019 01:10:00 2.9 C 97 % 2.47 C
3760 19-12-2019 01:15:00 2.9 C 97 % 2.47 C
3761 19-12-2019 01:20:00 2.9 C 97 % 2.47 C
3762 19-12-2019 01:25:00 2.9 C 97 % 2.47 C
3763 19-12-2019 01:30:00 2.8 C 97 % 2.37 C
3764 19-12-2019 01:35:00 2.7 C 97 % 2.27 C
3765 19-12-2019 01:40:00 2.7 C 97 % 2.27 C
3766 19-12-2019 01:45:00 2.9 C 97 % 2.47 C
3767 19-12-2019 01:50:00 3.1 C 97 % 2.67 C
3768 19-12-2019 01:55:00 3.1 C 97 % 2.67 C
3769 19-12-2019 02:00:00 3.1 C 97 % 2.67 C
3770 19-12-2019 02:05:00 3.1 C 97 % 2.67 C
3771 19-12-2019 02:10:00 3 C 97 % 2.57 C
3772 19-12-2019 02:15:00 2.9 C 97 % 2.47 C
3773 19-12-2019 02:20:00 2.9 C 97 % 2.47 C
3774 19-12-2019 02:25:00 2.8 C 97 % 2.37 C
3775 19-12-2019 02:30:00 2.8 C 97 % 2.37 C
Sensor: Nr:Datum:Temp:Feuchte:Taupunkt:
Aussen-T/F 3776 19-12-2019 02:35:00 2.8 C 97 % 2.37 C
3777 19-12-2019 02:40:00 2.8 C 97 % 2.37 C
3778 19-12-2019 02:45:00 2.7 C 97 % 2.27 C
3779 19-12-2019 02:50:00 2.8 C 97 % 2.37 C
3780 19-12-2019 02:55:00 2.8 C 97 % 2.37 C
3781 19-12-2019 03:00:00 2.8 C 97 % 2.37 C
3782 19-12-2019 03:05:00 2.7 C 97 % 2.27 C
3783 19-12-2019 03:10:00 2.7 C 97 % 2.27 C
3784 19-12-2019 03:15:00 2.7 C 97 % 2.27 C
3785 19-12-2019 03:20:00 2.7 C 97 % 2.27 C
3786 19-12-2019 03:25:00 2.7 C 97 % 2.27 C
3787 19-12-2019 03:30:00 2.7 C 97 % 2.27 C
3788 19-12-2019 03:35:00 2.7 C 97 % 2.27 C
3789 19-12-2019 03:40:00 2.6 C 97 % 2.17 C
3790 19-12-2019 03:45:00 2.6 C 97 % 2.17 C
3791 19-12-2019 03:50:00 2.6 C 97 % 2.17 C
3792 19-12-2019 03:55:00 2.6 C 97 % 2.17 C
3793 19-12-2019 04:00:00 2.6 C 97 % 2.17 C
3794 19-12-2019 04:05:00 2.6 C 97 % 2.17 C
3795 19-12-2019 04:10:00 2.5 C 97 % 2.07 C
3796 19-12-2019 04:15:00 2.4 C 97 % 1.97 C
3797 19-12-2019 04:20:00 2.4 C 97 % 1.97 C
3798 19-12-2019 04:25:00 2.4 C 97 % 1.97 C
3799 19-12-2019 04:30:00 2.4 C 97 % 1.97 C
3800 19-12-2019 04:35:00 2.4 C 97 % 1.97 C
Sensor: Nr:Datum:Temp:Feuchte:Taupunkt:
Aussen-T/F 3801 19-12-2019 04:40:00 2.3 C 97 % 1.87 C
3802 19-12-2019 04:45:00 2.3 C 97 % 1.87 C
3803 19-12-2019 04:50:00 2.2 C 97 % 1.77 C
3804 19-12-2019 04:55:00 2.2 C 97 % 1.77 C
3805 19-12-2019 05:00:00 2.2 C 97 % 1.77 C
3806 19-12-2019 05:05:00 2.3 C 97 % 1.87 C
3807 19-12-2019 05:10:00 2.2 C 97 % 1.77 C
3808 19-12-2019 05:15:00 2.2 C 97 % 1.77 C
3809 19-12-2019 05:20:00 2.3 C 97 % 1.87 C
3810 19-12-2019 05:25:00 2.3 C 97 % 1.87 C
3811 19-12-2019 05:30:00 2.2 C 97 % 1.77 C
3812 19-12-2019 05:35:00 2.2 C 97 % 1.77 C
3813 19-12-2019 05:40:00 2.1 C 97 % 1.67 C
3814 19-12-2019 05:45:00 2.1 C 97 % 1.67 C
3815 19-12-2019 05:50:00 2.1 C 97 % 1.67 C
3816 19-12-2019 05:55:00 2 C 97 % 1.58 C
3817 19-12-2019 06:00:00 1.9 C 97 % 1.48 C
3818 19-12-2019 06:05:00 1.9 C 97 % 1.48 C
3819 19-12-2019 06:10:00 1.9 C 97 % 1.48 C
3820 19-12-2019 06:15:00 1.9 C 97 % 1.48 C
3821 19-12-2019 06:20:00 1.9 C 97 % 1.48 C
3822 19-12-2019 06:25:00 1.9 C 97 % 1.48 C
3823 19-12-2019 06:30:00 1.8 C 97 % 1.38 C
3824 19-12-2019 06:35:00 1.9 C 97 % 1.48 C
3825 19-12-2019 06:40:00 1.9 C 97 % 1.48 C
Sensor: Nr:Datum:Temp:Feuchte:Taupunkt:
Aussen-T/F 3826 19-12-2019 06:45:00 1.9 C 97 % 1.48 C
3827 19-12-2019 06:50:00 1.8 C 97 % 1.38 C
3828 19-12-2019 06:55:00 1.8 C 97 % 1.38 C
3829 19-12-2019 07:00:00 1.8 C 97 % 1.38 C
3830 19-12-2019 07:05:00 1.9 C 97 % 1.48 C
3831 19-12-2019 07:10:00 1.9 C 97 % 1.48 C
3832 19-12-2019 07:15:00 1.8 C 97 % 1.38 C
3833 19-12-2019 07:20:00 1.9 C 97 % 1.48 C
3834 19-12-2019 07:25:00 2.5 C 97 % 2.07 C
3835 19-12-2019 07:30:00 3.7 C 98 % 3.41 C
3836 19-12-2019 07:35:00 4.1 C 98 % 3.81 C
3837 19-12-2019 07:40:00 4.2 C 98 % 3.91 C
3838 19-12-2019 07:45:00 4.3 C 98 % 4.01 C
3839 19-12-2019 07:50:00 4.4 C 98 % 4.11 C
3840 19-12-2019 07:55:00 4.4 C 98 % 4.11 C
3841 19-12-2019 08:00:00 4.8 C 98 % 4.51 C
3842 19-12-2019 08:05:00 5.1 C 98 % 4.81 C
3843 19-12-2019 08:10:00 5.2 C 98 % 4.91 C
3844 19-12-2019 08:15:00 5.1 C 98 % 4.81 C
3845 19-12-2019 08:20:00 5.4 C 98 % 5.11 C
3846 19-12-2019 08:25:00 5.1 C 98 % 4.81 C
3847 19-12-2019 08:30:00 4.9 C 98 % 4.61 C
3848 19-12-2019 08:35:00 5.2 C 98 % 4.91 C
3849 19-12-2019 08:40:00 5.2 C 98 % 4.91 C
3850 19-12-2019 08:45:00 5.1 C 98 % 4.81 C
Sensor: Nr:Datum:Temp:Feuchte:Taupunkt:
Aussen-T/F 3851 19-12-2019 08:50:00 4.9 C 98 % 4.61 C
3852 19-12-2019 08:55:00 4.7 C 98 % 4.41 C
3853 19-12-2019 09:00:00 4.6 C 98 % 4.31 C
3854 19-12-2019 09:05:00 4.9 C 98 % 4.61 C
3855 19-12-2019 09:10:00 5.3 C 98 % 5.01 C
3856 19-12-2019 09:15:00 5.5 C 98 % 5.21 C
3857 19-12-2019 09:20:00 5.2 C 98 % 4.91 C
3858 19-12-2019 09:25:00 5.2 C 98 % 4.91 C
3859 19-12-2019 09:30:00 5.3 C 98 % 5.01 C
3860 19-12-2019 09:35:00 5.3 C 98 % 5.01 C
3861 19-12-2019 09:40:00 5.4 C 98 % 5.11 C
3862 19-12-2019 09:45:00 5.4 C 98 % 5.11 C
3863 19-12-2019 09:50:00 5.4 C 98 % 5.11 C
3864 19-12-2019 09:55:00 5.4 C 98 % 5.11 C
3865 19-12-2019 10:00:00 5.4 C 98 % 5.11 C
3866 19-12-2019 10:05:00 5.6 C 98 % 5.31 C
3867 19-12-2019 10:10:00 5.6 C 98 % 5.31 C
3868 19-12-2019 10:15:00 5.8 C 98 % 5.51 C
3869 19-12-2019 10:20:00 6.1 C 98 % 5.81 C
3870 19-12-2019 10:25:00 6.3 C 98 % 6.01 C
3871 19-12-2019 10:30:00 6.9 C 98 % 6.61 C
3872 19-12-2019 10:35:00 7.6 C 98 % 7.3 C
3873 19-12-2019 10:40:00 8 C 98 % 7.7 C
3874 19-12-2019 10:45:00 8.1 C 98 % 7.8 C
3875 19-12-2019 10:50:00 7.9 C 98 % 7.6 C
Sensor: Nr:Datum:Temp:Feuchte:Taupunkt:
Aussen-T/F 3876 19-12-2019 10:55:00 7.8 C 98 % 7.5 C
3877 19-12-2019 11:00:00 7.6 C 98 % 7.3 C
3878 19-12-2019 11:05:00 7.5 C 98 % 7.2 C
3879 19-12-2019 11:10:00 7.3 C 98 % 7.01 C
3880 19-12-2019 11:15:00 7.3 C 98 % 7.01 C
3881 19-12-2019 11:20:00 7.2 C 98 % 6.91 C
3882 19-12-2019 11:25:00 7.2 C 98 % 6.91 C
3883 19-12-2019 11:30:00 7.2 C 98 % 6.91 C
3884 19-12-2019 11:35:00 7.2 C 98 % 6.91 C
3885 19-12-2019 11:40:00 7.3 C 98 % 7.01 C
3886 19-12-2019 11:45:00 7.4 C 98 % 7.11 C
3887 19-12-2019 11:50:00 7.5 C 98 % 7.2 C
3888 19-12-2019 11:55:00 7.5 C 98 % 7.2 C
3889 19-12-2019 12:00:00 7.4 C 98 % 7.11 C
3890 19-12-2019 12:05:00 7.4 C 98 % 7.11 C
3891 19-12-2019 12:10:00 7.4 C 98 % 7.11 C
3892 19-12-2019 12:15:00 7.4 C 98 % 7.11 C
3893 19-12-2019 12:20:00 7.5 C 98 % 7.2 C
3894 19-12-2019 12:25:00 7.6 C 98 % 7.3 C
3895 19-12-2019 12:30:00 7.6 C 98 % 7.3 C
3896 19-12-2019 12:35:00 7.7 C 98 % 7.4 C
3897 19-12-2019 12:40:00 7.8 C 98 % 7.5 C
3898 19-12-2019 12:45:00 7.7 C 98 % 7.4 C
3899 19-12-2019 12:50:00 7.8 C 98 % 7.5 C
3900 19-12-2019 12:55:00 7.8 C 98 % 7.5 C
Sensor: Nr:Datum:Temp:Feuchte:Taupunkt:
Aussen-T/F 3901 19-12-2019 13:00:00 7.8 C 98 % 7.5 C
<